Provisional Data: West Creek near Weber City, PA


Please select a monitoring station.
Please select start date.
Please select start date.

Toggle Unit: C/F Toggle Unit: C/F
Sample Time Temperature (C) Temperature (F) Specific Conductivity (mS/cm) pH   Turbidity (NTU+) DO (mg/L)
9/6/2021 12:00:00 AM 17.14 62.852 0.088 7.25 11.98 9.45
9/6/2021 12:15:00 AM 17.11 62.798 0.088 7.25 11.75 9.45
9/6/2021 12:30:00 AM 17.09 62.762 0.088 7.25 11.61 9.46
9/6/2021 12:45:00 AM 17.06 62.708 0.088 7.25 11.26 9.47
9/6/2021 1:00:00 AM 17.03 62.654 0.088 7.25 11.12 9.47
9/6/2021 1:15:00 AM 17 62.6 0.089 7.25 10.74 9.48
9/6/2021 1:30:00 AM 16.97 62.546 0.089 7.24 10.41 9.49
9/6/2021 1:45:00 AM 16.94 62.492 0.089 7.25 10.41 9.5
9/6/2021 2:00:00 AM 16.91 62.438 0.089 7.25 10.06 9.5
9/6/2021 2:15:00 AM 16.87 62.366 0.089 7.25 9.79 9.51
9/6/2021 2:30:00 AM 16.83 62.294 0.089 7.25 9.54 9.52
9/6/2021 2:45:00 AM 16.79 62.222 0.089 7.24 9.37 9.52
9/6/2021 3:00:00 AM 16.75 62.15 0.089 7.24 9.16 9.53
9/6/2021 3:15:00 AM 16.71 62.078 0.089 7.24 9.14 9.54
9/6/2021 3:30:00 AM 16.67 62.006 0.089 7.24 8.91 9.55
9/6/2021 3:45:00 AM 16.63 61.934 0.089 7.24 8.57 9.56
9/6/2021 4:00:00 AM 16.6 61.88 0.089 7.24 8.51 9.57
9/6/2021 4:15:00 AM 16.56 61.808 0.089 7.23 8.18 9.58
9/6/2021 4:30:00 AM 16.52 61.736 0.089 7.23 7.73 9.58
9/6/2021 4:45:00 AM 16.49 61.682 0.089 7.23 7.72 9.59
9/6/2021 5:00:00 AM 16.45 61.61 0.089 7.23 7.83 9.6
9/6/2021 5:15:00 AM 16.42 61.556 0.089 7.22 7.71 9.61
9/6/2021 5:30:00 AM 16.38 61.484 0.089 7.23 7.55 9.62
9/6/2021 5:45:00 AM 16.34 61.412 0.089 7.23 7.26 9.63
9/6/2021 6:00:00 AM 16.3 61.34 0.09 7.23 7.2 9.63
9/6/2021 6:15:00 AM 16.25 61.25 0.09 7.22 7.04 9.64
9/6/2021 6:30:00 AM 16.21 61.178 0.09 7.23 7.03 9.65
9/6/2021 6:45:00 AM 16.17 61.106 0.09 7.22 6.96 9.66
9/6/2021 7:00:00 AM 16.13 61.034 0.09 7.22 6.91 9.68
9/6/2021 7:15:00 AM 16.1 60.98 0.09 7.22 6.72 9.7
9/6/2021 7:30:00 AM 16.06 60.908 0.089 7.23 6.57 9.75
9/6/2021 7:45:00 AM 16.04 60.872 0.089 7.24 6.45 9.79
9/6/2021 8:00:00 AM 16.01 60.818 0.089 7.24 6.21 9.82
9/6/2021 8:15:00 AM 15.98 60.764 0.089 7.25 6.05 9.83
9/6/2021 8:30:00 AM 15.96 60.728 0.089 7.25 5.99 9.88
9/6/2021 8:45:00 AM 15.94 60.692 0.089 7.26 5.82 9.93
9/6/2021 9:00:00 AM 15.95 60.71 0.089 7.28 5.8 10.02
9/6/2021 9:15:00 AM 15.95 60.71 0.089 7.29 5.79 10.05
9/6/2021 9:30:00 AM 15.95 60.71 0.088 7.3 5.4 10.08
9/6/2021 9:45:00 AM 15.97 60.746 0.088 7.31 5.41 10.11
9/6/2021 10:00:00 AM 16.02 60.836 0.088 7.33 5.37 10.17
9/6/2021 10:15:00 AM 16.06 60.908 0.088 7.34 5.21 10.2
9/6/2021 10:30:00 AM 16.13 61.034 0.088 7.35 5.01 10.2
9/6/2021 10:45:00 AM 16.2 61.16 0.087 7.36 4.98 10.21
9/6/2021 11:00:00 AM 16.28 61.304 0.087 7.37 4.96 10.23
9/6/2021 11:15:00 AM 16.38 61.484 0.087 7.39 4.81 10.24
9/6/2021 11:30:00 AM 16.47 61.646 0.087 7.4 5.4 10.23
9/6/2021 11:45:00 AM 16.59 61.862 0.087 7.41 4.7 10.25
9/6/2021 12:00:00 PM 16.72 62.096 0.086 7.42 4.78 10.25
9/6/2021 12:15:00 PM 16.83 62.294 0.086 7.44 4.58 10.27
9/6/2021 12:30:00 PM 16.96 62.528 0.086 7.46 4.66 10.29
9/6/2021 12:45:00 PM 17.08 62.744 0.086 7.49 4.62 10.3
9/6/2021 1:00:00 PM 17.19 62.942 0.085 7.51 4.53 10.31
9/6/2021 1:15:00 PM 17.38 63.284 0.085 7.52 4.49 10.3
9/6/2021 1:30:00 PM 17.54 63.572 0.085 7.53 4.47 10.26
9/6/2021 1:45:00 PM 17.66 63.788 0.085 7.54 4.37 10.24
9/6/2021 2:00:00 PM 17.75 63.95 0.085 7.55 4.36 10.23
9/6/2021 2:15:00 PM 17.89 64.202 0.085 7.56 4.46 10.2
9/6/2021 2:30:00 PM 18.08 64.544 0.084 7.57 4.51 10.19
9/6/2021 2:45:00 PM 18.12 64.616 0.084 7.58 4.18 10.16
9/6/2021 3:00:00 PM 18.28 64.904 0.084 7.58 4.34 10.13
9/6/2021 3:15:00 PM 18.45 65.21 0.084 7.59 4.35 10.11
9/6/2021 3:30:00 PM 18.56 65.408 0.084 7.6 4.23 10.08
9/6/2021 3:45:00 PM 18.67 65.606 0.083 7.6 4.12 10.05
9/6/2021 4:00:00 PM 18.76 65.768 0.083 7.6 4.16 10.01
9/6/2021 4:15:00 PM 18.9 66.02 0.083 7.61 4.19 10
9/6/2021 4:30:00 PM 18.93 66.074 0.083 7.61 4.08 9.95
9/6/2021 4:45:00 PM 19.04 66.272 0.083 7.61 4.04 9.92
9/6/2021 5:00:00 PM 19.07 66.326 0.082 7.59 4.14 9.86
9/6/2021 5:15:00 PM 19.1 66.38 0.082 7.58 4.13 9.82
9/6/2021 5:30:00 PM 19.17 66.506 0.082 7.56 4.01 9.77
9/6/2021 5:45:00 PM 19.18 66.524 0.082 7.54 4.1 9.7
9/6/2021 6:00:00 PM 19.14 66.452 0.082 7.52 4.04 9.64
9/6/2021 6:15:00 PM 19.09 66.362 0.082 7.49 4.14 9.59
9/6/2021 6:30:00 PM 19.02 66.236 0.082 7.47 4.56 9.55
9/6/2021 6:45:00 PM 18.95 66.11 0.082 7.45 4.22 9.5
9/6/2021 7:00:00 PM 18.85 65.93 0.082 7.42 4.17 9.46
9/6/2021 7:15:00 PM 18.73 65.714 0.082 7.4 4.09 9.42
9/6/2021 7:30:00 PM 18.61 65.498 0.082 7.38 4.2 9.4
9/6/2021 7:45:00 PM 18.48 65.264 0.082 7.35 4.08 9.36
9/6/2021 8:00:00 PM 18.35 65.03 0.082 7.33 4.24 9.34
9/6/2021 8:15:00 PM 18.23 64.814 0.082 7.32 4.17 9.33
9/6/2021 8:30:00 PM 18.12 64.616 0.082 7.31 4.33 9.33
9/6/2021 8:45:00 PM 18.01 64.418 0.082 7.3 4.35 9.33
9/6/2021 9:00:00 PM 17.91 64.238 0.082 7.28 4.36 9.33
9/6/2021 9:15:00 PM 17.81 64.058 0.082 7.28 4.9 9.34
9/6/2021 9:30:00 PM 17.71 63.878 0.082 7.27 4.28 9.35
9/6/2021 9:45:00 PM 17.61 63.698 0.082 7.26 4.22 9.36
9/6/2021 10:00:00 PM 17.51 63.518 0.082 7.26 4.23 9.38
9/6/2021 10:15:00 PM 17.42 63.356 0.082 7.25 4.37 9.4
9/6/2021 10:30:00 PM 17.33 63.194 0.082 7.25 4.14 9.41
9/6/2021 10:45:00 PM 17.24 63.032 0.082 7.24 4.17 9.43
9/6/2021 11:00:00 PM 17.15 62.87 0.082 7.24 4.27 9.45
9/6/2021 11:15:00 PM 17.06 62.708 0.082 7.23 4.07 9.46
9/6/2021 11:30:00 PM 16.97 62.546 0.082 7.23 3.98 9.48
9/6/2021 11:45:00 PM 16.88 62.384 0.082 7.23 4.11 9.5
9/7/2021 12:00:00 AM 16.8 62.24 0.082 7.22 4.19 9.52
9/7/2021 12:15:00 AM 16.71 62.078 0.082 7.22 4.15 9.53
9/7/2021 12:30:00 AM 16.63 61.934 0.082 7.22 4.13 9.55
9/7/2021 12:45:00 AM 16.55 61.79 0.081 7.22 4.04 9.57
9/7/2021 1:00:00 AM 16.48 61.664 0.081 7.22 4.02 9.59
9/7/2021 1:15:00 AM 16.41 61.538 0.081 7.22 3.97 9.61
9/7/2021 1:30:00 AM 16.36 61.448 0.081 7.22 3.96 9.62
9/7/2021 1:45:00 AM 16.3 61.34 0.081 7.21 3.92 9.64
9/7/2021 2:00:00 AM 16.25 61.25 0.081 7.21 4 9.65
9/7/2021 2:15:00 AM 16.2 61.16 0.081 7.2 4.08 9.66
9/7/2021 2:30:00 AM 16.14 61.052 0.081 7.21 4 9.67
9/7/2021 2:45:00 AM 16.09 60.962 0.081 7.21 3.9 9.69
9/7/2021 3:00:00 AM 16.04 60.872 0.081 7.21 3.92 9.71
9/7/2021 3:15:00 AM 15.99 60.782 0.081 7.21 3.81 9.72
9/7/2021 3:30:00 AM 15.93 60.674 0.081 7.21 3.93 9.73
9/7/2021 3:45:00 AM 15.87 60.566 0.081 7.21 3.9 9.75
9/7/2021 4:00:00 AM 15.81 60.458 0.081 7.21 3.81 9.76
9/7/2021 4:15:00 AM 15.75 60.35 0.081 7.21 3.81 9.77
9/7/2021 4:30:00 AM 15.69 60.242 0.081 7.21 4.12 9.79
9/7/2021 4:45:00 AM 15.63 60.134 0.081 7.2 3.69 9.81
9/7/2021 5:00:00 AM 15.57 60.026 0.081 7.2 3.76 9.82
9/7/2021 5:15:00 AM 15.51 59.918 0.081 7.21 3.86 9.84
9/7/2021 5:30:00 AM 15.44 59.792 0.081 7.21 3.76 9.86
9/7/2021 5:45:00 AM 15.39 59.702 0.081 7.21 3.75 9.87
9/7/2021 6:00:00 AM 15.33 59.594 0.081 7.21 3.77 9.89
9/7/2021 6:15:00 AM 15.27 59.486 0.081 7.2 3.88 9.9
9/7/2021 6:30:00 AM 15.21 59.378 0.081 7.2 3.8 9.92
9/7/2021 6:45:00 AM 15.15 59.27 0.081 7.21 3.85 9.93
9/7/2021 7:00:00 AM 15.1 59.18 0.081 7.2 3.82 9.96
9/7/2021 7:15:00 AM 15.05 59.09 0.081 7.21 3.84 9.99
9/7/2021 7:30:00 AM 15 59 0.081 7.22 3.66 10.03
9/7/2021 7:45:00 AM 14.96 58.928 0.081 7.22 3.59 10.07
9/7/2021 8:00:00 AM 14.91 58.838 0.081 7.23 3.66 10.12
9/7/2021 8:15:00 AM 14.89 58.802 0.081 7.24 3.64 10.19
9/7/2021 8:30:00 AM 14.87 58.766 0.081 7.27 3.7 10.26
9/7/2021 8:45:00 AM 14.85 58.73 0.08 7.28 3.71 10.33
9/7/2021 9:00:00 AM 14.83 58.694 0.08 7.3 3.57 10.4
9/7/2021 9:15:00 AM 14.83 58.694 0.08 7.32 3.56 10.45
9/7/2021 9:30:00 AM 14.84 58.712 0.08 7.34 3.52 10.52
9/7/2021 9:45:00 AM 14.87 58.766 0.08 7.36 3.5 10.6
9/7/2021 10:00:00 AM 14.92 58.856 0.08 7.38 3.38 10.65
9/7/2021 10:15:00 AM 14.95 58.91 0.08 7.38 3.36 10.64
9/7/2021 10:30:00 AM 15 59 0.08 7.39 3.4 10.61
9/7/2021 10:45:00 AM 15.07 59.126 0.08 7.39 3.17 10.6
9/7/2021 11:00:00 AM 15.15 59.27 0.08 7.4 3.22 10.58
9/7/2021 11:15:00 AM 15.24 59.432 0.079 7.41 3.17 10.57
9/7/2021 11:30:00 AM 15.35 59.63 0.08 7.41 3.24 10.56
9/7/2021 11:45:00 AM 15.48 59.864 0.079 7.42 3.24 10.55
9/7/2021 12:00:00 PM 15.62 60.116 0.079 7.43 3.21 10.54
9/7/2021 12:15:00 PM 15.77 60.386 0.079 7.44 3.22 10.52
9/7/2021 12:30:00 PM 15.93 60.674 0.079 7.46 3.12 10.51
9/7/2021 12:45:00 PM 16.1 60.98 0.079 7.46 3.13 10.5
9/7/2021 1:00:00 PM 16.25 61.25 0.079 7.47 3.09 10.48
9/7/2021 1:15:00 PM 16.39 61.502 0.079 7.48 3.1 10.47
9/7/2021 1:30:00 PM 16.48 61.664 0.079 7.5 3.11 10.44
9/7/2021 1:45:00 PM 16.6 61.88 0.079 7.49 3.02 10.41
9/7/2021 2:00:00 PM 16.77 62.186 0.079 7.51 2.99 10.39
9/7/2021 2:15:00 PM 17.02 62.636 0.079 7.52 3.15 10.38
9/7/2021 2:30:00 PM 17.23 63.014 0.078 7.54 3.1 10.38
9/7/2021 2:45:00 PM 17.4 63.32 0.078 7.55 3.07 10.35
9/7/2021 3:00:00 PM 17.54 63.572 0.078 7.56 3.04 10.3
9/7/2021 3:15:00 PM 17.72 63.896 0.078 7.57 2.98 10.27
9/7/2021 3:30:00 PM 17.83 64.094 0.078 7.57 3.04 10.23
9/7/2021 3:45:00 PM 18.04 64.472 0.078 7.57 3.06 10.2
9/7/2021 4:00:00 PM 18.21 64.778 0.078 7.58 2.99 10.16
9/7/2021 4:15:00 PM 18.39 65.102 0.078 7.59 3.05 10.12
9/7/2021 4:30:00 PM 18.54 65.372 0.078 7.59 3 10.07
9/7/2021 4:45:00 PM 18.67 65.606 0.077 7.59 3.06 10.01
9/7/2021 5:00:00 PM 18.76 65.768 0.078 7.57 2.96 9.95
9/7/2021 5:15:00 PM 18.85 65.93 0.077 7.56 3.03 9.89
9/7/2021 5:30:00 PM 18.9 66.02 0.078 7.55 3.08 9.84
9/7/2021 5:45:00 PM 18.95 66.11 0.077 7.53 3.04 9.79
9/7/2021 6:00:00 PM 18.97 66.146 0.077 7.52 2.97 9.76
9/7/2021 6:15:00 PM 18.99 66.182 0.077 7.5 3.08 9.7
9/7/2021 6:30:00 PM 18.97 66.146 0.077 7.48 3.04 9.63
9/7/2021 6:45:00 PM 18.94 66.092 0.078 7.45 3.1 9.56
9/7/2021 7:00:00 PM 18.89 66.002 0.078 7.42 3.09 9.49
9/7/2021 7:15:00 PM 18.83 65.894 0.078 7.39 3.08 9.43
9/7/2021 7:30:00 PM 18.78 65.804 0.078 7.37 3 9.38
9/7/2021 7:45:00 PM 18.72 65.696 0.078 7.34 3.17 9.32
9/7/2021 8:00:00 PM 18.65 65.57 0.078 7.32 3.32 9.28
9/7/2021 8:15:00 PM 18.58 65.444 0.078 7.3 3.27 9.26
9/7/2021 8:30:00 PM 18.51 65.318 0.078 7.29 3.46 9.24
9/7/2021 8:45:00 PM 18.43 65.174 0.078 7.27 3.41 9.23
9/7/2021 9:00:00 PM 18.36 65.048 0.078 7.27 3.42 9.24
9/7/2021 9:15:00 PM 18.28 64.904 0.078 7.26 3.41 9.24
9/7/2021 9:30:00 PM 18.2 64.76 0.078 7.26 3.4 9.24
9/7/2021 9:45:00 PM 18.12 64.616 0.079 7.25 3.43 9.25
9/7/2021 10:00:00 PM 18.03 64.454 0.078 7.24 3.33 9.27
9/7/2021 10:15:00 PM 17.95 64.31 0.079 7.24 3.39 9.28
9/7/2021 10:30:00 PM 17.86 64.148 0.079 7.24 3.34 9.29
9/7/2021 10:45:00 PM 17.78 64.004 0.079 7.23 3.36 9.31
9/7/2021 11:00:00 PM 17.7 63.86 0.079 7.23 3.55 9.32
9/7/2021 11:15:00 PM 17.63 63.734 0.079 7.22 3.4 9.34
9/7/2021 11:30:00 PM 17.56 63.608 0.079 7.22 3.44 9.34
9/7/2021 11:45:00 PM 17.49 63.482 0.079 7.22 3.47 9.36
9/8/2021 12:00:00 AM 17.43 63.374 0.079 7.22 3.37 9.36
9/8/2021 12:15:00 AM 17.38 63.284 0.079 7.21 3.3 9.38
9/8/2021 12:30:00 AM 17.33 63.194 0.079 7.2 3.4 9.38
9/8/2021 12:45:00 AM 17.28 63.104 0.079 7.2 3.34 9.39
9/8/2021 1:00:00 AM 17.23 63.014 0.079 7.2 3.39 9.41
9/8/2021 1:15:00 AM 17.18 62.924 0.079 7.2 3.29 9.41
9/8/2021 1:30:00 AM 17.14 62.852 0.079 7.19 3.37 9.42
9/8/2021 1:45:00 AM 17.1 62.78 0.079 7.2 3.44 9.43
9/8/2021 2:00:00 AM 17.06 62.708 0.079 7.19 3.23 9.43
9/8/2021 2:15:00 AM 17.03 62.654 0.079 7.19 3.3 9.44
9/8/2021 2:30:00 AM 16.99 62.582 0.079 7.18 3.41 9.45
9/8/2021 2:45:00 AM 16.95 62.51 0.079 7.18 3.36 9.45
9/8/2021 3:00:00 AM 16.91 62.438 0.079 7.18 3.33 9.46
9/8/2021 3:15:00 AM 16.88 62.384 0.079 7.18 3.35 9.47
9/8/2021 3:30:00 AM 16.84 62.312 0.079 7.18 3.51 9.48
9/8/2021 3:45:00 AM 16.81 62.258 0.079 7.18 3.33 9.48
9/8/2021 4:00:00 AM 16.79 62.222 0.079 7.17 3.27 9.49
9/8/2021 4:15:00 AM 16.76 62.168 0.079 7.17 3.31 9.5
9/8/2021 4:30:00 AM 16.73 62.114 0.079 7.17 3.47 9.5
9/8/2021 4:45:00 AM 16.7 62.06 0.079 7.18 3.26 9.51
9/8/2021 5:00:00 AM 16.67 62.006 0.079 7.18 3.33 9.52
9/8/2021 5:15:00 AM 16.65 61.97 0.079 7.18 3.29 9.52
9/8/2021 5:30:00 AM 16.62 61.916 0.079 7.18 3.34 9.53
9/8/2021 5:45:00 AM 16.6 61.88 0.079 7.19 3.4 9.53
9/8/2021 6:00:00 AM 16.57 61.826 0.079 7.18 3.47 9.54
9/8/2021 6:15:00 AM 16.55 61.79 0.079 7.19 3.4 9.54
9/8/2021 6:30:00 AM 16.52 61.736 0.079 7.19 3.31 9.55
9/8/2021 6:45:00 AM 16.49 61.682 0.079 7.19 3.37 9.56
9/8/2021 7:00:00 AM 16.47 61.646 0.079 7.19 3.41 9.57
9/8/2021 7:15:00 AM 16.45 61.61 0.079 7.19 3.28 9.6
9/8/2021 7:30:00 AM 16.42 61.556 0.079 7.2 3.33 9.63
9/8/2021 7:45:00 AM 16.41 61.538 0.079 7.2 3.34 9.69
9/8/2021 8:00:00 AM 16.41 61.538 0.079 7.22 3.41 9.78
9/8/2021 8:15:00 AM 16.41 61.538 0.079 7.24 3.3 9.86
9/8/2021 8:30:00 AM 16.42 61.556 0.079 7.25 3.12 9.93
9/8/2021 8:45:00 AM 16.44 61.592 0.079 7.27 3.2 10.01
9/8/2021 9:00:00 AM 16.46 61.628 0.079 7.29 3.21 10.06
9/8/2021 9:15:00 AM 16.48 61.664 0.078 7.3 3.26 10.08
9/8/2021 9:30:00 AM 16.54 61.772 0.078 7.32 3.15 10.14
9/8/2021 9:45:00 AM 16.6 61.88 0.078 7.34 3.18 10.19
9/8/2021 10:00:00 AM 16.7 62.06 0.078 7.38 3.35 10.27
9/8/2021 10:15:00 AM 16.77 62.186 0.078 7.41 3.21 10.3
9/8/2021 10:30:00 AM 16.87 62.366 0.078 7.45 3.1 10.33
9/8/2021 10:45:00 AM 16.9 62.42 0.078 7.47 3.09 10.32
9/8/2021 11:00:00 AM 16.93 62.474 0.078 7.47 3.06 10.28
9/8/2021 11:15:00 AM 17.08 62.744 0.077 7.48 3.05 10.33
9/8/2021 11:30:00 AM 17.18 62.924 0.077 7.51 3.06 10.35
9/8/2021 11:45:00 AM 17.19 62.942 0.077 7.52 2.91 10.27
9/8/2021 12:00:00 PM 17.17 62.906 0.077 7.49 3.04 10.16
9/8/2021 12:15:00 PM 17.18 62.924 0.077 7.46 2.97 10.09
9/8/2021 12:30:00 PM 17.17 62.906 0.077 7.43 2.87 10
9/8/2021 12:45:00 PM 17.17 62.906 0.077 7.4 2.99 9.92
9/8/2021 1:00:00 PM 17.18 62.924 0.077 7.37 2.87 9.85
9/8/2021 1:15:00 PM 17.18 62.924 0.077 7.36 2.93 9.85
9/8/2021 1:30:00 PM 17.17 62.906 0.077 7.36 3.02 9.86
9/8/2021 1:45:00 PM 17.17 62.906 0.077 7.37 2.86 9.92
9/8/2021 2:00:00 PM 17.18 62.924 0.077 7.38 2.89 9.94
9/8/2021 2:15:00 PM 17.17 62.906 0.077 7.38 2.95 9.91
9/8/2021 2:30:00 PM 17.18 62.924 0.077 7.37 2.85 9.93
9/8/2021 2:45:00 PM 17.2 62.96 0.077 7.39 3.01 9.97
9/8/2021 3:00:00 PM 17.23 63.014 0.077 7.4 3.03 10.01
9/8/2021 3:15:00 PM 17.25 63.05 0.076 7.4 2.97 10.02
9/8/2021 3:30:00 PM 17.26 63.068 0.076 7.41 2.86 10.01
9/8/2021 3:45:00 PM 17.29 63.122 0.076 7.42 2.87 10
9/8/2021 4:00:00 PM 17.32 63.176 0.076 7.43 2.88 10.02
9/8/2021 4:15:00 PM 17.37 63.266 0.076 7.44 2.93 10.06
9/8/2021 4:30:00 PM 17.42 63.356 0.076 7.47 2.9 10.1
9/8/2021 4:45:00 PM 17.47 63.446 0.076 7.48 2.92 10.13
9/8/2021 5:00:00 PM 17.51 63.518 0.076 7.5 2.87 10.11
9/8/2021 5:15:00 PM 17.52 63.536 0.076 7.47 2.84 10.03
9/8/2021 5:30:00 PM 17.59 63.662 0.076 7.48 2.89 10.07
9/8/2021 5:45:00 PM 17.58 63.644 0.076 7.48 2.92 10.02
9/8/2021 6:00:00 PM 17.58 63.644 0.076 7.46 3 9.96
9/8/2021 6:15:00 PM 17.63 63.734 0.076 7.46 2.98 10
9/8/2021 6:30:00 PM 17.64 63.752 0.076 7.46 3.05 9.98
9/8/2021 6:45:00 PM 17.63 63.734 0.076 7.44 2.88 9.91
9/8/2021 7:00:00 PM 17.63 63.734 0.076 7.41 2.97 9.85
9/8/2021 7:15:00 PM 17.61 63.698 0.076 7.38 3.08 9.75
9/8/2021 7:30:00 PM 17.59 63.662 0.076 7.35 2.95 9.68
9/8/2021 7:45:00 PM 17.56 63.608 0.076 7.33 2.94 9.62
9/8/2021 8:00:00 PM 17.53 63.554 0.076 7.31 3.27 9.56
9/8/2021 8:15:00 PM 17.49 63.482 0.076 7.3 3.14 9.52
9/8/2021 8:30:00 PM 17.45 63.41 0.076 7.28 3.19 9.49
9/8/2021 8:45:00 PM 17.41 63.338 0.077 7.25 3.23 9.47
9/8/2021 9:00:00 PM 17.36 63.248 0.077 7.24 3.47 9.45
9/8/2021 9:15:00 PM 17.32 63.176 0.077 7.24 3.37 9.45
9/8/2021 9:30:00 PM 17.27 63.086 0.077 7.23 3.3 9.44
9/8/2021 9:45:00 PM 17.22 62.996 0.077 7.23 3.19 9.45
9/8/2021 10:00:00 PM 17.19 62.942 0.077 7.22 3.22 9.45
9/8/2021 10:15:00 PM 17.17 62.906 0.077 7.22 3.11 9.45
9/8/2021 10:30:00 PM 17.14 62.852 0.077 7.22 3.16 9.45
9/8/2021 10:45:00 PM 17.11 62.798 0.077 7.22 3.31 9.46
9/8/2021 11:00:00 PM 17.09 62.762 0.077 7.22 3.05 9.45
9/8/2021 11:15:00 PM 17.06 62.708 0.077 7.22 3.1 9.45
9/8/2021 11:30:00 PM 17.04 62.672 0.077 7.23 3.13 9.46
9/8/2021 11:45:00 PM 17.02 62.636 0.077 7.23 3.11 9.47
9/9/2021 12:00:00 AM 17 62.6 0.077 7.22 3.17 9.47
9/9/2021 12:15:00 AM 16.97 62.546 0.077 7.22 3.14 9.47
9/9/2021 12:30:00 AM 16.95 62.51 0.077 7.22 3.14 9.48
9/9/2021 12:45:00 AM 16.93 62.474 0.077 7.22 3.33 9.49
9/9/2021 1:00:00 AM 16.9 62.42 0.077 7.21 3.09 9.48
9/9/2021 1:15:00 AM 16.88 62.384 0.077 7.2 3.17 9.49
9/9/2021 1:30:00 AM 16.84 62.312 0.077 7.2 3.16 9.5
9/9/2021 1:45:00 AM 16.82 62.276 0.077 7.19 3.13 9.51
9/9/2021 2:00:00 AM 16.79 62.222 0.077 7.2 3.19 9.52
9/9/2021 2:15:00 AM 16.77 62.186 0.077 7.19 3.18 9.53
9/9/2021 2:30:00 AM 16.74 62.132 0.077 7.19 3.21 9.53
9/9/2021 2:45:00 AM 16.72 62.096 0.077 7.2 3.16 9.53
9/9/2021 3:00:00 AM 16.69 62.042 0.077 7.2 3.16 9.54
9/9/2021 3:15:00 AM 16.67 62.006 0.077 7.2 3.18 9.55
9/9/2021 3:30:00 AM 16.64 61.952 0.077 7.2 3.24 9.55
9/9/2021 3:45:00 AM 16.62 61.916 0.077 7.19 3.14 9.56
9/9/2021 4:00:00 AM 16.59 61.862 0.078 7.19 3.23 9.56
9/9/2021 4:15:00 AM 16.56 61.808 0.078 7.19 3.15 9.57
9/9/2021 4:30:00 AM 16.54 61.772 0.078 7.2 3.16 9.58
9/9/2021 4:45:00 AM 16.51 61.718 0.078 7.2 3.2 9.59
9/9/2021 5:00:00 AM 16.48 61.664 0.078 7.2 3.12 9.59
9/9/2021 5:15:00 AM 16.46 61.628 0.078 7.2 3.15 9.6
9/9/2021 5:30:00 AM 16.44 61.592 0.078 7.2 3.05 9.6
9/9/2021 5:45:00 AM 16.42 61.556 0.078 7.21 3.16 9.61
9/9/2021 6:00:00 AM 16.4 61.52 0.078 7.21 3.09 9.61
9/9/2021 6:15:00 AM 16.37 61.466 0.078 7.2 3.07 9.62
9/9/2021 6:30:00 AM 16.35 61.43 0.078 7.2 3.17 9.62
9/9/2021 6:45:00 AM 16.33 61.394 0.078 7.2 3.28 9.62
9/9/2021 7:00:00 AM 16.31 61.358 0.078 7.19 3.08 9.63
9/9/2021 7:15:00 AM 16.28 61.304 0.078 7.19 3.19 9.65
9/9/2021 7:30:00 AM 16.25 61.25 0.078 7.19 3.03 9.67
9/9/2021 7:45:00 AM 16.23 61.214 0.079 7.2 3.1 9.7
9/9/2021 8:00:00 AM 16.21 61.178 0.078 7.2 3.07 9.72
9/9/2021 8:15:00 AM 16.21 61.178 0.078 7.21 3.05 9.77
9/9/2021 8:30:00 AM 16.22 61.196 0.078 7.22 3.12 9.87
9/9/2021 8:45:00 AM 16.23 61.214 0.078 7.24 3.11 9.94
9/9/2021 9:00:00 AM 16.25 61.25 0.078 7.26 3.03 10.02
9/9/2021 9:15:00 AM 16.27 61.286 0.078 7.28 2.91 10.08
9/9/2021 9:30:00 AM 16.32 61.376 0.078 7.3 2.9 10.14
9/9/2021 9:45:00 AM 16.37 61.466 0.078 7.32 2.9 10.2
9/9/2021 10:00:00 AM 16.41 61.538 0.078 7.35 3.04 10.25
9/9/2021 10:15:00 AM 16.45 61.61 0.078 7.38 3.07 10.28
9/9/2021 10:30:00 AM 16.51 61.718 0.078 7.39 3.04 10.33
9/9/2021 10:45:00 AM 16.6 61.88 0.077 7.41 2.97 10.35
9/9/2021 11:00:00 AM 16.59 61.862 0.077 7.43 3.05 10.36
9/9/2021 11:15:00 AM 16.76 62.168 0.077 7.46 2.96 10.38
9/9/2021 11:30:00 AM 16.79 62.222 0.077 7.48 2.89 10.38
9/9/2021 11:45:00 AM 16.76 62.168 0.077 7.47 3.06 10.34
9/9/2021 12:00:00 PM 16.82 62.276 0.077 7.48 2.85 10.36
9/9/2021 12:15:00 PM 16.95 62.51 0.077 7.5 2.82 10.36
9/9/2021 12:30:00 PM 17.09 62.762 0.077 7.52 2.77 10.36
9/9/2021 12:45:00 PM 17.22 62.996 0.077 7.55 2.79 10.35
9/9/2021 1:00:00 PM 17.19 62.942 0.077 7.53 2.76 10.26
9/9/2021 1:15:00 PM 17.34 63.212 0.077 7.54 2.8 10.29
9/9/2021 1:30:00 PM 17.54 63.572 0.077 7.56 2.83 10.29
9/9/2021 1:45:00 PM 17.58 63.644 0.077 7.57 2.86 10.26
9/9/2021 2:00:00 PM 17.69 63.842 0.076 7.59 2.81 10.28
9/9/2021 2:15:00 PM 17.77 63.986 0.076 7.61 2.84 10.29
9/9/2021 2:30:00 PM 17.84 64.112 0.076 7.64 2.82 10.28
9/9/2021 2:45:00 PM 17.91 64.238 0.076 7.65 2.82 10.27
9/9/2021 3:00:00 PM 18.04 64.472 0.076 7.66 2.74 10.27
9/9/2021 3:15:00 PM 18.27 64.886 0.076 7.68 2.8 10.25
9/9/2021 3:30:00 PM 18.32 64.976 0.076 7.67 2.78 10.2
9/9/2021 3:45:00 PM 18.27 64.886 0.076 7.67 2.85 10.17
9/9/2021 4:00:00 PM 18.43 65.174 0.076 7.67 2.83 10.16
9/9/2021 4:15:00 PM 18.54 65.372 0.076 7.67 2.77 10.12
9/9/2021 4:30:00 PM 18.54 65.372 0.076 7.65 2.81 10.05
9/9/2021 4:45:00 PM 18.44 65.192 0.076 7.61 2.85 9.97
9/9/2021 5:00:00 PM 18.44 65.192 0.076 7.59 2.74 9.95
9/9/2021 5:15:00 PM 18.47 65.246 0.076 7.58 2.75 9.91
9/9/2021 5:30:00 PM 18.43 65.174 0.076 7.55 2.83 9.84
9/9/2021 5:45:00 PM 18.44 65.192 0.076 7.54 2.84 9.81
9/9/2021 6:00:00 PM 18.43 65.174 0.076 7.52 2.94 9.78
9/9/2021 6:15:00 PM 18.42 65.156 0.076 7.51 2.84 9.75
9/9/2021 6:30:00 PM 18.4 65.12 0.076 7.48 2.75 9.69
9/9/2021 6:45:00 PM 18.35 65.03 0.076 7.46 2.85 9.62
9/9/2021 7:00:00 PM 18.3 64.94 0.076 7.43 2.83 9.56
9/9/2021 7:15:00 PM 18.24 64.832 0.076 7.4 2.89 9.51
9/9/2021 7:30:00 PM 18.18 64.724 0.076 7.38 2.85 9.46
9/9/2021 7:45:00 PM 18.1 64.58 0.076 7.35 2.9 9.42
9/9/2021 8:00:00 PM 18.02 64.436 0.077 7.33 2.96 9.38
9/9/2021 8:15:00 PM 17.93 64.274 0.077 7.33 3.1 9.36
9/9/2021 8:30:00 PM 17.85 64.13 0.077 7.32 3.07 9.34
9/9/2021 8:45:00 PM 17.76 63.968 0.077 7.3 3.13 9.34
9/9/2021 9:00:00 PM 17.68 63.824 0.077 7.28 3.11 9.34
9/9/2021 9:15:00 PM 17.6 63.68 0.077 7.27 3.08 9.35
9/9/2021 9:30:00 PM 17.51 63.518 0.077 7.26 3.13 9.35
9/9/2021 9:45:00 PM 17.42 63.356 0.077 7.25 3.17 9.36
9/9/2021 10:00:00 PM 17.33 63.194 0.077 7.25 3.05 9.38
9/9/2021 10:15:00 PM 17.23 63.014 0.077 7.24 3.16 9.4
9/9/2021 10:30:00 PM 17.13 62.834 0.077 7.24 3.07 9.42
9/9/2021 10:45:00 PM 17.03 62.654 0.078 7.24 3.14 9.43
9/9/2021 11:00:00 PM 16.94 62.492 0.078 7.23 3.07 9.45
9/9/2021 11:15:00 PM 16.84 62.312 0.078 7.23 3.16 9.47
9/9/2021 11:30:00 PM 16.76 62.168 0.078 7.22 2.93 9.5
9/9/2021 11:45:00 PM 16.67 62.006 0.078 7.22 3 9.51
9/10/2021 12:00:00 AM 16.61 61.898 0.078 7.22 3.09 9.53
9/10/2021 12:15:00 AM 16.54 61.772 0.078 7.22 3.32 9.55
9/10/2021 12:30:00 AM 16.47 61.646 0.078 7.22 3.09 9.57
9/10/2021 12:45:00 AM 16.42 61.556 0.078 7.22 3.02 9.59
9/10/2021 1:00:00 AM 16.37 61.466 0.078 7.22 3.05 9.6
9/10/2021 1:15:00 AM 16.31 61.358 0.078 7.22 3.01 9.61
9/10/2021 1:30:00 AM 16.25 61.25 0.078 7.22 2.95 9.63
9/10/2021 1:45:00 AM 16.21 61.178 0.078 7.22 3.05 9.64
9/10/2021 2:00:00 AM 16.17 61.106 0.078 7.22 2.99 9.65
9/10/2021 2:15:00 AM 16.12 61.016 0.078 7.21 3.06 9.66
9/10/2021 2:30:00 AM 16.08 60.944 0.078 7.22 3 9.67
9/10/2021 2:45:00 AM 16.03 60.854 0.078 7.21 3.06 9.69
9/10/2021 3:00:00 AM 15.98 60.764 0.078 7.21 2.97 9.7
9/10/2021 3:15:00 AM 15.92 60.656 0.078 7.21 3.01 9.71
9/10/2021 3:30:00 AM 15.86 60.548 0.078 7.21 3.11 9.72
9/10/2021 3:45:00 AM 15.8 60.44 0.078 7.21 2.99 9.73
9/10/2021 4:00:00 AM 15.74 60.332 0.078 7.21 3 9.75
9/10/2021 4:15:00 AM 15.68 60.224 0.078 7.21 3.05 9.76
9/10/2021 4:30:00 AM 15.62 60.116 0.078 7.21 2.98 9.78
9/10/2021 4:45:00 AM 15.56 60.008 0.078 7.21 3.04 9.79
9/10/2021 5:00:00 AM 15.5 59.9 0.078 7.21 2.94 9.81
9/10/2021 5:15:00 AM 15.43 59.774 0.078 7.2 2.96 9.83
9/10/2021 5:30:00 AM 15.37 59.666 0.078 7.2 3 9.84
9/10/2021 5:45:00 AM 15.31 59.558 0.078 7.2 2.98 9.85
9/10/2021 6:00:00 AM 15.26 59.468 0.078 7.2 2.95 9.87
9/10/2021 6:15:00 AM 15.22 59.396 0.078 7.21 2.94 9.89
9/10/2021 6:30:00 AM 15.17 59.306 0.078 7.2 3.04 9.9
9/10/2021 6:45:00 AM 15.11 59.198 0.078 7.2 2.95 9.92
9/10/2021 7:00:00 AM 15.05 59.09 0.078 7.2 2.99 9.94
9/10/2021 7:15:00 AM 15 59 0.078 7.2 2.97 9.99
9/10/2021 7:30:00 AM 14.95 58.91 0.078 7.21 2.91 10.04
9/10/2021 7:45:00 AM 14.92 58.856 0.078 7.22 2.8 10.09
9/10/2021 8:00:00 AM 14.92 58.856 0.078 7.24 2.83 10.19
9/10/2021 8:15:00 AM 14.89 58.802 0.078 7.25 2.97 10.23
9/10/2021 8:30:00 AM 14.85 58.73 0.078 7.27 2.91 10.27
9/10/2021 8:45:00 AM 14.86 58.748 0.078 7.29 2.83 10.35
9/10/2021 9:00:00 AM 14.87 58.766 0.077 7.31 2.81 10.41
9/10/2021 9:15:00 AM 14.9 58.82 0.077 7.32 2.75 10.46
9/10/2021 9:30:00 AM 14.93 58.874 0.077 7.34 2.67 10.5
9/10/2021 9:45:00 AM 14.94 58.892 0.077 7.35 2.75 10.54
9/10/2021 10:00:00 AM 14.96 58.928 0.077 7.37 2.78 10.56
9/10/2021 10:15:00 AM 15.02 59.036 0.077 7.38 2.88 10.59
9/10/2021 10:30:00 AM 15.1 59.18 0.077 7.4 2.8 10.63
9/10/2021 10:45:00 AM 15.18 59.324 0.077 7.41 2.76 10.63
9/10/2021 11:00:00 AM 15.19 59.342 0.077 7.42 2.79 10.61
9/10/2021 11:15:00 AM 15.34 59.612 0.077 7.43 2.83 10.62
9/10/2021 11:30:00 AM 15.41 59.738 0.077 7.44 2.88 10.61
9/10/2021 11:45:00 AM 15.54 59.972 0.077 7.45 2.87 10.63
9/10/2021 12:00:00 PM 15.66 60.188 0.076 7.46 2.73 10.62
9/10/2021 12:15:00 PM 15.82 60.476 0.076 7.48 2.67 10.63
9/10/2021 12:30:00 PM 16.01 60.818 0.076 7.51 2.73 10.65
9/10/2021 12:45:00 PM 16.05 60.89 0.076 7.52 2.63 10.62
9/10/2021 1:00:00 PM 16.27 61.286 0.076 7.53 2.63 10.61
9/10/2021 1:15:00 PM 16.35 61.43 0.076 7.54 2.6 10.58
9/10/2021 1:30:00 PM 16.54 61.772 0.076 7.56 2.59 10.58
9/10/2021 1:45:00 PM 16.74 62.132 0.076 7.58 2.62 10.58
9/10/2021 2:00:00 PM 16.77 62.186 0.076 7.59 2.61 10.56
9/10/2021 2:15:00 PM 16.87 62.366 0.076 7.6 2.75 10.55
9/10/2021 2:30:00 PM 16.92 62.456 0.076 7.6 2.67 10.49
9/10/2021 2:45:00 PM 16.88 62.384 0.076 7.59 2.72 10.46
9/10/2021 3:00:00 PM 16.86 62.348 0.076 7.58 2.6 10.41
9/10/2021 3:15:00 PM 17.13 62.834 0.076 7.59 2.62 10.45
9/10/2021 3:30:00 PM 17.22 62.996 0.075 7.61 2.61 10.44
9/10/2021 3:45:00 PM 17.16 62.888 0.076 7.62 2.59 10.42
9/10/2021 4:00:00 PM 17.16 62.888 0.076 7.61 2.53 10.37
9/10/2021 4:15:00 PM 17.27 63.086 0.075 7.61 2.56 10.36
9/10/2021 4:30:00 PM 17.49 63.482 0.075 7.62 2.63 10.33
9/10/2021 4:45:00 PM 17.51 63.518 0.075 7.61 2.58 10.27
9/10/2021 5:00:00 PM 17.56 63.608 0.075 7.6 2.58 10.21
9/10/2021 5:15:00 PM 17.63 63.734 0.075 7.58 2.56 10.15
9/10/2021 5:30:00 PM 17.6 63.68 0.075 7.55 2.72 10.05
9/10/2021 5:45:00 PM 17.63 63.734 0.075 7.52 2.66 10
9/10/2021 6:00:00 PM 17.67 63.806 0.075 7.51 5.73 9.99
9/10/2021 6:15:00 PM 17.69 63.842 0.076 7.5 2.68 9.96
9/10/2021 6:30:00 PM 17.69 63.842 0.076 7.48 2.69 9.9
9/10/2021 6:45:00 PM 17.66 63.788 0.076 7.46 2.58 9.84
9/10/2021 7:00:00 PM 17.61 63.698 0.076 7.43 2.67 9.77
9/10/2021 7:15:00 PM 17.55 63.59 0.076 7.4 2.53 9.72
9/10/2021 7:30:00 PM 17.5 63.5 0.076 7.38 2.65 9.67
9/10/2021 7:45:00 PM 17.44 63.392 0.076 7.36 2.68 9.62
9/10/2021 8:00:00 PM 17.37 63.266 0.076 7.33 2.83 9.59
9/10/2021 8:15:00 PM 17.28 63.104 0.077 7.32 2.77 9.56
9/10/2021 8:30:00 PM 17.2 62.96 0.077 7.3 3.01 9.55
9/10/2021 8:45:00 PM 17.12 62.816 0.077 7.3 2.88 9.54
9/10/2021 9:00:00 PM 17.04 62.672 0.077 7.28 2.92 9.54
9/10/2021 9:15:00 PM 16.96 62.528 0.077 7.28 2.87 9.54
9/10/2021 9:30:00 PM 16.89 62.402 0.077 7.27 2.96 9.54
9/10/2021 9:45:00 PM 16.81 62.258 0.077 7.26 2.82 9.56
9/10/2021 10:00:00 PM 16.72 62.096 0.077 7.26 2.83 9.57
9/10/2021 10:15:00 PM 16.64 61.952 0.078 7.25 2.85 9.58
9/10/2021 10:30:00 PM 16.56 61.808 0.078 7.25 2.79 9.6
9/10/2021 10:45:00 PM 16.47 61.646 0.078 7.25 2.79 9.61
9/10/2021 11:00:00 PM 16.39 61.502 0.078 7.24 2.76 9.63
9/10/2021 11:15:00 PM 16.3 61.34 0.078 7.24 2.82 9.65
9/10/2021 11:30:00 PM 16.2 61.16 0.078 7.24 2.83 9.67
9/10/2021 11:45:00 PM 16.11 60.998 0.078 7.23 2.83 9.7
9/11/2021 12:00:00 AM 16.01 60.818 0.079 7.22 2.79 9.72
9/11/2021 12:15:00 AM 15.92 60.656 0.079 7.22 2.88 9.74
9/11/2021 12:30:00 AM 15.85 60.53 0.079 7.22 2.8 9.76
9/11/2021 12:45:00 AM 15.79 60.422 0.079 7.22 2.79 9.78
9/11/2021 1:00:00 AM 15.73 60.314 0.079 7.22 3.21 9.8
9/11/2021 1:15:00 AM 15.67 60.206 0.079 7.22 4.62 9.82
9/11/2021 1:30:00 AM 15.61 60.098 0.079 7.22 2.94 9.84
9/11/2021 1:45:00 AM 15.55 59.99 0.079 7.22 2.87 9.85
9/11/2021 2:00:00 AM 15.49 59.882 0.079 7.22 2.9 9.87
9/11/2021 2:15:00 AM 15.43 59.774 0.079 7.22 2.87 9.88
9/11/2021 2:30:00 AM 15.38 59.684 0.079 7.22 2.87 9.9
9/11/2021 2:45:00 AM 15.32 59.576 0.079 7.22 2.82 9.91
9/11/2021 3:00:00 AM 15.26 59.468 0.079 7.22 2.74 9.92
9/11/2021 3:15:00 AM 15.21 59.378 0.079 7.22 2.89 9.94
9/11/2021 3:30:00 AM 15.15 59.27 0.079 7.22 2.83 9.95
9/11/2021 3:45:00 AM 15.11 59.198 0.079 7.22 2.84 9.97
9/11/2021 4:00:00 AM 15.05 59.09 0.079 7.22 2.73 9.98
9/11/2021 4:15:00 AM 15.01 59.018 0.079 7.22 2.86 9.99
9/11/2021 4:30:00 AM 14.96 58.928 0.079 7.22 2.78 10
9/11/2021 4:45:00 AM 14.92 58.856 0.08 7.22 2.76 10.02
9/11/2021 5:00:00 AM 14.88 58.784 0.079 7.21 2.94 10.02
9/11/2021 5:15:00 AM 14.84 58.712 0.08 7.21 2.82 10.03
9/11/2021 5:30:00 AM 14.79 58.622 0.08 7.21 2.83 10.05
9/11/2021 5:45:00 AM 14.74 58.532 0.08 7.21 2.9 10.06
9/11/2021 6:00:00 AM 14.7 58.46 0.08 7.21 2.8 10.08
9/11/2021 6:15:00 AM 14.65 58.37 0.08 7.21 2.83 10.09
9/11/2021 6:30:00 AM 14.61 58.298 0.08 7.21 2.82 10.1
9/11/2021 6:45:00 AM 14.56 58.208 0.08 7.21 2.81 10.11
9/11/2021 7:00:00 AM 14.52 58.136 0.08 7.21 2.79 10.12
9/11/2021 7:15:00 AM 14.48 58.064 0.08 7.21 2.69 10.15
9/11/2021 7:30:00 AM 14.44 57.992 0.08 7.22 2.73 10.2
9/11/2021 7:45:00 AM 14.41 57.938 0.08 7.23 3.04 10.25
9/11/2021 8:00:00 AM 14.38 57.884 0.08 7.24 2.72 10.31
9/11/2021 8:15:00 AM 14.36 57.848 0.08 7.25 2.74 10.38
9/11/2021 8:30:00 AM 14.35 57.83 0.08 7.27 2.64 10.47
9/11/2021 8:45:00 AM 14.36 57.848 0.08 7.29 2.8 10.57
9/11/2021 9:00:00 AM 14.35 57.83 0.08 7.31 2.71 10.64
9/11/2021 9:15:00 AM 14.35 57.83 0.08 7.33 2.79 10.69
9/11/2021 9:30:00 AM 14.37 57.866 0.08 7.35 2.74 10.76
9/11/2021 9:45:00 AM 14.43 57.974 0.08 7.37 2.77 10.83
9/11/2021 10:00:00 AM 14.48 58.064 0.08 7.39 2.78 10.86
9/11/2021 10:15:00 AM 14.5 58.1 0.08 7.4 2.69 10.85
9/11/2021 10:30:00 AM 14.54 58.172 0.08 7.4 2.78 10.83
9/11/2021 10:45:00 AM 14.61 58.298 0.08 7.41 2.65 10.85
9/11/2021 11:00:00 AM 14.68 58.424 0.08 7.42 2.55 10.85
9/11/2021 11:15:00 AM 14.78 58.604 0.08 7.43 2.65 10.85
9/11/2021 11:30:00 AM 14.9 58.82 0.08 7.44 2.59 10.84
9/11/2021 11:45:00 AM 15 59 0.08 7.45 2.57 10.83
9/11/2021 12:00:00 PM 15.08 59.144 0.08 7.46 2.62 10.81
9/11/2021 12:15:00 PM 15.27 59.486 0.08 7.47 2.56 10.81
9/11/2021 12:30:00 PM 15.4 59.72 0.08 7.49 2.55 10.79
9/11/2021 12:45:00 PM 15.54 59.972 0.08 7.5 2.53 10.78
9/11/2021 1:00:00 PM 15.77 60.386 0.08 7.52 2.81 10.77
9/11/2021 1:15:00 PM 15.99 60.782 0.08 7.54 2.59 10.76
9/11/2021 1:30:00 PM 16.12 61.016 0.08 7.55 2.63 10.72
9/11/2021 1:45:00 PM 16.2 61.16 0.079 7.56 2.5 10.7
9/11/2021 2:00:00 PM 16.38 61.484 0.079 7.57 2.49 10.67
9/11/2021 2:15:00 PM 16.61 61.898 0.079 7.59 2.55 10.65
9/11/2021 2:30:00 PM 16.83 62.294 0.079 7.61 2.58 10.62
9/11/2021 2:45:00 PM 17.03 62.654 0.079 7.62 2.52 10.58
9/11/2021 3:00:00 PM 17.25 63.05 0.079 7.62 2.54 10.53
9/11/2021 3:15:00 PM 17.38 63.284 0.079 7.63 2.54 10.5
9/11/2021 3:30:00 PM 17.49 63.482 0.079 7.64 2.51 10.46
9/11/2021 3:45:00 PM 17.66 63.788 0.079 7.64 2.48 10.43
9/11/2021 4:00:00 PM 17.81 64.058 0.079 7.65 2.57 10.4
9/11/2021 4:15:00 PM 17.94 64.292 0.079 7.66 2.53 10.35
9/11/2021 4:30:00 PM 18.05 64.49 0.079 7.66 2.49 10.31
9/11/2021 4:45:00 PM 18.13 64.634 0.079 7.65 2.45 10.24
9/11/2021 5:00:00 PM 18.2 64.76 0.079 7.63 2.54 10.17
9/11/2021 5:15:00 PM 18.25 64.85 0.079 7.61 2.43 10.11
9/11/2021 5:30:00 PM 18.29 64.922 0.079 7.59 2.57 10.04
9/11/2021 5:45:00 PM 18.31 64.958 0.079 7.56 2.47 9.97
9/11/2021 6:00:00 PM 18.32 64.976 0.079 7.53 2.56 9.91
9/11/2021 6:15:00 PM 18.32 64.976 0.079 7.51 2.51 9.85
9/11/2021 6:30:00 PM 18.31 64.958 0.079 7.48 2.55 9.78
9/11/2021 6:45:00 PM 18.29 64.922 0.08 7.45 2.53 9.7
9/11/2021 7:00:00 PM 18.24 64.832 0.08 7.43 2.48 9.62
9/11/2021 7:15:00 PM 18.19 64.742 0.08 7.4 2.61 9.56
9/11/2021 7:30:00 PM 18.14 64.652 0.08 7.38 2.64 9.51
9/11/2021 7:45:00 PM 18.07 64.526 0.08 7.35 2.63 9.46
9/11/2021 8:00:00 PM 17.99 64.382 0.081 7.33 2.71 9.42
9/11/2021 8:15:00 PM 17.9 64.22 0.081 7.31 3.05 9.4
9/11/2021 8:30:00 PM 17.81 64.058 0.081 7.3 2.72 9.39
9/11/2021 8:45:00 PM 17.71 63.878 0.081 7.29 2.76 9.39
9/11/2021 9:00:00 PM 17.62 63.716 0.081 7.28 2.65 9.39
9/11/2021 9:15:00 PM 17.54 63.572 0.081 7.27 2.84 9.39
9/11/2021 9:30:00 PM 17.46 63.428 0.081 7.27 2.68 9.39
9/11/2021 9:45:00 PM 17.4 63.32 0.081 7.26 2.73 9.4
9/11/2021 10:00:00 PM 17.33 63.194 0.081 7.25 2.72 9.41
9/11/2021 10:15:00 PM 17.27 63.086 0.082 7.25 2.78 9.42
9/11/2021 10:30:00 PM 17.19 62.942 0.082 7.25 2.78 9.43
9/11/2021 10:45:00 PM 17.12 62.816 0.082 7.24 2.71 9.44
9/11/2021 11:00:00 PM 17.04 62.672 0.082 7.24 2.87 9.46
9/11/2021 11:15:00 PM 16.97 62.546 0.082 7.24 2.94 9.48
9/11/2021 11:30:00 PM 16.89 62.402 0.082 7.24 2.97 9.49
9/11/2021 11:45:00 PM 16.82 62.276 0.082 7.23 2.68 9.51
9/12/2021 12:00:00 AM 16.74 62.132 0.082 7.23 2.73 9.53
9/12/2021 12:15:00 AM 16.67 62.006 0.082 7.23 2.97 9.54
9/12/2021 12:30:00 AM 16.61 61.898 0.082 7.23 2.81 9.56
9/12/2021 12:45:00 AM 16.54 61.772 0.082 7.23 2.85 9.57
9/12/2021 1:00:00 AM 16.48 61.664 0.082 7.22 2.81 9.59
9/12/2021 1:15:00 AM 16.41 61.538 0.083 7.22 2.74 9.61
9/12/2021 1:30:00 AM 16.34 61.412 0.082 7.22 2.72 9.62
9/12/2021 1:45:00 AM 16.29 61.322 0.083 7.22 2.81 9.64
9/12/2021 2:00:00 AM 16.22 61.196 0.083 7.22 2.8 9.65
9/12/2021 2:15:00 AM 16.15 61.07 0.083 7.21 2.76 9.66
9/12/2021 2:30:00 AM 16.1 60.98 0.083 7.22 2.7 9.68
9/12/2021 2:45:00 AM 16.05 60.89 0.083 7.22 2.77 9.7
9/12/2021 3:00:00 AM 16.01 60.818 0.083 7.22 2.8 9.71
9/12/2021 3:15:00 AM 15.96 60.728 0.083 7.21 2.68 9.72
9/12/2021 3:30:00 AM 15.91 60.638 0.083 7.21 2.88 9.73
9/12/2021 3:45:00 AM 15.88 60.584 0.083 7.21 2.74 9.74
9/12/2021 4:00:00 AM 15.85 60.53 0.083 7.21 2.7 9.75
9/12/2021 4:15:00 AM 15.82 60.476 0.083 7.21 2.76 9.76
9/12/2021 4:30:00 AM 15.8 60.44 0.083 7.21 2.72 9.76
9/12/2021 4:45:00 AM 15.78 60.404 0.083 7.21 2.78 9.77
9/12/2021 5:00:00 AM 15.76 60.368 0.083 7.21 2.7 9.78
9/12/2021 5:15:00 AM 15.74 60.332 0.083 7.21 2.82 9.78
9/12/2021 5:30:00 AM 15.72 60.296 0.083 7.21 2.72 9.78
9/12/2021 5:45:00 AM 15.71 60.278 0.083 7.2 3.17 9.79
9/12/2021 6:00:00 AM 15.7 60.26 0.083 7.2 2.8 9.79
9/12/2021 6:15:00 AM 15.69 60.242 0.083 7.2 2.72 9.79
9/12/2021 6:30:00 AM 15.69 60.242 0.083 7.2 2.73 9.8
9/12/2021 6:45:00 AM 15.69 60.242 0.083 7.2 2.81 9.8
9/12/2021 7:00:00 AM 15.69 60.242 0.083 7.2 2.76 9.8
9/12/2021 7:15:00 AM 15.7 60.26 0.083 7.19 152.3 9.82
9/12/2021 7:30:00 AM 15.71 60.278 0.083 7.2 2.65 9.84
9/12/2021 7:45:00 AM 15.73 60.314 0.083 7.21 2.57 9.9
9/12/2021 8:00:00 AM 15.75 60.35 0.083 7.22 2.67 9.97
9/12/2021 8:15:00 AM 15.79 60.422 0.082 7.24 2.59 10.05
9/12/2021 8:30:00 AM 15.82 60.476 0.082 7.25 2.67 10.09
9/12/2021 8:45:00 AM 15.84 60.512 0.082 7.26 2.82 10.08
9/12/2021 9:00:00 AM 15.86 60.548 0.082 7.27 2.49 10.08
9/12/2021 9:15:00 AM 15.89 60.602 0.082 7.27 2.61 10.11
9/12/2021 9:30:00 AM 15.93 60.674 0.082 7.28 2.52 10.16
9/12/2021 9:45:00 AM 15.99 60.782 0.082 7.3 2.46 10.24
9/12/2021 10:00:00 AM 16.07 60.926 0.081 7.33 2.42 10.32
9/12/2021 10:15:00 AM 16.15 61.07 0.081 7.35 2.45 10.36
9/12/2021 10:30:00 AM 16.21 61.178 0.081 7.37 2.48 10.39
9/12/2021 10:45:00 AM 16.32 61.376 0.081 7.4 2.42 10.44
9/12/2021 11:00:00 AM 16.43 61.574 0.081 7.43 2.49 10.49
9/12/2021 11:15:00 AM 16.54 61.772 0.081 7.46 2.64 10.52
9/12/2021 11:30:00 AM 16.68 62.024 0.08 7.49 2.5 10.56
9/12/2021 11:45:00 AM 16.81 62.258 0.08 7.52 2.62 10.58
9/12/2021 12:00:00 PM 16.94 62.492 0.08 7.55 2.56 10.58
9/12/2021 12:15:00 PM 17.08 62.744 0.08 7.57 2.57 10.58
9/12/2021 12:30:00 PM 17.22 62.996 0.08 7.6 2.57 10.58
9/12/2021 12:45:00 PM 17.33 63.194 0.08 7.62 2.55 10.56
9/12/2021 1:00:00 PM 17.47 63.446 0.079 7.63 2.49 10.55
9/12/2021 1:15:00 PM 17.6 63.68 0.079 7.65 2.6 10.53
9/12/2021 1:30:00 PM 17.73 63.914 0.079 7.67 2.42 10.51
9/12/2021 1:45:00 PM 17.89 64.202 0.079 7.69 2.55 10.49
9/12/2021 2:00:00 PM 18.03 64.454 0.079 7.71 2.47 10.47
9/12/2021 2:15:00 PM 18.2 64.76 0.079 7.72 2.51 10.44
9/12/2021 2:30:00 PM 18.39 65.102 0.079 7.75 2.48 10.42
9/12/2021 2:45:00 PM 18.57 65.426 0.079 7.76 2.43 10.38
9/12/2021 3:00:00 PM 18.63 65.534 0.079 7.75 2.44 10.31
9/12/2021 3:15:00 PM 18.69 65.642 0.078 7.75 2.64 10.27
9/12/2021 3:30:00 PM 18.78 65.804 0.078 7.74 2.51 10.21
9/12/2021 3:45:00 PM 18.83 65.894 0.078 7.71 2.51 10.15
9/12/2021 4:00:00 PM 18.96 66.128 0.078 7.72 2.49 10.14
9/12/2021 4:15:00 PM 19.09 66.362 0.078 7.73 2.48 10.14
9/12/2021 4:30:00 PM 19.23 66.614 0.078 7.74 2.46 10.12
9/12/2021 4:45:00 PM 19.31 66.758 0.078 7.73 2.42 10.06
9/12/2021 5:00:00 PM 19.32 66.776 0.078 7.72 2.51 10.02
9/12/2021 5:15:00 PM 19.37 66.866 0.078 7.7 2.52 9.96
9/12/2021 5:30:00 PM 19.39 66.902 0.078 7.68 2.45 9.92
9/12/2021 5:45:00 PM 19.4 66.92 0.078 7.65 2.47 9.86
9/12/2021 6:00:00 PM 19.42 66.956 0.078 7.61 2.52 9.79
9/12/2021 6:15:00 PM 19.43 66.974 0.078 7.57 2.65 9.71
9/12/2021 6:30:00 PM 19.42 66.956 0.079 7.53 2.58 9.63
9/12/2021 6:45:00 PM 19.4 66.92 0.079 7.49 2.47 9.55
9/12/2021 7:00:00 PM 19.37 66.866 0.079 7.45 2.46 9.46
9/12/2021 7:15:00 PM 19.34 66.812 0.079 7.41 2.53 9.38
9/12/2021 7:30:00 PM 19.3 66.74 0.079 7.38 2.84 9.3
9/12/2021 7:45:00 PM 19.26 66.668 0.08 7.34 2.63 9.22
9/12/2021 8:00:00 PM 19.22 66.596 0.08 7.31 2.74 9.17
9/12/2021 8:15:00 PM 19.18 66.524 0.08 7.29 3.02 9.14
9/12/2021 8:30:00 PM 19.15 66.47 0.08 7.27 2.77 9.11
9/12/2021 8:45:00 PM 19.11 66.398 0.081 7.25 2.72 9.09
9/12/2021 9:00:00 PM 19.07 66.326 0.081 7.24 2.76 9.08
9/12/2021 9:15:00 PM 19.03 66.254 0.081 7.23 2.81 9.07
9/12/2021 9:30:00 PM 19 66.2 0.081 7.23 2.81 9.07
9/12/2021 9:45:00 PM 18.96 66.128 0.081 7.22 2.76 9.06
9/12/2021 10:00:00 PM 18.93 66.074 0.081 7.21 2.7 9.06
9/12/2021 10:15:00 PM 18.9 66.02 0.082 7.21 2.72 9.06
9/12/2021 10:30:00 PM 18.87 65.966 0.082 7.21 2.81 9.06
9/12/2021 10:45:00 PM 18.85 65.93 0.082 7.2 2.76 9.06
9/12/2021 11:00:00 PM 18.82 65.876 0.082 7.19 2.84 9.07
9/12/2021 11:15:00 PM 18.79 65.82201 0.082 7.19 2.79 9.07
9/12/2021 11:30:00 PM 18.77 65.786 0.082 7.18 2.84 9.07
9/12/2021 11:45:00 PM 18.74 65.732 0.083 7.18 2.73 9.07
9/13/2021 12:00:00 AM 18.72 65.696 0.083 7.18 2.85 9.08
9/13/2021 12:15:00 AM 18.7 65.66 0.083 7.18 2.82 9.09
9/13/2021 12:30:00 AM 18.68 65.624 0.083 7.18 2.8 9.09
9/13/2021 12:45:00 AM 18.66 65.588 0.083 7.18 2.92 9.1
9/13/2021 1:00:00 AM 18.64 65.552 0.083 7.18 2.78 9.1
9/13/2021 1:15:00 AM 18.62 65.516 0.083 7.18 2.75 9.1
9/13/2021 1:30:00 AM 18.6 65.48 0.083 7.18 2.86 9.11
9/13/2021 1:45:00 AM 18.59 65.462 0.083 7.18 3 9.11
9/13/2021 2:00:00 AM 18.58 65.444 0.084 7.18 2.79 9.12
9/13/2021 2:15:00 AM 18.56 65.408 0.084 7.18 2.81 9.12
9/13/2021 2:30:00 AM 18.55 65.39 0.084 7.18 2.97 9.11
9/13/2021 2:45:00 AM 18.54 65.372 0.084 7.18 2.84 9.13
9/13/2021 3:00:00 AM 18.52 65.336 0.084 7.18 2.83 9.12
9/13/2021 3:15:00 AM 18.5 65.3 0.084 7.18 2.86 9.13
9/13/2021 3:30:00 AM 18.49 65.282 0.084 7.18 2.87 9.13
9/13/2021 3:45:00 AM 18.48 65.264 0.084 7.18 2.82 9.14
9/13/2021 4:00:00 AM 18.46 65.228 0.084 7.18 2.78 9.14
9/13/2021 4:15:00 AM 18.43 65.174 0.084 7.17 2.78 9.14
9/13/2021 4:30:00 AM 18.41 65.138 0.084 7.17 3.04 9.14
9/13/2021 4:45:00 AM 18.4 65.12 0.084 7.17 2.71 9.15
9/13/2021 5:00:00 AM 18.37 65.066 0.084 7.17 2.73 9.15
9/13/2021 5:15:00 AM 18.35 65.03 0.084 7.17 3.07 9.15
9/13/2021 5:30:00 AM 18.32 64.976 0.084 7.17 2.84 9.17
9/13/2021 5:45:00 AM 18.3 64.94 0.084 7.17 2.78 9.16
9/13/2021 6:00:00 AM 18.28 64.904 0.084 7.17 2.74 9.17
9/13/2021 6:15:00 AM 18.26 64.868 0.084 7.16 3.03 9.18
9/13/2021 6:30:00 AM 18.24 64.832 0.084 7.16 2.93 9.18
9/13/2021 6:45:00 AM 18.23 64.814 0.084 7.16 2.8 9.18
9/13/2021 7:00:00 AM 18.22 64.796 0.084 7.16 2.75 9.19
9/13/2021 7:15:00 AM 18.21 64.778 0.084 7.16 2.8 9.21
9/13/2021 7:30:00 AM 18.21 64.778 0.084 7.17 2.88 9.23
9/13/2021 7:45:00 AM 18.21 64.778 0.084 7.18 2.67 9.28
9/13/2021 8:00:00 AM 18.22 64.796 0.084 7.19 2.68 9.37
9/13/2021 8:15:00 AM 18.23 64.814 0.084 7.21 2.71 9.46
9/13/2021 8:30:00 AM 18.24 64.832 0.084 7.22 2.7 9.52
9/13/2021 8:45:00 AM 18.27 64.886 0.084 7.24 2.68 9.59
9/13/2021 9:00:00 AM 18.31 64.958 0.084 7.26 2.67 9.68
9/13/2021 9:15:00 AM 18.36 65.048 0.083 7.3 2.72 9.78
9/13/2021 9:30:00 AM 18.41 65.138 0.083 7.34 2.65 9.84
9/13/2021 9:45:00 AM 18.47 65.246 0.083 7.36 2.85 9.9
9/13/2021 10:00:00 AM 18.5 65.3 0.083 7.38 2.68 9.89
9/13/2021 10:15:00 AM 18.52 65.336 0.083 7.38 2.72 9.86
9/13/2021 10:30:00 AM 18.55 65.39 0.083 7.39 2.71 9.86
9/13/2021 10:45:00 AM 18.59 65.462 0.083 7.4 2.7 9.88
9/13/2021 11:00:00 AM 18.66 65.588 0.082 7.42 2.59 9.94
9/13/2021 11:15:00 AM 18.73 65.714 0.082 7.44 2.81 9.94
9/13/2021 11:30:00 AM 18.77 65.786 0.082 7.46 2.63 9.96
9/13/2021 11:45:00 AM 18.84 65.912 0.082 7.47 2.59 9.98
9/13/2021 12:00:00 PM 18.94 66.092 0.082 7.5 2.76 10.01
9/13/2021 12:15:00 PM 19.07 66.326 0.082 7.54 2.61 10.08
9/13/2021 12:30:00 PM 19.15 66.47 0.082 7.57 2.93 10.07
9/13/2021 12:45:00 PM 19.17 66.506 0.082 7.57 2.68 10.06
9/13/2021 1:00:00 PM 19.23 66.614 0.082 7.59 2.81 10.07
9/13/2021 1:15:00 PM 19.34 66.812 0.081 7.62 2.72 10.1
9/13/2021 1:30:00 PM 19.53 67.154 0.081 7.66 2.71 10.12
9/13/2021 1:45:00 PM 19.73 67.514 0.081 7.68 2.93 10.11
9/13/2021 2:00:00 PM 19.9 67.82 0.081 7.71 2.78 10.11
9/13/2021 2:15:00 PM 20.03 68.054 0.081 7.73 2.89 10.09
9/13/2021 2:30:00 PM 20.14 68.252 0.081 7.74 3.05 10.06
9/13/2021 2:45:00 PM 20.29 68.522 0.08 7.76 2.65 10.06
9/13/2021 3:00:00 PM 20.46 68.828 0.08 7.78 2.66 10.03
9/13/2021 3:15:00 PM 20.64 69.152 0.08 7.8 2.51 10
9/13/2021 3:30:00 PM 20.71 69.278 0.08 7.81 2.98 9.96
9/13/2021 3:45:00 PM 20.8 69.44 0.08 7.81 2.53 9.91
9/13/2021 4:00:00 PM 20.9 69.62 0.08 7.81 2.5 9.86
9/13/2021 4:15:00 PM 20.96 69.728 0.08 7.79 2.56 9.8
9/13/2021 4:30:00 PM 21 69.8 0.08 7.73 2.57 9.66
9/13/2021 4:45:00 PM 20.99 69.782 0.08 7.65 2.6 9.52
9/13/2021 5:00:00 PM 21.01 69.818 0.08 7.61 2.55 9.49
9/13/2021 5:15:00 PM 21.07 69.926 0.08 7.61 2.47 9.52
9/13/2021 5:30:00 PM 21.11 69.998 0.08 7.61 2.51 9.51
9/13/2021 5:45:00 PM 21.09 69.962 0.08 7.58 2.59 9.4
9/13/2021 6:00:00 PM 21.06 69.908 0.08 7.53 2.52 9.32
9/13/2021 6:15:00 PM 21.03 69.854 0.081 7.49 2.51 9.21
9/13/2021 6:30:00 PM 20.98 69.764 0.081 7.44 2.92 9.06
9/13/2021 6:45:00 PM 20.89 69.602 0.079 7.39 3.63 8.96
9/13/2021 7:00:00 PM 20.82 69.476 0.079 7.34 3.34 8.87
9/13/2021 7:15:00 PM 20.76 69.368 0.08 7.31 4.19 8.83
9/13/2021 7:30:00 PM 20.69 69.242 0.08 7.29 206.87 8.8
9/13/2021 7:45:00 PM 20.6 69.08 0.08 7.27 3.92 8.77
9/13/2021 8:00:00 PM 20.52 68.936 0.08 7.26 3.7 8.75
9/13/2021 8:15:00 PM 20.43 68.774 0.08 7.24 3.85 8.73
9/13/2021 8:30:00 PM 20.34 68.612 0.08 7.22 3.7 8.73
9/13/2021 8:45:00 PM 20.27 68.486 0.08 7.21 3.68 8.73
9/13/2021 9:00:00 PM 20.21 68.378 0.08 7.2 3.81 8.74
9/13/2021 9:15:00 PM 20.16 68.288 0.08 7.2 3.83 8.75
9/13/2021 9:30:00 PM 20.1 68.18 0.081 7.2 3.74 8.76
9/13/2021 9:45:00 PM 20.04 68.07201 0.081 7.2 3.67 8.76
9/13/2021 10:00:00 PM 19.99 67.982 0.081 7.2 3.68 8.77
9/13/2021 10:15:00 PM 19.94 67.892 0.081 7.2 3.83 8.78
9/13/2021 10:30:00 PM 19.89 67.802 0.081 7.2 3.87 8.79
9/13/2021 10:45:00 PM 19.86 67.748 0.081 7.19 3.76 8.8
9/13/2021 11:00:00 PM 19.82 67.676 0.081 7.19 3.56 8.81
9/13/2021 11:15:00 PM 19.79 67.622 0.081 7.2 3.91 8.82
9/13/2021 11:30:00 PM 19.76 67.568 0.081 7.19 6.53 8.83
9/13/2021 11:45:00 PM 19.71 67.478 0.081 7.19 12.66 8.83
9/14/2021 12:00:00 AM 19.67 67.406 0.082 7.19 18.83 8.84
9/14/2021 12:15:00 AM 19.63 67.334 0.082 7.19 22.22 8.85
9/14/2021 12:30:00 AM 19.6 67.28 0.082 7.19 21.68 8.85
9/14/2021 12:45:00 AM 19.56 67.208 0.082 7.19 19.38 8.87
9/14/2021 1:00:00 AM 19.52 67.136 0.082 7.19 16.89 8.87
9/14/2021 1:15:00 AM 19.49 67.082 0.083 7.19 13.58 8.88
9/14/2021 1:30:00 AM 19.46 67.028 0.083 7.19 11.68 8.89
9/14/2021 1:45:00 AM 19.43 66.974 0.083 7.19 10.07 8.9
9/14/2021 2:00:00 AM 19.4 66.92 0.083 7.19 8.38 8.91
9/14/2021 2:15:00 AM 19.38 66.884 0.083 7.19 7.25 8.91
9/14/2021 2:30:00 AM 19.34 66.812 0.083 7.19 6.43 8.92
9/14/2021 2:45:00 AM 19.32 66.776 0.083 7.19 6.04 8.93
9/14/2021 3:00:00 AM 19.29 66.722 0.083 7.19 5.41 8.94
9/14/2021 3:15:00 AM 19.27 66.686 0.083 7.18 5.34 8.94
9/14/2021 3:30:00 AM 19.25 66.65 0.083 7.18 4.95 8.95
9/14/2021 3:45:00 AM 19.22 66.596 0.083 7.18 4.74 8.95
9/14/2021 4:00:00 AM 19.18 66.524 0.083 7.19 4.77 8.96
9/14/2021 4:15:00 AM 19.16 66.488 0.083 7.18 4.38 8.96
9/14/2021 4:30:00 AM 19.14 66.452 0.083 7.18 4.45 8.97
9/14/2021 4:45:00 AM 19.12 66.416 0.084 7.18 4.3 8.97
9/14/2021 5:00:00 AM 19.1 66.38 0.084 7.18 4.38 8.98
9/14/2021 5:15:00 AM 19.08 66.344 0.084 7.18 4.28 8.99
9/14/2021 5:30:00 AM 19.05 66.29 0.084 7.18 4.41 8.99
9/14/2021 5:45:00 AM 19.03 66.254 0.084 7.19 4.04 9
9/14/2021 6:00:00 AM 19 66.2 0.084 7.19 4.19 9
9/14/2021 6:15:00 AM 18.98 66.164 0.084 7.19 4.04 9.01
9/14/2021 6:30:00 AM 18.96 66.128 0.084 7.19 4.16 9.01
9/14/2021 6:45:00 AM 18.93 66.074 0.084 7.19 4.03 9.02
9/14/2021 7:00:00 AM 18.91 66.038 0.084 7.19 3.82 9.03
9/14/2021 7:15:00 AM 18.89 66.002 0.084 7.2 3.71 9.05
9/14/2021 7:30:00 AM 18.87 65.966 0.084 7.21 3.69 9.09
9/14/2021 7:45:00 AM 18.86 65.948 0.084 7.22 3.6 9.13
9/14/2021 8:00:00 AM 18.85 65.93 0.084 7.23 3.68 9.19
9/14/2021 8:15:00 AM 18.84 65.912 0.084 7.24 3.55 9.25
9/14/2021 8:30:00 AM 18.84 65.912 0.084 7.25 3.76 9.32
9/14/2021 8:45:00 AM 18.85 65.93 0.084 7.27 3.46 9.4
9/14/2021 9:00:00 AM 18.85 65.93 0.084 7.28 3.51 9.46
9/14/2021 9:15:00 AM 18.88 65.984 0.084 7.3 3.46 9.55
9/14/2021 9:30:00 AM 18.93 66.074 0.083 7.33 3.59 9.69
9/14/2021 9:45:00 AM 18.98 66.164 0.083 7.36 3.45 9.78
9/14/2021 10:00:00 AM 18.99 66.182 0.083 7.39 3.42 9.82
9/14/2021 10:15:00 AM 19.04 66.272 0.083 7.4 3.41 9.86
9/14/2021 10:30:00 AM 19.13 66.434 0.083 7.44 3.36 9.93
9/14/2021 10:45:00 AM 19.23 66.614 0.083 7.46 3.26 9.98
9/14/2021 11:00:00 AM 19.34 66.812 0.083 7.49 3.28 10.02
9/14/2021 11:15:00 AM 19.45 67.01 0.082 7.52 3.64 10.05
9/14/2021 11:30:00 AM 19.57 67.226 0.082 7.55 3.3 10.06
9/14/2021 11:45:00 AM 19.67 67.406 0.082 7.58 3.44 10.07
9/14/2021 12:00:00 PM 19.75 67.55 0.082 7.61 3.2 10.07
9/14/2021 12:15:00 PM 19.93 67.874 0.082 7.64 3.2 10.08
9/14/2021 12:30:00 PM 20.05 68.09 0.082 7.66 3.26 10.06
9/14/2021 12:45:00 PM 20.18 68.324 0.082 7.68 3.22 10.04
9/14/2021 1:00:00 PM 20.34 68.612 0.082 7.7 3.16 10.02
9/14/2021 1:15:00 PM 20.49 68.882 0.082 7.72 3.28 10.02
9/14/2021 1:30:00 PM 20.61 69.098 0.081 7.74 3.31 9.98
9/14/2021 1:45:00 PM 20.67 69.206 0.081 7.74 3.26 9.93
9/14/2021 2:00:00 PM 20.75 69.35 0.081 7.75 3.26 9.9
9/14/2021 2:15:00 PM 20.88 69.584 0.081 7.76 3.2 9.89
9/14/2021 2:30:00 PM 21.01 69.818 0.081 7.78 2.99 9.87
9/14/2021 2:45:00 PM 21.14 70.052 0.081 7.79 2.96 9.84
9/14/2021 3:00:00 PM 21.24 70.232 0.081 7.79 3.06 9.78
9/14/2021 3:15:00 PM 21.37 70.466 0.081 7.81 3.08 9.78
9/14/2021 3:30:00 PM 21.57 70.826 0.081 7.84 3.08 9.76
9/14/2021 3:45:00 PM 21.66 70.988 0.081 7.85 3.03 9.74
9/14/2021 4:00:00 PM 21.69 71.042 0.081 7.85 3.02 9.7
9/14/2021 4:15:00 PM 21.73 71.114 0.081 7.84 3.11 9.66
9/14/2021 4:30:00 PM 21.79 71.222 0.081 7.84 2.85 9.64
9/14/2021 4:45:00 PM 21.86 71.348 0.081 7.83 2.86 9.61
9/14/2021 5:00:00 PM 21.92 71.456 0.08 7.82 2.85 9.56
9/14/2021 5:15:00 PM 21.95 71.51 0.08 7.79 2.96 9.5
9/14/2021 5:30:00 PM 21.97 71.546 0.08 7.76 2.88 9.43
9/14/2021 5:45:00 PM 21.96 71.528 0.08 7.71 2.85 9.36
9/14/2021 6:00:00 PM 21.95 71.51 0.081 7.66 2.85 9.27
9/14/2021 6:15:00 PM 21.93 71.474 0.081 7.62 2.96 9.17
9/14/2021 6:30:00 PM 21.9 71.42 0.081 7.56 2.91 9.06
9/14/2021 6:45:00 PM 21.86 71.348 0.081 7.5 2.98 8.95
9/14/2021 7:00:00 PM 21.82 71.276 0.081 7.46 2.89 8.87
9/14/2021 7:15:00 PM 21.78 71.204 0.081 7.42 2.83 8.8
9/14/2021 7:30:00 PM 21.73 71.114 0.082 7.39 2.93 8.71
9/14/2021 7:45:00 PM 21.66 70.988 0.082 7.36 3.2 8.65
9/14/2021 8:00:00 PM 21.59 70.862 0.082 7.33 3.11 8.6
9/14/2021 8:15:00 PM 21.52 70.736 0.082 7.31 3.12 8.57
9/14/2021 8:30:00 PM 21.44 70.592 0.083 7.29 3.08 8.55
9/14/2021 8:45:00 PM 21.36 70.448 0.083 7.28 3.12 8.54
9/14/2021 9:00:00 PM 21.28 70.304 0.083 7.27 3.14 8.53
9/14/2021 9:15:00 PM 21.2 70.16 0.083 7.27 3.1 8.53
9/14/2021 9:30:00 PM 21.12 70.016 0.083 7.25 3.08 8.53
9/14/2021 9:45:00 PM 21.05 69.89 0.083 7.25 3.1 8.54
9/14/2021 10:00:00 PM 20.97 69.746 0.083 7.24 3.22 8.54
9/14/2021 10:15:00 PM 20.9 69.62 0.084 7.23 3.32 8.55
9/14/2021 10:30:00 PM 20.83 69.494 0.084 7.23 3.15 8.56
9/14/2021 10:45:00 PM 20.75 69.35 0.084 7.22 3.14 8.57
9/14/2021 11:00:00 PM 20.68 69.224 0.084 7.22 3.12 8.58
9/14/2021 11:15:00 PM 20.61 69.098 0.084 7.22 3.2 8.59
9/14/2021 11:30:00 PM 20.53 68.954 0.084 7.21 3.22 8.61
9/14/2021 11:45:00 PM 20.46 68.828 0.084 7.21 3.35 8.62
9/15/2021 12:00:00 AM 20.39 68.702 0.084 7.21 3.26 8.63
9/15/2021 12:15:00 AM 20.32 68.576 0.085 7.21 3.23 8.64
9/15/2021 12:30:00 AM 20.26 68.468 0.085 7.2 3.18 8.66
9/15/2021 12:45:00 AM 20.2 68.36 0.085 7.21 3.24 8.67
9/15/2021 1:00:00 AM 20.15 68.27 0.085 7.2 3.32 8.68
9/15/2021 1:15:00 AM 20.11 68.198 0.085 7.2 3.27 8.69
9/15/2021 1:30:00 AM 20.06 68.108 0.085 7.21 3.25 8.71
9/15/2021 1:45:00 AM 20.02 68.036 0.085 7.21 3.32 8.72
9/15/2021 2:00:00 AM 19.98 67.964 0.086 7.2 3.61 8.72
9/15/2021 2:15:00 AM 19.93 67.874 0.086 7.21 3.27 8.74
9/15/2021 2:30:00 AM 19.89 67.802 0.086 7.21 3.32 8.75
9/15/2021 2:45:00 AM 19.85 67.73 0.086 7.2 3.35 8.76
9/15/2021 3:00:00 AM 19.81 67.658 0.086 7.21 3.23 8.77
9/15/2021 3:15:00 AM 19.77 67.586 0.086 7.21 3.21 8.77
9/15/2021 3:30:00 AM 19.73 67.514 0.086 7.21 3.31 8.78
9/15/2021 3:45:00 AM 19.7 67.46 0.086 7.21 3.4 8.79
9/15/2021 4:00:00 AM 19.67 67.406 0.086 7.21 3.33 8.8
9/15/2021 4:15:00 AM 19.63 67.334 0.087 7.21 3.28 8.81
9/15/2021 4:30:00 AM 19.6 67.28 0.087 7.21 3.23 8.81
9/15/2021 4:45:00 AM 19.56 67.208 0.087 7.21 3.23 8.82
9/15/2021 5:00:00 AM 19.53 67.154 0.087 7.21 3.13 8.82
9/15/2021 5:15:00 AM 19.49 67.082 0.087 7.21 3.19 8.83
9/15/2021 5:30:00 AM 19.45 67.01 0.087 7.21 3.25 8.84
9/15/2021 5:45:00 AM 19.42 66.956 0.087 7.21 3.24 8.85
9/15/2021 6:00:00 AM 19.39 66.902 0.087 7.21 3.2 8.85
9/15/2021 6:15:00 AM 19.35 66.83 0.088 7.21 3.05 8.86
9/15/2021 6:30:00 AM 19.32 66.776 0.088 7.21 3.19 8.86
9/15/2021 6:45:00 AM 19.28 66.704 0.088 7.21 3.22 8.87
9/15/2021 7:00:00 AM 19.24 66.632 0.088 7.21 3.1 8.88
9/15/2021 7:15:00 AM 19.21 66.578 0.088 7.21 3.1 8.91
9/15/2021 7:30:00 AM 19.18 66.524 0.088 7.22 3.05 8.96
9/15/2021 7:45:00 AM 19.16 66.488 0.088 7.23 2.94 9.03
9/15/2021 8:00:00 AM 19.13 66.434 0.088 7.24 3.01 9.09
9/15/2021 8:15:00 AM 19.11 66.398 0.088 7.25 2.93 9.16
9/15/2021 8:30:00 AM 19.13 66.434 0.088 7.27 2.93 9.29
9/15/2021 8:45:00 AM 19.16 66.488 0.088 7.3 2.91 9.41
9/15/2021 9:00:00 AM 19.19 66.542 0.088 7.32 2.97 9.5
9/15/2021 9:15:00 AM 19.25 66.65 0.088 7.35 2.96 9.59
9/15/2021 9:30:00 AM 19.31 66.758 0.087 7.38 2.93 9.68
9/15/2021 9:45:00 AM 19.34 66.812 0.087 7.4 2.84 9.72
9/15/2021 10:00:00 AM 19.36 66.848 0.087 7.41 2.91 9.7
9/15/2021 10:15:00 AM 19.36 66.848 0.087 7.4 2.91 9.61
9/15/2021 10:30:00 AM 19.39 66.902 0.087 7.39 2.96 9.62
9/15/2021 10:45:00 AM 19.43 66.974 0.087 7.4 2.91 9.65
9/15/2021 11:00:00 AM 19.48 67.064 0.087 7.42 2.83 9.71
9/15/2021 11:15:00 AM 19.56 67.208 0.087 7.45 2.87 9.78
9/15/2021 11:30:00 AM 19.63 67.334 0.086 7.47 2.81 9.79
9/15/2021 11:45:00 AM 19.7 67.46 0.086 7.49 2.84 9.82
9/15/2021 12:00:00 PM 19.76 67.568 0.086 7.51 2.86 9.8
9/15/2021 12:15:00 PM 19.79 67.622 0.086 7.5 2.86 9.74
9/15/2021 12:30:00 PM 19.83 67.694 0.086 7.52 2.92 9.76
9/15/2021 12:45:00 PM 19.85 67.73 0.086 7.53 2.9 9.73
9/15/2021 1:00:00 PM 19.84 67.712 0.086 7.51 2.93 9.63
9/15/2021 1:15:00 PM 19.82 67.676 0.086 7.47 2.96 9.51
9/15/2021 1:30:00 PM 19.83 67.694 0.085 7.44 3.12 9.44
9/15/2021 1:45:00 PM 19.9 67.82 0.084 7.44 3.26 9.57
9/15/2021 2:00:00 PM 19.94 67.892 0.084 7.47 2.99 9.62
9/15/2021 2:15:00 PM 19.92 67.856 0.084 7.46 3.42 9.55
9/15/2021 2:30:00 PM 19.89 67.802 0.084 7.44 3.29 9.47
9/15/2021 2:45:00 PM 19.88 67.784 0.084 7.43 3.43 9.44
9/15/2021 3:00:00 PM 19.89 67.802 0.084 7.43 3.25 9.47
9/15/2021 3:15:00 PM 19.99 67.982 0.084 7.46 3.23 9.57
9/15/2021 3:30:00 PM 20 68 0.084 7.45 3.25 9.46
9/15/2021 3:45:00 PM 19.9 67.82 0.084 7.42 3.2 9.34
9/15/2021 4:00:00 PM 19.85 67.73 0.083 7.37 3.58 9.28
9/15/2021 4:15:00 PM 19.8 67.64 0.083 7.34 3.7 9.25
9/15/2021 4:30:00 PM 19.77 67.586 0.083 7.31 4.26 9.23
9/15/2021 4:45:00 PM 19.74 67.532 0.083 7.29 4.29 9.2
9/15/2021 5:00:00 PM 19.72 67.496 0.083 7.28 4.07 9.2
9/15/2021 5:15:00 PM 19.71 67.478 0.083 7.29 3.99 9.21
9/15/2021 5:30:00 PM 19.69 67.442 0.083 7.29 3.96 9.19
9/15/2021 5:45:00 PM 19.67 67.406 0.083 7.29 3.88 9.2
9/15/2021 6:00:00 PM 19.65 67.37 0.083 7.29 3.96 9.2
9/15/2021 6:15:00 PM 19.62 67.316 0.083 7.29 3.89 9.18
9/15/2021 6:30:00 PM 19.6 67.28 0.084 7.29 4.29 9.17
9/15/2021 6:45:00 PM 19.57 67.226 0.084 7.29 6.57 9.14
9/15/2021 7:00:00 PM 19.52 67.136 0.085 7.29 12.07 9.08
9/15/2021 7:15:00 PM 19.46 67.028 0.085 7.28 19.31 9.03
9/15/2021 7:30:00 PM 19.4 66.92 0.085 7.26 23.5 9
9/15/2021 7:45:00 PM 19.33 66.794 0.085 7.25 22.82 8.99
9/15/2021 8:00:00 PM 19.27 66.686 0.085 7.24 24.76 8.98
9/15/2021 8:15:00 PM 19.2 66.56 0.085 7.24 20.33 8.98
9/15/2021 8:30:00 PM 19.14 66.452 0.084 7.24 20.25 8.98
9/15/2021 8:45:00 PM 19.08 66.344 0.085 7.23 22.97 8.98
9/15/2021 9:00:00 PM 19.02 66.236 0.085 7.23 27.99 8.99
9/15/2021 9:15:00 PM 18.96 66.128 0.085 7.22 28.24 9
9/15/2021 9:30:00 PM 18.91 66.038 0.085 7.22 25.29 9.02
9/15/2021 9:45:00 PM 18.85 65.93 0.085 7.22 21.89 9.03
9/15/2021 10:00:00 PM 18.8 65.84 0.086 7.22 18.51 9.05
9/15/2021 10:15:00 PM 18.75 65.75 0.086 7.22 14.85 9.06
9/15/2021 10:30:00 PM 18.7 65.66 0.086 7.21 12.77 9.08
9/15/2021 10:45:00 PM 18.66 65.588 0.086 7.21 11.73 9.09
9/15/2021 11:00:00 PM 18.62 65.516 0.086 7.22 10.32 9.1
9/15/2021 11:15:00 PM 18.57 65.426 0.087 7.22 9.33 9.12
9/15/2021 11:30:00 PM 18.53 65.354 0.087 7.22 8.56 9.13
9/15/2021 11:45:00 PM 18.49 65.282 0.087 7.22 8.05 9.14
9/16/2021 12:00:00 AM 18.45 65.21 0.087 7.22 7.84 9.15
9/16/2021 12:15:00 AM 18.41 65.138 0.087 7.22 10.03 9.16
9/16/2021 12:30:00 AM 18.37 65.066 0.087 7.23 10.77 9.17
9/16/2021 12:45:00 AM 18.34 65.012 0.087 7.23 13.35 9.19
9/16/2021 1:00:00 AM 18.31 64.958 0.087 7.23 10.96 9.19
9/16/2021 1:15:00 AM 18.27 64.886 0.087 7.24 9.01 9.2
9/16/2021 1:30:00 AM 18.23 64.814 0.087 7.24 10.82 9.21
9/16/2021 1:45:00 AM 18.19 64.742 0.087 7.24 20.11 9.22
9/16/2021 2:00:00 AM 18.15 64.67 0.088 7.24 16.34 9.22
9/16/2021 2:15:00 AM 18.1 64.58 0.088 7.25 15.06 9.23
9/16/2021 2:30:00 AM 18.07 64.526 0.088 7.24 13.59 9.24
9/16/2021 2:45:00 AM 18.03 64.454 0.088 7.25 12.23 9.25
9/16/2021 3:00:00 AM 18 64.4 0.089 7.25 11.65 9.26
9/16/2021 3:15:00 AM 17.96 64.328 0.089 7.25 10.79 9.26
9/16/2021 3:30:00 AM 17.93 64.274 0.089 7.24 5.86 9.27
9/16/2021 3:45:00 AM 17.89 64.202 0.089 7.25 5.93 9.28
9/16/2021 4:00:00 AM 17.85 64.13 0.089 7.25 5.97 9.3
9/16/2021 4:15:00 AM 17.82 64.076 0.089 7.25 5.89 9.3
9/16/2021 4:30:00 AM 17.78 64.004 0.089 7.25 5.84 9.31
9/16/2021 4:45:00 AM 17.74 63.932 0.089 7.25 5.91 9.33
9/16/2021 5:00:00 AM 17.7 63.86 0.089 7.25 5.76 9.33
9/16/2021 5:15:00 AM 17.66 63.788 0.089 7.25 5.59 9.35
9/16/2021 5:30:00 AM 17.61 63.698 0.089 7.25 5.56 9.36
9/16/2021 5:45:00 AM 17.57 63.626 0.089 7.25 5.56 9.37
9/16/2021 6:00:00 AM 17.52 63.536 0.089 7.24 5.43 9.39
9/16/2021 6:15:00 AM 17.47 63.446 0.089 7.24 5.26 9.4
9/16/2021 6:30:00 AM 17.42 63.356 0.089 7.24 5.42 9.41
9/16/2021 6:45:00 AM 17.38 63.284 0.089 7.25 5.58 9.42
9/16/2021 7:00:00 AM 17.33 63.194 0.089 7.24 5.44 9.44
9/16/2021 7:15:00 AM 17.29 63.122 0.089 7.24 5.33 9.47
9/16/2021 7:30:00 AM 17.26 63.068 0.089 7.25 5.35 9.5
9/16/2021 7:45:00 AM 17.22 62.996 0.089 7.26 5.26 9.54
9/16/2021 8:00:00 AM 17.2 62.96 0.088 7.27 5.03 9.59
9/16/2021 8:15:00 AM 17.18 62.924 0.088 7.28 4.94 9.66
9/16/2021 8:30:00 AM 17.17 62.906 0.088 7.3 4.95 9.74
9/16/2021 8:45:00 AM 17.16 62.888 0.088 7.32 4.91 9.81
9/16/2021 9:00:00 AM 17.15 62.87 0.088 7.33 4.74 9.87
9/16/2021 9:15:00 AM 17.17 62.906 0.087 7.36 4.62 9.97
9/16/2021 9:30:00 AM 17.19 62.942 0.087 7.38 4.65 10.05
9/16/2021 9:45:00 AM 17.22 62.996 0.087 7.41 4.37 10.12
9/16/2021 10:00:00 AM 17.27 63.086 0.087 7.43 4.48 10.2
9/16/2021 10:15:00 AM 17.31 63.158 0.086 7.46 4.31 10.25
9/16/2021 10:30:00 AM 17.35 63.23 0.086 7.48 4.17 10.29
9/16/2021 10:45:00 AM 17.42 63.356 0.086 7.51 4.3 10.34
9/16/2021 11:00:00 AM 17.51 63.518 0.086 7.53 4.14 10.35
9/16/2021 11:15:00 AM 17.55 63.59 0.086 7.54 4.1 10.33
9/16/2021 11:30:00 AM 17.63 63.734 0.086 7.55 3.99 10.35
9/16/2021 11:45:00 AM 17.73 63.914 0.086 7.58 4.34 10.38
9/16/2021 12:00:00 PM 17.82 64.076 0.086 7.6 4.13 10.4
9/16/2021 12:15:00 PM 17.94 64.292 0.085 7.63 3.96 10.41
9/16/2021 12:30:00 PM 18.06 64.508 0.085 7.66 3.97 10.43
9/16/2021 12:45:00 PM 18.14 64.652 0.085 7.67 3.92 10.42
9/16/2021 1:00:00 PM 18.24 64.832 0.085 7.7 3.65 10.41
9/16/2021 1:15:00 PM 18.35 65.03 0.085 7.71 3.63 10.41
9/16/2021 1:30:00 PM 18.5 65.3 0.085 7.74 3.68 10.4
9/16/2021 1:45:00 PM 18.63 65.534 0.085 7.76 3.57 10.41
9/16/2021 2:00:00 PM 18.69 65.642 0.085 7.76 3.55 10.37
9/16/2021 2:15:00 PM 18.8 65.84 0.085 7.76 3.54 10.33
9/16/2021 2:30:00 PM 18.93 66.074 0.084 7.78 3.42 10.32
9/16/2021 2:45:00 PM 19.06 66.308 0.084 7.8 3.64 10.32
9/16/2021 3:00:00 PM 19.14 66.452 0.084 7.81 3.51 10.29
9/16/2021 3:15:00 PM 19.22 66.596 0.084 7.82 3.41 10.27
9/16/2021 3:30:00 PM 19.38 66.884 0.084 7.82 3.43 10.23
9/16/2021 3:45:00 PM 19.47 67.046 0.084 7.81 3.37 10.17
9/16/2021 4:00:00 PM 19.51 67.118 0.084 7.79 3.48 10.09
9/16/2021 4:15:00 PM 19.42 66.956 0.084 7.73 3.46 9.98
9/16/2021 4:30:00 PM 19.41 66.938 0.084 7.7 3.42 9.96
9/16/2021 4:45:00 PM 19.43 66.974 0.083 7.7 3.4 9.98
9/16/2021 5:00:00 PM 19.47 67.046 0.083 7.71 3.3 9.98
9/16/2021 5:15:00 PM 19.5 67.1 0.083 7.7 3.38 9.95
9/16/2021 5:30:00 PM 19.51 67.118 0.083 7.68 3.51 9.9
9/16/2021 5:45:00 PM 19.5 67.1 0.083 7.64 3.28 9.81
9/16/2021 6:00:00 PM 19.48 67.064 0.083 7.58 3.34 9.7
9/16/2021 6:15:00 PM 19.46 67.028 0.084 7.53 3.26 9.59
9/16/2021 6:30:00 PM 19.45 67.01 0.084 7.48 3.44 9.48
9/16/2021 6:45:00 PM 19.44 66.992 0.084 7.44 3.32 9.39
9/16/2021 7:00:00 PM 19.43 66.974 0.084 7.4 3.24 9.31
9/16/2021 7:15:00 PM 19.42 66.956 0.084 7.37 3.35 9.24
9/16/2021 7:30:00 PM 19.42 66.956 0.085 7.35 3.38 9.19
9/16/2021 7:45:00 PM 19.4 66.92 0.085 7.33 3.36 9.14
9/16/2021 8:00:00 PM 19.39 66.902 0.085 7.31 3.48 9.1
9/16/2021 8:15:00 PM 19.37 66.866 0.085 7.29 3.55 9.08
9/16/2021 8:30:00 PM 19.34 66.812 0.086 7.28 3.58 9.06
9/16/2021 8:45:00 PM 19.29 66.722 0.086 7.27 3.61 9.05
9/16/2021 9:00:00 PM 19.25 66.65 0.086 7.27 3.6 9.05
9/16/2021 9:15:00 PM 19.2 66.56 0.086 7.26 3.57 9.05
9/16/2021 9:30:00 PM 19.15 66.47 0.087 7.25 3.64 9.05
9/16/2021 9:45:00 PM 19.11 66.398 0.087 7.25 3.52 9.05
9/16/2021 10:00:00 PM 19.07 66.326 0.087 7.24 3.45 9.05
9/16/2021 10:15:00 PM 19.04 66.272 0.087 7.24 3.49 9.06
9/16/2021 10:30:00 PM 19.01 66.218 0.087 7.24 3.51 9.06
9/16/2021 10:45:00 PM 18.99 66.182 0.087 7.23 3.63 9.06
9/16/2021 11:00:00 PM 18.97 66.146 0.087 7.23 3.52 9.06
9/16/2021 11:15:00 PM 18.94 66.092 0.088 7.23 3.69 9.07
9/16/2021 11:30:00 PM 18.92 66.056 0.088 7.22 3.63 9.07
9/16/2021 11:45:00 PM 18.88 65.984 0.088 7.22 3.57 9.08
9/17/2021 12:00:00 AM 18.85 65.93 0.088 7.22 3.62 9.08
9/17/2021 12:15:00 AM 18.82 65.876 0.088 7.21 3.55 9.09
9/17/2021 12:30:00 AM 18.79 65.82201 0.088 7.21 3.55 9.09
9/17/2021 12:45:00 AM 18.75 65.75 0.088 7.21 3.54 9.09
9/17/2021 1:00:00 AM 18.73 65.714 0.088 7.21 3.61 9.11
9/17/2021 1:15:00 AM 18.7 65.66 0.089 7.21 3.47 9.11
9/17/2021 1:30:00 AM 18.67 65.606 0.089 7.21 3.39 9.11
9/17/2021 1:45:00 AM 18.64 65.552 0.089 7.2 3.59 9.12
9/17/2021 2:00:00 AM 18.6 65.48 0.089 7.2 3.55 9.12
9/17/2021 2:15:00 AM 18.58 65.444 0.089 7.21 3.59 9.13
9/17/2021 2:30:00 AM 18.55 65.39 0.089 7.2 3.55 9.13
9/17/2021 2:45:00 AM 18.53 65.354 0.089 7.2 3.59 9.14
9/17/2021 3:00:00 AM 18.49 65.282 0.089 7.2 3.44 9.15
9/17/2021 3:15:00 AM 18.46 65.228 0.089 7.2 3.36 9.15
9/17/2021 3:30:00 AM 18.43 65.174 0.09 7.2 3.36 9.16
9/17/2021 3:45:00 AM 18.4 65.12 0.09 7.2 3.65 9.16
9/17/2021 4:00:00 AM 18.37 65.066 0.09 7.2 3.41 9.17
9/17/2021 4:15:00 AM 18.34 65.012 0.09 7.2 3.42 9.18
9/17/2021 4:30:00 AM 18.3 64.94 0.09 7.2 3.58 9.18
9/17/2021 4:45:00 AM 18.28 64.904 0.09 7.19 3.36 9.2
9/17/2021 5:00:00 AM 18.25 64.85 0.09 7.19 3.4 9.2
9/17/2021 5:15:00 AM 18.23 64.814 0.09 7.19 3.68 9.21
9/17/2021 5:30:00 AM 18.21 64.778 0.09 7.19 3.39 9.21
9/17/2021 5:45:00 AM 18.2 64.76 0.09 7.19 3.42 9.22
9/17/2021 6:00:00 AM 18.18 64.724 0.09 7.19 3.52 9.22
9/17/2021 6:15:00 AM 18.16 64.688 0.09 7.19 3.3 9.23
9/17/2021 6:30:00 AM 18.15 64.67 0.09 7.19 3.29 9.23
9/17/2021 6:45:00 AM 18.14 64.652 0.09 7.19 3.46 9.24
9/17/2021 7:00:00 AM 18.13 64.634 0.09 7.19 3.34 9.25
9/17/2021 7:15:00 AM 18.12 64.616 0.091 7.19 3.27 9.26
9/17/2021 7:30:00 AM 18.11 64.598 0.09 7.19 3.29 9.28
9/17/2021 7:45:00 AM 18.11 64.598 0.09 7.2 3.13 9.32
9/17/2021 8:00:00 AM 18.12 64.616 0.09 7.21 3.19 9.37
9/17/2021 8:15:00 AM 18.13 64.634 0.09 7.22 3.09 9.44
9/17/2021 8:30:00 AM 18.14 64.652 0.09 7.23 3.17 9.5
9/17/2021 8:45:00 AM 18.16 64.688 0.09 7.25 3.22 9.56
9/17/2021 9:00:00 AM 18.19 64.742 0.09 7.26 3.12 9.65
9/17/2021 9:15:00 AM 18.24 64.832 0.09 7.29 3.07 9.77
9/17/2021 9:30:00 AM 18.28 64.904 0.09 7.32 3.07 9.84
9/17/2021 9:45:00 AM 18.34 65.012 0.09 7.35 3.08 9.92
9/17/2021 10:00:00 AM 18.43 65.174 0.09 7.39 3.05 10.02
9/17/2021 10:15:00 AM 18.49 65.282 0.09 7.42 3.19 10.08
9/17/2021 10:30:00 AM 18.53 65.354 0.089 7.45 3.13 10.09
9/17/2021 10:45:00 AM 18.66 65.588 0.089 7.48 3.03 10.15
9/17/2021 11:00:00 AM 18.78 65.804 0.089 7.52 3.01 10.22
9/17/2021 11:15:00 AM 18.94 66.092 0.089 7.56 3.11 10.26
9/17/2021 11:30:00 AM 19.07 66.326 0.089 7.6 3.07 10.28
9/17/2021 11:45:00 AM 19.11 66.398 0.089 7.62 3.18 10.27
9/17/2021 12:00:00 PM 19.12 66.416 0.089 7.64 3.28 10.25
9/17/2021 12:15:00 PM 19.15 66.47 0.089 7.65 3.12 10.23
9/17/2021 12:30:00 PM 19.27 66.686 0.089 7.67 3.1 10.27
9/17/2021 12:45:00 PM 19.41 66.938 0.089 7.71 3.17 10.28
9/17/2021 1:00:00 PM 19.55 67.19 0.089 7.74 3.02 10.3
9/17/2021 1:15:00 PM 19.64 67.352 0.088 7.77 3.08 10.28
9/17/2021 1:30:00 PM 19.73 67.514 0.088 7.79 2.98 10.27
9/17/2021 1:45:00 PM 19.85 67.73 0.088 7.82 3.09 10.26
9/17/2021 2:00:00 PM 20.03 68.054 0.088 7.84 3.06 10.24
9/17/2021 2:15:00 PM 20.19 68.342 0.088 7.84 2.99 10.19
9/17/2021 2:30:00 PM 20.35 68.63 0.088 7.85 3.01 10.16
9/17/2021 2:45:00 PM 20.47 68.846 0.088 7.87 2.99 10.14
9/17/2021 3:00:00 PM 20.51 68.918 0.088 7.86 2.92 10.09
9/17/2021 3:15:00 PM 20.57 69.026 0.088 7.87 2.82 10.05
9/17/2021 3:30:00 PM 20.77 69.386 0.088 7.86 2.9 9.99
9/17/2021 3:45:00 PM 20.79 69.422 0.088 7.83 2.89 9.89
9/17/2021 4:00:00 PM 20.79 69.422 0.088 7.81 2.78 9.85
9/17/2021 4:15:00 PM 20.88 69.584 0.088 7.8 2.86 9.83
9/17/2021 4:30:00 PM 20.93 69.674 0.088 7.79 2.82 9.79
9/17/2021 4:45:00 PM 20.97 69.746 0.088 7.77 3.05 9.73
9/17/2021 5:00:00 PM 21.03 69.854 0.088 7.73 2.8 9.65
9/17/2021 5:15:00 PM 21.04 69.872 0.088 7.7 2.73 9.58
9/17/2021 5:30:00 PM 21.03 69.854 0.088 7.66 2.73 9.51
9/17/2021 5:45:00 PM 21 69.8 0.088 7.61 2.77 9.43
9/17/2021 6:00:00 PM 20.99 69.782 0.088 7.58 2.66 9.38
9/17/2021 6:15:00 PM 20.96 69.728 0.088 7.54 2.8 9.31
9/17/2021 6:30:00 PM 20.93 69.674 0.088 7.51 2.74 9.26
9/17/2021 6:45:00 PM 20.9 69.62 0.089 7.49 2.86 9.2
9/17/2021 7:00:00 PM 20.85 69.53 0.089 7.46 2.81 9.11
9/17/2021 7:15:00 PM 20.8 69.44 0.089 7.42 2.91 9.02
9/17/2021 7:30:00 PM 20.74 69.332 0.089 7.39 2.78 8.94
9/17/2021 7:45:00 PM 20.69 69.242 0.089 7.35 2.93 8.88
9/17/2021 8:00:00 PM 20.63 69.134 0.09 7.33 2.99 8.84
9/17/2021 8:15:00 PM 20.58 69.044 0.09 7.31 3.01 8.81
9/17/2021 8:30:00 PM 20.52 68.936 0.09 7.29 2.99 8.79
9/17/2021 8:45:00 PM 20.46 68.828 0.09 7.28 3.22 8.77
9/17/2021 9:00:00 PM 20.41 68.738 0.09 7.27 3.09 8.77
9/17/2021 9:15:00 PM 20.35 68.63 0.091 7.26 3.09 8.76
9/17/2021 9:30:00 PM 20.3 68.54 0.091 7.25 3.02 8.75
9/17/2021 9:45:00 PM 20.25 68.45 0.091 7.24 3.12 8.75
9/17/2021 10:00:00 PM 20.21 68.378 0.091 7.24 3.06 8.75
9/17/2021 10:15:00 PM 20.18 68.324 0.091 7.23 3.22 8.75
9/17/2021 10:30:00 PM 20.14 68.252 0.091 7.23 3.1 8.75
9/17/2021 10:45:00 PM 20.11 68.198 0.092 7.23 3.15 8.76
9/17/2021 11:00:00 PM 20.08 68.144 0.092 7.22 3.05 8.76
9/17/2021 11:15:00 PM 20.05 68.09 0.092 7.22 3.18 8.77
9/17/2021 11:30:00 PM 20.02 68.036 0.092 7.22 3.1 8.77
9/17/2021 11:45:00 PM 19.99 67.982 0.092 7.22 3.34 8.78
9/18/2021 12:00:00 AM 19.95 67.91 0.092 7.22 3.14 8.79
9/18/2021 12:15:00 AM 19.92 67.856 0.093 7.22 3.17 8.8
9/18/2021 12:30:00 AM 19.88 67.784 0.093 7.22 3.04 8.8
9/18/2021 12:45:00 AM 19.85 67.73 0.093 7.22 3.03 8.81
9/18/2021 1:00:00 AM 19.82 67.676 0.093 7.22 3.2 8.82
9/18/2021 1:15:00 AM 19.79 67.622 0.093 7.22 3.16 8.83
9/18/2021 1:30:00 AM 19.76 67.568 0.093 7.23 3.12 8.84
9/18/2021 1:45:00 AM 19.72 67.496 0.093 7.23 3.22 8.84
9/18/2021 2:00:00 AM 19.69 67.442 0.094 7.22 3.13 8.85
9/18/2021 2:15:00 AM 19.67 67.406 0.094 7.23 3.21 8.85
9/18/2021 2:30:00 AM 19.64 67.352 0.094 7.22 3.21 8.86
9/18/2021 2:45:00 AM 19.61 67.298 0.094 7.23 3.15 8.86
9/18/2021 3:00:00 AM 19.59 67.262 0.094 7.22 3.28 8.87
9/18/2021 3:15:00 AM 19.56 67.208 0.094 7.23 3.21 8.87
9/18/2021 3:30:00 AM 19.54 67.172 0.094 7.23 3.27 8.88
9/18/2021 3:45:00 AM 19.52 67.136 0.094 7.23 3.22 8.88
9/18/2021 4:00:00 AM 19.5 67.1 0.094 7.23 3.2 8.89
9/18/2021 4:15:00 AM 19.48 67.064 0.094 7.22 3.11 8.89
9/18/2021 4:30:00 AM 19.45 67.01 0.094 7.22 3.17 8.9
9/18/2021 4:45:00 AM 19.43 66.974 0.095 7.22 3.1 8.9
9/18/2021 5:00:00 AM 19.4 66.92 0.094 7.23 3.1 8.91
9/18/2021 5:15:00 AM 19.37 66.866 0.095 7.23 3.03 8.92
9/18/2021 5:30:00 AM 19.35 66.83 0.095 7.23 3.18 8.92
9/18/2021 5:45:00 AM 19.32 66.776 0.095 7.22 3.14 8.93
9/18/2021 6:00:00 AM 19.28 66.704 0.095 7.23 3.24 8.94
9/18/2021 6:15:00 AM 19.25 66.65 0.095 7.22 3.14 8.94
9/18/2021 6:30:00 AM 19.22 66.596 0.095 7.22 3.29 8.95
9/18/2021 6:45:00 AM 19.19 66.542 0.095 7.22 3.14 8.95
9/18/2021 7:00:00 AM 19.16 66.488 0.095 7.22 3.09 8.97
9/18/2021 7:15:00 AM 19.14 66.452 0.095 7.22 3.04 9.01
9/18/2021 7:30:00 AM 19.11 66.398 0.095 7.23 3.09 9.04
9/18/2021 7:45:00 AM 19.09 66.362 0.095 7.23 2.94 9.06
9/18/2021 8:00:00 AM 19.06 66.308 0.095 7.24 2.89 9.09
9/18/2021 8:15:00 AM 19.05 66.29 0.095 7.25 2.86 9.16
9/18/2021 8:30:00 AM 19.03 66.254 0.095 7.26 3.01 9.24
9/18/2021 8:45:00 AM 19.01 66.218 0.095 7.28 2.86 9.32
9/18/2021 9:00:00 AM 19.04 66.272 0.094 7.3 2.95 9.45
9/18/2021 9:15:00 AM 19.07 66.326 0.094 7.33 2.77 9.58
9/18/2021 9:30:00 AM 19.11 66.398 0.094 7.36 2.88 9.66
9/18/2021 9:45:00 AM 19.16 66.488 0.094 7.38 2.8 9.71
9/18/2021 10:00:00 AM 19.17 66.506 0.094 7.39 2.76 9.7
9/18/2021 10:15:00 AM 19.19 66.542 0.094 7.4 2.86 9.72
9/18/2021 10:30:00 AM 19.23 66.614 0.094 7.41 2.78 9.73
9/18/2021 10:45:00 AM 19.28 66.704 0.093 7.43 2.77 9.76
9/18/2021 11:00:00 AM 19.34 66.812 0.093 7.44 2.76 9.79
9/18/2021 11:15:00 AM 19.42 66.956 0.093 7.45 2.9 9.82
9/18/2021 11:30:00 AM 19.48 67.064 0.093 7.47 2.79 9.85
9/18/2021 11:45:00 AM 19.51 67.118 0.093 7.49 2.9 9.89
9/18/2021 12:00:00 PM 19.67 67.406 0.093 7.52 2.85 9.94
9/18/2021 12:15:00 PM 19.81 67.658 0.092 7.55 2.94 9.95
9/18/2021 12:30:00 PM 19.87 67.766 0.092 7.57 2.83 9.95
9/18/2021 12:45:00 PM 19.94 67.892 0.092 7.6 2.89 9.97
9/18/2021 1:00:00 PM 20.16 68.288 0.092 7.63 2.85 9.99
9/18/2021 1:15:00 PM 20.37 68.666 0.092 7.66 2.87 10.01
9/18/2021 1:30:00 PM 20.44 68.792 0.092 7.67 2.79 9.96
9/18/2021 1:45:00 PM 20.49 68.882 0.092 7.69 2.81 9.93
9/18/2021 2:00:00 PM 20.61 69.098 0.092 7.7 2.95 9.92
9/18/2021 2:15:00 PM 20.69 69.242 0.091 7.71 2.84 9.88
9/18/2021 2:30:00 PM 20.73 69.314 0.091 7.68 2.89 9.78
9/18/2021 2:45:00 PM 20.85 69.53 0.091 7.69 2.83 9.81
9/18/2021 3:00:00 PM 21.03 69.854 0.091 7.73 2.78 9.83
9/18/2021 3:15:00 PM 21.15 70.07 0.091 7.73 2.68 9.77
9/18/2021 3:30:00 PM 21.22 70.196 0.091 7.75 2.68 9.78
9/18/2021 3:45:00 PM 21.34 70.412 0.091 7.75 2.75 9.73
9/18/2021 4:00:00 PM 21.38 70.484 0.091 7.76 2.84 9.72
9/18/2021 4:15:00 PM 21.52 70.736 0.091 7.78 2.69 9.72
9/18/2021 4:30:00 PM 21.6 70.88 0.09 7.8 2.77 9.7
9/18/2021 4:45:00 PM 21.64 70.952 0.091 7.79 2.8 9.65
9/18/2021 5:00:00 PM 21.65 70.97 0.091 7.76 2.67 9.56
9/18/2021 5:15:00 PM 21.6 70.88 0.09 7.72 2.8 9.51
9/18/2021 5:30:00 PM 21.56 70.808 0.091 7.68 2.71 9.42
9/18/2021 5:45:00 PM 21.51 70.718 0.091 7.61 2.72 9.3
9/18/2021 6:00:00 PM 21.47 70.646 0.091 7.58 2.66 9.24
9/18/2021 6:15:00 PM 21.44 70.592 0.091 7.54 2.73 9.19
9/18/2021 6:30:00 PM 21.4 70.52 0.091 7.51 2.82 9.11
9/18/2021 6:45:00 PM 21.35 70.43 0.091 7.48 2.68 9.03
9/18/2021 7:00:00 PM 21.3 70.34 0.091 7.45 2.81 8.96
9/18/2021 7:15:00 PM 21.24 70.232 0.091 7.4 2.87 8.87
9/18/2021 7:30:00 PM 21.18 70.124 0.091 7.38 2.82 8.8
9/18/2021 7:45:00 PM 21.11 69.998 0.092 7.35 2.82 8.75
9/18/2021 8:00:00 PM 21.05 69.89 0.092 7.32 2.94 8.71
9/18/2021 8:15:00 PM 20.99 69.782 0.092 7.31 3.13 8.68
9/18/2021 8:30:00 PM 20.92 69.656 0.092 7.3 3.13 8.68
9/18/2021 8:45:00 PM 20.84 69.512 0.092 7.28 2.97 8.67
9/18/2021 9:00:00 PM 20.77 69.386 0.092 7.27 3.08 8.67
9/18/2021 9:15:00 PM 20.69 69.242 0.092 7.27 3.01 8.67
9/18/2021 9:30:00 PM 20.61 69.098 0.093 7.26 2.95 8.67
9/18/2021 9:45:00 PM 20.53 68.954 0.093 7.26 3.06 8.68
9/18/2021 10:00:00 PM 20.45 68.81 0.093 7.25 3.11 8.69
9/18/2021 10:15:00 PM 20.36 68.648 0.093 7.25 3.2 8.7
9/18/2021 10:30:00 PM 20.28 68.504 0.093 7.24 3.1 8.72
9/18/2021 10:45:00 PM 20.19 68.342 0.093 7.24 3.12 8.73
9/18/2021 11:00:00 PM 20.11 68.198 0.093 7.24 3.15 8.74
9/18/2021 11:15:00 PM 20.02 68.036 0.093 7.24 3.16 8.76
9/18/2021 11:30:00 PM 19.93 67.874 0.093 7.23 3.08 8.78
9/18/2021 11:45:00 PM 19.85 67.73 0.093 7.23 3.35 8.79
9/19/2021 12:00:00 AM 19.76 67.568 0.093 7.23 3.24 8.81
9/19/2021 12:15:00 AM 19.68 67.424 0.094 7.23 3.13 8.83
9/19/2021 12:30:00 AM 19.63 67.334 0.094 7.23 3.14 8.84
9/19/2021 12:45:00 AM 19.58 67.244 0.094 7.23 3.17 8.86
9/19/2021 1:00:00 AM 19.54 67.172 0.094 7.23 3.14 8.87
9/19/2021 1:15:00 AM 19.5 67.1 0.094 7.23 3.14 8.87
9/19/2021 1:30:00 AM 19.45 67.01 0.094 7.23 3.17 8.89
9/19/2021 1:45:00 AM 19.4 66.92 0.094 7.23 3.18 8.9
9/19/2021 2:00:00 AM 19.36 66.848 0.094 7.23 3.1 8.91
9/19/2021 2:15:00 AM 19.31 66.758 0.094 7.23 3.11 8.92
9/19/2021 2:30:00 AM 19.26 66.668 0.095 7.24 3.22 8.93
9/19/2021 2:45:00 AM 19.22 66.596 0.095 7.24 3.09 8.94
9/19/2021 3:00:00 AM 19.17 66.506 0.095 7.24 3.31 8.95
9/19/2021 3:15:00 AM 19.13 66.434 0.095 7.24 3.17 8.96
9/19/2021 3:30:00 AM 19.08 66.344 0.095 7.24 3.1 8.97
9/19/2021 3:45:00 AM 19.04 66.272 0.095 7.24 3.16 8.98
9/19/2021 4:00:00 AM 18.99 66.182 0.095 7.24 3.2 8.99
9/19/2021 4:15:00 AM 18.95 66.11 0.095 7.24 3.24 9
9/19/2021 4:30:00 AM 18.9 66.02 0.095 7.24 3.1 9.01
9/19/2021 4:45:00 AM 18.85 65.93 0.095 7.24 3.12 9.02
9/19/2021 5:00:00 AM 18.8 65.84 0.095 7.24 3.08 9.03
9/19/2021 5:15:00 AM 18.75 65.75 0.095 7.24 3.12 9.05
9/19/2021 5:30:00 AM 18.7 65.66 0.095 7.24 3.07 9.06
9/19/2021 5:45:00 AM 18.65 65.57 0.095 7.24 3.22 9.07
9/19/2021 6:00:00 AM 18.6 65.48 0.095 7.24 3.29 9.09
9/19/2021 6:15:00 AM 18.54 65.372 0.095 7.24 3.15 9.1
9/19/2021 6:30:00 AM 18.5 65.3 0.095 7.24 3.15 9.1
9/19/2021 6:45:00 AM 18.45 65.21 0.096 7.24 3.22 9.11
9/19/2021 7:00:00 AM 18.4 65.12 0.095 7.24 3.25 9.13
9/19/2021 7:15:00 AM 18.34 65.012 0.096 7.25 3.1 9.15
9/19/2021 7:30:00 AM 18.29 64.922 0.096 7.25 3.04 9.19
9/19/2021 7:45:00 AM 18.24 64.832 0.096 7.25 3.09 9.23
9/19/2021 8:00:00 AM 18.2 64.76 0.096 7.25 2.93 9.29
9/19/2021 8:15:00 AM 18.16 64.688 0.096 7.27 3.04 9.35
9/19/2021 8:30:00 AM 18.14 64.652 0.095 7.28 3.13 9.42
9/19/2021 8:45:00 AM 18.11 64.598 0.095 7.3 2.95 9.5
9/19/2021 9:00:00 AM 18.08 64.544 0.095 7.31 3.03 9.58
9/19/2021 9:15:00 AM 18.05 64.49 0.095 7.34 2.94 9.68
9/19/2021 9:30:00 AM 18.03 64.454 0.095 7.36 2.91 9.77
9/19/2021 9:45:00 AM 18.01 64.418 0.095 7.38 2.87 9.85
9/19/2021 10:00:00 AM 18.01 64.418 0.095 7.4 2.9 9.93
9/19/2021 10:15:00 AM 18.02 64.436 0.094 7.43 2.97 10.04
9/19/2021 10:30:00 AM 18.04 64.472 0.094 7.46 2.8 10.13
9/19/2021 10:45:00 AM 18.05 64.49 0.094 7.5 2.9 10.2
9/19/2021 11:00:00 AM 18.09 64.562 0.094 7.53 2.8 10.26
9/19/2021 11:15:00 AM 18.16 64.688 0.093 7.56 2.75 10.33
9/19/2021 11:30:00 AM 18.26 64.868 0.093 7.6 2.87 10.4
9/19/2021 11:45:00 AM 18.37 65.066 0.093 7.64 2.83 10.43
9/19/2021 12:00:00 PM 18.53 65.354 0.093 7.66 2.78 10.42
9/19/2021 12:15:00 PM 18.6 65.48 0.092 7.66 2.89 10.34
9/19/2021 12:30:00 PM 18.62 65.516 0.093 7.63 2.74 10.25
9/19/2021 12:45:00 PM 18.68 65.624 0.093 7.62 2.96 10.18
9/19/2021 1:00:00 PM 18.75 65.75 0.092 7.61 2.94 10.14
9/19/2021 1:15:00 PM 18.84 65.912 0.092 7.61 2.9 10.11
9/19/2021 1:30:00 PM 18.93 66.074 0.092 7.61 2.89 10.08
9/19/2021 1:45:00 PM 19.02 66.236 0.092 7.61 2.79 10.06
9/19/2021 2:00:00 PM 19.13 66.434 0.092 7.61 2.9 10.04
9/19/2021 2:15:00 PM 19.25 66.65 0.092 7.61 2.93 10.01
9/19/2021 2:30:00 PM 19.38 66.884 0.092 7.62 2.85 9.99
9/19/2021 2:45:00 PM 19.51 67.118 0.092 7.63 2.87 9.98
9/19/2021 3:00:00 PM 19.66 67.388 0.092 7.63 2.88 9.94
9/19/2021 3:15:00 PM 19.83 67.694 0.092 7.64 2.82 9.92
9/19/2021 3:30:00 PM 20 68 0.092 7.65 2.83 9.89
9/19/2021 3:45:00 PM 20.15 68.27 0.092 7.65 2.78 9.86
9/19/2021 4:00:00 PM 20.28 68.504 0.092 7.66 2.82 9.83
9/19/2021 4:15:00 PM 20.4 68.72 0.092 7.66 2.83 9.8
9/19/2021 4:30:00 PM 20.48 68.864 0.092 7.66 2.78 9.76
9/19/2021 4:45:00 PM 20.52 68.936 0.092 7.65 2.69 9.72
9/19/2021 5:00:00 PM 20.53 68.954 0.091 7.64 2.72 9.66
9/19/2021 5:15:00 PM 20.5 68.9 0.092 7.61 13.95 9.59
9/19/2021 5:30:00 PM 20.45 68.81 0.092 7.58 2.72 9.52
9/19/2021 5:45:00 PM 20.39 68.702 0.091 7.56 2.48 9.45
9/19/2021 6:00:00 PM 20.32 68.576 0.092 7.53 2.58 9.39
9/19/2021 6:15:00 PM 20.27 68.486 0.091 7.51 2.5 9.33
9/19/2021 6:30:00 PM 20.22 68.396 0.091 7.49 2.56 9.27
9/19/2021 6:45:00 PM 20.16 68.288 0.092 7.46 2.59 9.19
9/19/2021 7:00:00 PM 20.1 68.18 0.092 7.43 2.65 9.11
9/19/2021 7:15:00 PM 20.03 68.054 0.092 7.41 2.46 9.05
9/19/2021 7:30:00 PM 19.96 67.92799 0.092 7.38 2.5 8.99
9/19/2021 7:45:00 PM 19.9 67.82 0.092 7.36 2.69 8.94
9/19/2021 8:00:00 PM 19.84 67.712 0.092 7.34 2.68 8.91
9/19/2021 8:15:00 PM 19.77 67.586 0.092 7.33 2.79 8.9
9/19/2021 8:30:00 PM 19.68 67.424 0.093 7.32 2.78 8.89
9/19/2021 8:45:00 PM 19.58 67.244 0.093 7.31 2.86 8.89
9/19/2021 9:00:00 PM 19.48 67.064 0.093 7.3 2.93 8.9
9/19/2021 9:15:00 PM 19.36 66.848 0.093 7.3 2.71 8.91
9/19/2021 9:30:00 PM 19.25 66.65 0.093 7.29 2.78 8.93
9/19/2021 9:45:00 PM 19.13 66.434 0.094 7.29 2.79 8.95
9/19/2021 10:00:00 PM 19.01 66.218 0.094 7.28 2.85 8.96
9/19/2021 10:15:00 PM 18.9 66.02 0.094 7.27 2.94 8.98
9/19/2021 10:30:00 PM 18.79 65.82201 0.094 7.27 2.82 9
9/19/2021 10:45:00 PM 18.69 65.642 0.094 7.26 3 9.03
9/19/2021 11:00:00 PM 18.59 65.462 0.094 7.26 2.83 9.04
9/19/2021 11:15:00 PM 18.51 65.318 0.094 7.26 2.87 9.06
9/19/2021 11:30:00 PM 18.44 65.192 0.094 7.26 2.99 9.07
9/19/2021 11:45:00 PM 18.38 65.084 0.094 7.26 3.01 9.09
9/20/2021 12:00:00 AM 18.32 64.976 0.095 7.26 2.88 9.11
9/20/2021 12:15:00 AM 18.26 64.868 0.094 7.25 2.87 9.12
9/20/2021 12:30:00 AM 18.19 64.742 0.095 7.26 2.87 9.14
9/20/2021 12:45:00 AM 18.12 64.616 0.095 7.26 2.95 9.16
9/20/2021 1:00:00 AM 18.05 64.49 0.095 7.26 2.85 9.18
9/20/2021 1:15:00 AM 17.99 64.382 0.095 7.26 2.91 9.2
9/20/2021 1:30:00 AM 17.93 64.274 0.095 7.26 2.84 9.21
9/20/2021 1:45:00 AM 17.86 64.148 0.095 7.26 2.84 9.23
9/20/2021 2:00:00 AM 17.8 64.04 0.095 7.24 2.87 9.24
9/20/2021 2:15:00 AM 17.73 63.914 0.095 7.25 3.04 9.26
9/20/2021 2:30:00 AM 17.66 63.788 0.095 7.26 2.83 9.27
9/20/2021 2:45:00 AM 17.6 63.68 0.095 7.26 2.95 9.29
9/20/2021 3:00:00 AM 17.53 63.554 0.095 7.26 2.89 9.31
9/20/2021 3:15:00 AM 17.46 63.428 0.095 7.26 2.89 9.32
9/20/2021 3:30:00 AM 17.39 63.302 0.095 7.26 2.83 9.34
9/20/2021 3:45:00 AM 17.32 63.176 0.095 7.26 2.9 9.35
9/20/2021 4:00:00 AM 17.26 63.068 0.095 7.26 2.76 9.36
9/20/2021 4:15:00 AM 17.2 62.96 0.095 7.25 2.97 9.38
9/20/2021 4:30:00 AM 17.13 62.834 0.095 7.25 2.85 9.39
9/20/2021 4:45:00 AM 17.07 62.726 0.096 7.25 2.81 9.41
9/20/2021 5:00:00 AM 17.01 62.618 0.095 7.26 2.91 9.43
9/20/2021 5:15:00 AM 16.94 62.492 0.096 7.25 2.96 9.44
9/20/2021 5:30:00 AM 16.89 62.402 0.096 7.26 2.85 9.45
9/20/2021 5:45:00 AM 16.83 62.294 0.096 7.25 2.72 9.46
9/20/2021 6:00:00 AM 16.78 62.204 0.096 7.26 3.53 9.48
9/20/2021 6:15:00 AM 16.72 62.096 0.096 7.26 2.71 9.49
9/20/2021 6:30:00 AM 16.66 61.988 0.096 7.26 2.79 9.51
9/20/2021 6:45:00 AM 16.61 61.898 0.096 7.26 2.8 9.52
9/20/2021 7:00:00 AM 16.55 61.79 0.096 7.26 2.78 9.54
9/20/2021 7:15:00 AM 16.49 61.682 0.096 7.26 2.77 9.56
9/20/2021 7:30:00 AM 16.43 61.574 0.096 7.26 2.81 9.61
9/20/2021 7:45:00 AM 16.38 61.484 0.096 7.27 2.74 9.66
9/20/2021 8:00:00 AM 16.34 61.412 0.096 7.28 2.65 9.73
9/20/2021 8:15:00 AM 16.31 61.358 0.095 7.3 2.61 9.83
9/20/2021 8:30:00 AM 16.29 61.322 0.095 7.32 2.7 9.94
9/20/2021 8:45:00 AM 16.28 61.304 0.095 7.34 2.66 10.06
9/20/2021 9:00:00 AM 16.27 61.286 0.095 7.36 2.61 10.17
9/20/2021 9:15:00 AM 16.28 61.304 0.095 7.39 2.64 10.29
9/20/2021 9:30:00 AM 16.34 61.412 0.095 7.42 2.62 10.38
9/20/2021 9:45:00 AM 16.34 61.412 0.094 7.44 2.65 10.41
9/20/2021 10:00:00 AM 16.34 61.412 0.094 7.44 2.68 10.41
9/20/2021 10:15:00 AM 16.35 61.43 0.094 7.45 2.64 10.41
9/20/2021 10:30:00 AM 16.42 61.556 0.094 7.47 2.67 10.44
9/20/2021 10:45:00 AM 16.49 61.682 0.094 7.48 2.61 10.45
9/20/2021 11:00:00 AM 16.57 61.826 0.094 7.49 2.65 10.47
9/20/2021 11:15:00 AM 16.67 62.006 0.094 7.5 2.62 10.47
9/20/2021 11:30:00 AM 16.77 62.186 0.093 7.51 2.58 10.47
9/20/2021 11:45:00 AM 16.89 62.402 0.093 7.53 2.64 10.48
9/20/2021 12:00:00 PM 17.02 62.636 0.093 7.55 2.67 10.5
9/20/2021 12:15:00 PM 17.14 62.852 0.093 7.56 2.62 10.5
9/20/2021 12:30:00 PM 17.33 63.194 0.093 7.58 2.57 10.52
9/20/2021 12:45:00 PM 17.51 63.518 0.093 7.61 2.65 10.54
9/20/2021 1:00:00 PM 17.73 63.914 0.092 7.65 2.65 10.57
9/20/2021 1:15:00 PM 17.88 64.184 0.092 7.68 2.69 10.57
9/20/2021 1:30:00 PM 17.99 64.382 0.092 7.71 2.7 10.57
9/20/2021 1:45:00 PM 18.14 64.652 0.092 7.74 2.77 10.57
9/20/2021 2:00:00 PM 18.41 65.138 0.092 7.78 2.76 10.57
9/20/2021 2:15:00 PM 18.63 65.534 0.092 7.82 2.81 10.55
9/20/2021 2:30:00 PM 18.75 65.75 0.092 7.84 2.75 10.52
9/20/2021 2:45:00 PM 18.88 65.984 0.092 7.85 2.72 10.47
9/20/2021 3:00:00 PM 19.08 66.344 0.092 7.86 2.61 10.44
9/20/2021 3:15:00 PM 19.27 66.686 0.091 7.89 2.63 10.4
9/20/2021 3:30:00 PM 19.39 66.902 0.091 7.9 2.59 10.34
9/20/2021 3:45:00 PM 19.47 67.046 0.091 7.91 2.51 10.32
9/20/2021 4:00:00 PM 19.57 67.226 0.091 7.92 2.62 10.3
9/20/2021 4:15:00 PM 19.7 67.46 0.091 7.94 2.47 10.27
9/20/2021 4:30:00 PM 19.68 67.424 0.091 7.92 2.54 10.18
9/20/2021 4:45:00 PM 19.63 67.334 0.09 7.9 2.56 10.14
9/20/2021 5:00:00 PM 19.63 67.334 0.091 7.87 2.52 10.08
9/20/2021 5:15:00 PM 19.63 67.334 0.091 7.84 2.43 10.01
9/20/2021 5:30:00 PM 19.62 67.316 0.09 7.78 2.47 9.91
9/20/2021 5:45:00 PM 19.59 67.262 0.091 7.72 2.47 9.78
9/20/2021 6:00:00 PM 19.57 67.226 0.091 7.64 2.42 9.61
9/20/2021 6:15:00 PM 19.56 67.208 0.091 7.58 2.5 9.48
9/20/2021 6:30:00 PM 19.56 67.208 0.091 7.53 2.51 9.38
9/20/2021 6:45:00 PM 19.55 67.19 0.091 7.49 2.48 9.31
9/20/2021 7:00:00 PM 19.55 67.19 0.092 7.45 2.5 9.23
9/20/2021 7:15:00 PM 19.54 67.172 0.092 7.42 2.46 9.16
9/20/2021 7:30:00 PM 19.53 67.154 0.092 7.4 2.57 9.1
9/20/2021 7:45:00 PM 19.51 67.118 0.092 7.37 2.69 9.05
9/20/2021 8:00:00 PM 19.48 67.064 0.092 7.35 2.68 9.01
9/20/2021 8:15:00 PM 19.45 67.01 0.093 7.34 2.72 8.99
9/20/2021 8:30:00 PM 19.4 66.92 0.093 7.33 2.66 8.97
9/20/2021 8:45:00 PM 19.34 66.812 0.093 7.31 2.64 8.97
9/20/2021 9:00:00 PM 19.28 66.704 0.093 7.31 2.63 8.96
9/20/2021 9:15:00 PM 19.22 66.596 0.093 7.3 2.67 8.96
9/20/2021 9:30:00 PM 19.16 66.488 0.093 7.29 2.69 8.96
9/20/2021 9:45:00 PM 19.1 66.38 0.093 7.29 2.76 8.96
9/20/2021 10:00:00 PM 19.04 66.272 0.094 7.28 2.81 8.97
9/20/2021 10:15:00 PM 18.98 66.164 0.094 7.28 2.65 8.98
9/20/2021 10:30:00 PM 18.92 66.056 0.094 7.28 2.68 8.98
9/20/2021 10:45:00 PM 18.86 65.948 0.094 7.27 2.73 8.99
9/20/2021 11:00:00 PM 18.81 65.858 0.094 7.26 2.86 9
9/20/2021 11:15:00 PM 18.76 65.768 0.094 7.26 2.85 9.01
9/20/2021 11:30:00 PM 18.7 65.66 0.094 7.26 2.78 9.02
9/20/2021 11:45:00 PM 18.64 65.552 0.094 7.26 2.78 9.03
9/21/2021 12:00:00 AM 18.58 65.444 0.094 7.25 2.8 9.04
9/21/2021 12:15:00 AM 18.52 65.336 0.094 7.25 2.75 9.05
9/21/2021 12:30:00 AM 18.46 65.228 0.094 7.25 2.82 9.06
9/21/2021 12:45:00 AM 18.41 65.138 0.094 7.26 2.88 9.08
9/21/2021 1:00:00 AM 18.35 65.03 0.095 7.25 3.68 9.09
9/21/2021 1:15:00 AM 18.3 64.94 0.095 7.25 2.77 9.1
9/21/2021 1:30:00 AM 18.24 64.832 0.095 7.25 2.77 9.11
9/21/2021 1:45:00 AM 18.18 64.724 0.095 7.25 2.81 9.12
9/21/2021 2:00:00 AM 18.11 64.598 0.095 7.25 2.91 9.14
9/21/2021 2:15:00 AM 18.05 64.49 0.095 7.24 3.03 9.15
9/21/2021 2:30:00 AM 18 64.4 0.095 7.24 2.85 9.17
9/21/2021 2:45:00 AM 17.96 64.328 0.095 7.24 2.91 9.18
9/21/2021 3:00:00 AM 17.94 64.292 0.095 7.24 2.79 9.19
9/21/2021 3:15:00 AM 17.91 64.238 0.095 7.25 2.83 9.2
9/21/2021 3:30:00 AM 17.89 64.202 0.095 7.25 2.78 9.21
9/21/2021 3:45:00 AM 17.86 64.148 0.096 7.24 2.88 9.21
9/21/2021 4:00:00 AM 17.84 64.112 0.096 7.25 2.9 9.22
9/21/2021 4:15:00 AM 17.81 64.058 0.096 7.24 2.85 9.23
9/21/2021 4:30:00 AM 17.78 64.004 0.096 7.24 2.73 9.24
9/21/2021 4:45:00 AM 17.76 63.968 0.096 7.25 2.82 9.25
9/21/2021 5:00:00 AM 17.74 63.932 0.096 7.25 2.84 9.25
9/21/2021 5:15:00 AM 17.72 63.896 0.096 7.25 2.82 9.26
9/21/2021 5:30:00 AM 17.7 63.86 0.096 7.25 2.74 9.27
9/21/2021 5:45:00 AM 17.68 63.824 0.096 7.25 2.86 9.28
9/21/2021 6:00:00 AM 17.66 63.788 0.096 7.25 2.86 9.28
9/21/2021 6:15:00 AM 17.64 63.752 0.096 7.25 2.8 9.29
9/21/2021 6:30:00 AM 17.62 63.716 0.097 7.25 2.86 9.29
9/21/2021 6:45:00 AM 17.6 63.68 0.097 7.25 2.87 9.3
9/21/2021 7:00:00 AM 17.58 63.644 0.097 7.25 2.79 9.31
9/21/2021 7:15:00 AM 17.55 63.59 0.097 7.26 2.73 9.32
9/21/2021 7:30:00 AM 17.54 63.572 0.097 7.26 2.93 9.34
9/21/2021 7:45:00 AM 17.52 63.536 0.097 7.27 2.66 9.4
9/21/2021 8:00:00 AM 17.51 63.518 0.096 7.28 2.62 9.49
9/21/2021 8:15:00 AM 17.51 63.518 0.096 7.3 2.56 9.55
9/21/2021 8:30:00 AM 17.51 63.518 0.096 7.31 2.54 9.59
9/21/2021 8:45:00 AM 17.51 63.518 0.096 7.32 2.57 9.65
9/21/2021 9:00:00 AM 17.51 63.518 0.096 7.34 2.59 9.72
9/21/2021 9:15:00 AM 17.55 63.59 0.096 7.36 2.54 9.86
9/21/2021 9:30:00 AM 17.64 63.752 0.095 7.4 2.57 10.05
9/21/2021 9:45:00 AM 17.71 63.878 0.095 7.45 2.6 10.17
9/21/2021 10:00:00 AM 17.77 63.986 0.095 7.47 2.59 10.2
9/21/2021 10:15:00 AM 17.87 64.166 0.095 7.51 2.54 10.27
9/21/2021 10:30:00 AM 17.95 64.31 0.095 7.54 2.6 10.34
9/21/2021 10:45:00 AM 18.02 64.436 0.094 7.58 2.56 10.41
9/21/2021 11:00:00 AM 18.12 64.616 0.094 7.62 2.57 10.44
9/21/2021 11:15:00 AM 18.15 64.67 0.094 7.65 2.51 10.45
9/21/2021 11:30:00 AM 18.15 64.67 0.094 7.66 2.61 10.45
9/21/2021 11:45:00 AM 18.16 64.688 0.094 7.68 2.55 10.42
9/21/2021 12:00:00 PM 18.19 64.742 0.093 7.69 2.66 10.4
9/21/2021 12:15:00 PM 18.24 64.832 0.093 7.69 2.51 10.4
9/21/2021 12:30:00 PM 18.32 64.976 0.093 7.71 2.5 10.42
9/21/2021 12:45:00 PM 18.43 65.174 0.093 7.74 2.52 10.45
9/21/2021 1:00:00 PM 18.53 65.354 0.093 7.78 2.58 10.47
9/21/2021 1:15:00 PM 18.61 65.498 0.093 7.82 2.4 10.47
9/21/2021 1:30:00 PM 18.69 65.642 0.092 7.84 2.46 10.46
9/21/2021 1:45:00 PM 18.71 65.67799 0.092 7.84 2.48 10.4
9/21/2021 2:00:00 PM 18.79 65.82201 0.092 7.84 2.47 10.38
9/21/2021 2:15:00 PM 18.84 65.912 0.092 7.83 2.58 10.33
9/21/2021 2:30:00 PM 19.03 66.254 0.092 7.86 2.46 10.36
9/21/2021 2:45:00 PM 19.12 66.416 0.092 7.88 2.61 10.36
9/21/2021 3:00:00 PM 19.23 66.614 0.092 7.92 2.52 10.36
9/21/2021 3:15:00 PM 19.28 66.704 0.092 7.94 2.5 10.36
9/21/2021 3:30:00 PM 19.39 66.902 0.092 7.97 2.54 10.36
9/21/2021 3:45:00 PM 19.45 67.01 0.092 7.99 2.52 10.34
9/21/2021 4:00:00 PM 19.45 67.01 0.091 7.97 2.42 10.26
9/21/2021 4:15:00 PM 19.42 66.956 0.091 7.94 2.46 10.19
9/21/2021 4:30:00 PM 19.42 66.956 0.091 7.93 2.5 10.16
9/21/2021 4:45:00 PM 19.44 66.992 0.091 7.91 2.5 10.12
9/21/2021 5:00:00 PM 19.45 67.01 0.091 7.89 2.51 10.07
9/21/2021 5:15:00 PM 19.47 67.046 0.091 7.86 2.39 10.01
9/21/2021 5:30:00 PM 19.47 67.046 0.091 7.82 2.42 9.93
9/21/2021 5:45:00 PM 19.47 67.046 0.091 7.78 2.42 9.84
9/21/2021 6:00:00 PM 19.47 67.046 0.091 7.73 2.49 9.76
9/21/2021 6:15:00 PM 19.47 67.046 0.091 7.67 2.38 9.68
9/21/2021 6:30:00 PM 19.47 67.046 0.092 7.63 2.38 9.57
9/21/2021 6:45:00 PM 19.46 67.028 0.092 7.57 2.33 9.45
9/21/2021 7:00:00 PM 19.44 66.992 0.092 7.52 2.44 9.32
9/21/2021 7:15:00 PM 19.41 66.938 0.092 7.47 2.4 9.23
9/21/2021 7:30:00 PM 19.38 66.884 0.092 7.43 2.45 9.15
9/21/2021 7:45:00 PM 19.35 66.83 0.093 7.4 2.51 9.1
9/21/2021 8:00:00 PM 19.31 66.758 0.093 7.38 2.62 9.06
9/21/2021 8:15:00 PM 19.27 66.686 0.093 7.36 2.61 9.03
9/21/2021 8:30:00 PM 19.23 66.614 0.093 7.34 2.79 9
9/21/2021 8:45:00 PM 19.19 66.542 0.093 7.33 2.6 8.99
9/21/2021 9:00:00 PM 19.16 66.488 0.093 7.32 2.64 8.98
9/21/2021 9:15:00 PM 19.12 66.416 0.093 7.31 2.79 8.97
9/21/2021 9:30:00 PM 19.09 66.362 0.093 7.3 2.81 8.96
9/21/2021 9:45:00 PM 19.05 66.29 0.093 7.29 2.7 8.96
9/21/2021 10:00:00 PM 19.02 66.236 0.094 7.28 2.92 8.95
9/21/2021 10:15:00 PM 18.99 66.182 0.093 7.27 2.86 8.94
9/21/2021 10:30:00 PM 18.96 66.128 0.093 7.27 2.85 8.94
9/21/2021 10:45:00 PM 18.93 66.074 0.093 7.27 2.88 8.94
9/21/2021 11:00:00 PM 18.91 66.038 0.093 7.26 3 8.94
9/21/2021 11:15:00 PM 18.88 65.984 0.093 7.25 2.93 8.94
9/21/2021 11:30:00 PM 18.86 65.948 0.093 7.24 4.7 8.93
9/21/2021 11:45:00 PM 18.84 65.912 0.093 7.24 2.88 8.94
9/22/2021 12:00:00 AM 18.81 65.858 0.093 7.24 3.21 8.93
9/22/2021 12:15:00 AM 18.79 65.82201 0.093 7.23 2.97 8.93
9/22/2021 12:30:00 AM 18.77 65.786 0.093 7.22 3 8.92
9/22/2021 12:45:00 AM 18.75 65.75 0.093 7.22 2.99 8.93
9/22/2021 1:00:00 AM 18.73 65.714 0.093 7.22 2.88 8.93
9/22/2021 1:15:00 AM 18.71 65.67799 0.093 7.21 3.01 8.94
9/22/2021 1:30:00 AM 18.69 65.642 0.093 7.21 3.08 8.94
9/22/2021 1:45:00 AM 18.67 65.606 0.093 7.21 3.03 8.94
9/22/2021 2:00:00 AM 18.65 65.57 0.093 7.21 3.05 8.94
9/22/2021 2:15:00 AM 18.63 65.534 0.093 7.21 3.16 8.94
9/22/2021 2:30:00 AM 18.61 65.498 0.093 7.21 3.07 8.94
9/22/2021 2:45:00 AM 18.59 65.462 0.093 7.21 3.1 8.95
9/22/2021 3:00:00 AM 18.57 65.426 0.093 7.21 3.07 8.95
9/22/2021 3:15:00 AM 18.55 65.39 0.093 7.21 3.23 8.96
9/22/2021 3:30:00 AM 18.53 65.354 0.093 7.21 3.15 8.96
9/22/2021 3:45:00 AM 18.51 65.318 0.093 7.21 3.14 8.97
9/22/2021 4:00:00 AM 18.49 65.282 0.093 7.21 3.09 8.98
9/22/2021 4:15:00 AM 18.47 65.246 0.094 7.21 3.09 8.99
9/22/2021 4:30:00 AM 18.45 65.21 0.094 7.21 3.08 8.99
9/22/2021 4:45:00 AM 18.43 65.174 0.094 7.21 3.15 9
9/22/2021 5:00:00 AM 18.41 65.138 0.094 7.21 3.1 9
9/22/2021 5:15:00 AM 18.39 65.102 0.094 7.21 3.14 9.01
9/22/2021 5:30:00 AM 18.37 65.066 0.094 7.22 3.08 9.01
9/22/2021 5:45:00 AM 18.35 65.03 0.094 7.22 3.13 9.02
9/22/2021 6:00:00 AM 18.33 64.994 0.094 7.22 3.24 9.03
9/22/2021 6:15:00 AM 18.31 64.958 0.094 7.23 3.13 9.03
9/22/2021 6:30:00 AM 18.29 64.922 0.094 7.23 3.14 9.03
9/22/2021 6:45:00 AM 18.27 64.886 0.094 7.23 3.19 9.04
9/22/2021 7:00:00 AM 18.26 64.868 0.094 7.22 3.21 9.04
9/22/2021 7:15:00 AM 18.24 64.832 0.094 7.22 3.26 9.03
9/22/2021 7:30:00 AM 18.24 64.832 0.094 7.23 3.02 9.07
9/22/2021 7:45:00 AM 18.23 64.814 0.094 7.24 3.09 9.11
9/22/2021 8:00:00 AM 18.23 64.814 0.094 7.25 3.08 9.16
9/22/2021 8:15:00 AM 18.22 64.796 0.094 7.25 3.03 9.17
9/22/2021 8:30:00 AM 18.22 64.796 0.094 7.25 3.15 9.2
9/22/2021 8:45:00 AM 18.22 64.796 0.094 7.26 3.16 9.23
9/22/2021 9:00:00 AM 18.22 64.796 0.094 7.26 3.07 9.25
9/22/2021 9:15:00 AM 18.23 64.814 0.094 7.27 2.99 9.3
9/22/2021 9:30:00 AM 18.26 64.868 0.093 7.29 3.08 9.43
9/22/2021 9:45:00 AM 18.32 64.976 0.093 7.32 3.19 9.59
9/22/2021 10:00:00 AM 18.4 65.12 0.093 7.36 3.26 9.75
9/22/2021 10:15:00 AM 18.46 65.228 0.092 7.39 3.24 9.85
9/22/2021 10:30:00 AM 18.5 65.3 0.092 7.41 2.93 9.87
9/22/2021 10:45:00 AM 18.51 65.318 0.092 7.42 3.1 9.85
9/22/2021 11:00:00 AM 18.52 65.336 0.092 7.42 2.97 9.81
9/22/2021 11:15:00 AM 18.55 65.39 0.092 7.43 3.11 9.84
9/22/2021 11:30:00 AM 18.59 65.462 0.092 7.44 3.12 9.88
9/22/2021 11:45:00 AM 18.62 65.516 0.091 7.46 3.08 9.89
9/22/2021 12:00:00 PM 18.63 65.534 0.091 7.46 3.21 9.84
9/22/2021 12:15:00 PM 18.66 65.588 0.091 7.45 3.34 9.82
9/22/2021 12:30:00 PM 18.69 65.642 0.091 7.45 3.25 9.8
9/22/2021 12:45:00 PM 18.73 65.714 0.09 7.45 3.35 9.81
9/22/2021 1:00:00 PM 18.78 65.804 0.09 7.47 3.34 9.87
9/22/2021 1:15:00 PM 18.8 65.84 0.09 7.48 3.28 9.84
9/22/2021 1:30:00 PM 18.8 65.84 0.09 7.46 3.46 9.73
9/22/2021 1:45:00 PM 18.8 65.84 0.089 7.44 3.6 9.67
9/22/2021 2:00:00 PM 18.84 65.912 0.088 7.43 3.78 9.72
9/22/2021 2:15:00 PM 18.92 66.056 0.088 7.46 4.06 9.84
9/22/2021 2:30:00 PM 18.99 66.182 0.088 7.5 5.15 9.89
9/22/2021 2:45:00 PM 19.02 66.236 0.088 7.49 5.16 9.86
9/22/2021 3:00:00 PM 19.04 66.272 0.087 7.5 4.85 9.85
9/22/2021 3:15:00 PM 19.07 66.326 0.087 7.51 5 9.85
9/22/2021 3:30:00 PM 19.08 66.344 0.088 7.5 4.5 9.78
9/22/2021 3:45:00 PM 19.08 66.344 0.088 7.48 4.63 9.7
9/22/2021 4:00:00 PM 19.11 66.398 0.088 7.46 4.86 9.68
9/22/2021 4:15:00 PM 19.12 66.416 0.088 7.46 5.29 9.62
9/22/2021 4:30:00 PM 19.13 66.434 0.088 7.44 5.47 9.52
9/22/2021 4:45:00 PM 19.12 66.416 0.088 7.42 6.03 9.44
9/22/2021 5:00:00 PM 19.13 66.434 0.088 7.41 7.5 9.41
9/22/2021 5:15:00 PM 19.11 66.398 0.088 7.4 10.52 9.34
9/22/2021 5:30:00 PM 19.09 66.362 0.088 7.38 13.24 9.26
9/22/2021 5:45:00 PM 19.08 66.344 0.088 7.37 16.35 9.22
9/22/2021 6:00:00 PM 19.05 66.29 0.088 7.35 16.61 9.18
9/22/2021 6:15:00 PM 19.03 66.254 0.089 7.35 21.25 9.15
9/22/2021 6:30:00 PM 19.01 66.218 0.089 7.34 29.11 9.1
9/22/2021 6:45:00 PM 18.98 66.164 0.089 7.33 30.6 9.06
9/22/2021 7:00:00 PM 18.96 66.128 0.089 7.32 27.39 9.04
9/22/2021 7:15:00 PM 18.94 66.092 0.089 7.32 23.13 9.04
9/22/2021 7:30:00 PM 18.91 66.038 0.089 7.31 18.05 9.03
9/22/2021 7:45:00 PM 18.89 66.002 0.088 7.3 14.9 9.03
9/22/2021 8:00:00 PM 18.86 65.948 0.088 7.3 13.56 9.02
9/22/2021 8:15:00 PM 18.84 65.912 0.088 7.29 11.65 9.01
9/22/2021 8:30:00 PM 18.83 65.894 0.089 7.29 11.05 9.02
9/22/2021 8:45:00 PM 18.82 65.876 0.088 7.29 9.64 9.01
9/22/2021 9:00:00 PM 18.81 65.858 0.088 7.28 9.28 9.01
9/22/2021 9:15:00 PM 18.79 65.82201 0.089 7.28 8.9 9.01
9/22/2021 9:30:00 PM 18.78 65.804 0.088 7.28 8.62 9.01
9/22/2021 9:45:00 PM 18.77 65.786 0.089 7.27 8.17 9.01
9/22/2021 10:00:00 PM 18.76 65.768 0.088 7.28 7.96 9.02
9/22/2021 10:15:00 PM 18.74 65.732 0.088 7.27 8.22 9.02
9/22/2021 10:30:00 PM 18.72 65.696 0.088 7.27 8.56 9.01
9/22/2021 10:45:00 PM 18.7 65.66 0.089 7.26 8.65 9.01
9/22/2021 11:00:00 PM 18.68 65.624 0.088 7.26 8.58 9
9/22/2021 11:15:00 PM 18.66 65.588 0.089 7.26 8.67 9.01
9/22/2021 11:30:00 PM 18.63 65.534 0.089 7.26 8.25 9.01
9/22/2021 11:45:00 PM 18.59 65.462 0.089 7.26 8.92 9.01
9/23/2021 12:00:00 AM 18.55 65.39 0.09 7.26 9.36 9.03
9/23/2021 12:15:00 AM 18.51 65.318 0.089 7.27 10.61 9.04
9/23/2021 12:30:00 AM 18.46 65.228 0.09 7.27 12.72 9.05
9/23/2021 12:45:00 AM 18.42 65.156 0.09 7.25 13.95 9.05
9/23/2021 1:00:00 AM 18.36 65.048 0.089 7.25 14.77 9.07
9/23/2021 1:15:00 AM 18.31 64.958 0.089 7.25 17.73 9.09
9/23/2021 1:30:00 AM 18.24 64.832 0.087 7.25 22.65 9.1
9/23/2021 1:45:00 AM 18.2 64.76 0.087 7.25 22.28 9.11
9/23/2021 2:00:00 AM 18.15 64.67 0.086 7.24 22.03 9.12
9/23/2021 2:15:00 AM 18.11 64.598 0.086 7.24 21.04 9.12
9/23/2021 2:30:00 AM 18.06 64.508 0.086 7.22 19.74 9.12
9/23/2021 2:45:00 AM 17.99 64.382 0.085 7.22 21.44 9.15
9/23/2021 3:00:00 AM 17.91 64.238 0.084 7.21 23.4 9.17
9/23/2021 3:15:00 AM 17.84 64.112 0.083 7.19 30.25 9.19
9/23/2021 3:30:00 AM 17.76 63.968 0.082 7.17 33.13 9.2
9/23/2021 3:45:00 AM 17.71 63.878 0.081 7.16 34.42 9.21
9/23/2021 4:00:00 AM 17.66 63.788 0.082 7.15 43.81 9.21
9/23/2021 4:15:00 AM 17.6 63.68 0.082 7.13 72.9 9.21
9/23/2021 4:30:00 AM 17.55 63.59 0.083 7.06 102.84 9.18
9/23/2021 4:45:00 AM 17.49 63.482 0.082 7.1 102.69 9.22
9/23/2021 5:00:00 AM 17.43 63.374 0.083 7.09 89.43 9.24
9/23/2021 5:15:00 AM 17.38 63.284 0.083 7.08 77.33 9.24
9/23/2021 5:30:00 AM 17.34 63.212 0.082 7.07 69.95 9.25
9/23/2021 5:45:00 AM 17.29 63.122 0.082 7.07 66.21 9.26
9/23/2021 6:00:00 AM 17.24 63.032 0.083 7.06 66.85 9.27
9/23/2021 6:15:00 AM 17.18 62.924 0.085 7.07 68.77 9.29
9/23/2021 6:30:00 AM 17.12 62.816 0.086 7.08 71.16 9.3
9/23/2021 6:45:00 AM 17.06 62.708 0.088 7.09 73.4 9.32
9/23/2021 7:00:00 AM 17.01 62.618 0.089 7.09 83.43 9.33
9/23/2021 7:15:00 AM 16.97 62.546 0.09 7.07 93.97 9.32
9/23/2021 7:30:00 AM 16.94 62.492 0.089 7.07 104.9 9.33
9/23/2021 7:45:00 AM 16.91 62.438 0.088 7.07 110.63 9.33
9/23/2021 8:00:00 AM 16.87 62.366 0.087 7.05 119.29 9.34
9/23/2021 8:15:00 AM 16.82 62.276 0.086 7.03 124.35 9.34
9/23/2021 8:30:00 AM 16.76 62.168 0.085 7.03 127.72 9.35
9/23/2021 8:45:00 AM 16.71 62.078 0.083 7.01 129.02 9.36
9/23/2021 9:00:00 AM 16.67 62.006 0.081 7 132.43 9.36
9/23/2021 9:15:00 AM 16.63 61.934 0.079 6.97 133.25 9.37
9/23/2021 9:30:00 AM 16.59 61.862 0.077 6.96 135.79 9.37
9/23/2021 9:45:00 AM 16.54 61.772 0.076 6.92 135.59 9.37
9/23/2021 10:00:00 AM 16.51 61.718 0.076 6.94 136.57 9.39
9/23/2021 10:15:00 AM 16.49 61.682 0.075 6.94 133.02 9.4
9/23/2021 10:30:00 AM 16.46 61.628 0.075 6.94 130.01 9.41
9/23/2021 10:45:00 AM 16.45 61.61 0.074 6.94 125.57 9.42
9/23/2021 11:00:00 AM 16.46 61.628 0.074 6.94 119.8 9.44
9/23/2021 11:15:00 AM 16.45 61.61 0.073 6.93 112.39 9.45
9/23/2021 11:30:00 AM 16.44 61.592 0.072 6.95 106.54 9.47
9/23/2021 11:45:00 AM 16.43 61.574 0.072 6.95 100.13 9.48
9/23/2021 12:00:00 PM 16.43 61.574 0.071 6.95 92.58 9.5
9/23/2021 12:15:00 PM 16.41 61.538 0.071 6.95 85.93 9.51
9/23/2021 12:30:00 PM 16.44 61.592 0.071 6.95 80.5 9.53
9/23/2021 12:45:00 PM 16.46 61.628 0.071 6.96 75.6 9.53
9/23/2021 1:00:00 PM 16.49 61.682 0.07 6.95 70.99 9.54
9/23/2021 1:15:00 PM 16.48 61.664 0.07 6.96 66.76 9.55
9/23/2021 1:30:00 PM 16.46 61.628 0.071 6.97 63.24 9.57
9/23/2021 1:45:00 PM 16.45 61.61 0.071 6.95 58.57 9.57
9/23/2021 2:00:00 PM 16.44 61.592 0.071 6.97 54.68 9.58
9/23/2021 2:15:00 PM 16.43 61.574 0.071 6.97 52.49 9.59
9/23/2021 2:30:00 PM 16.4 61.52 0.071 6.97 49.94 9.6
9/23/2021 2:45:00 PM 16.37 61.466 0.071 6.97 46.73 9.61
9/23/2021 3:00:00 PM 16.33 61.394 0.071 6.97 44.21 9.63
9/23/2021 3:15:00 PM 16.29 61.322 0.07 6.97 41.99 9.64
9/23/2021 3:30:00 PM 16.26 61.268 0.07 6.98 40.06 9.65
9/23/2021 3:45:00 PM 16.21 61.178 0.07 6.98 38.07 9.67
9/23/2021 4:00:00 PM 16.15 61.07 0.07 6.98 36.13 9.68
9/23/2021 4:15:00 PM 16.11 60.998 0.069 6.98 37.14 9.7
9/23/2021 4:30:00 PM 16.06 60.908 0.069 6.99 32.36 9.71
9/23/2021 4:45:00 PM 16.02 60.836 0.069 6.99 30.87 9.73
9/23/2021 5:00:00 PM 15.97 60.746 0.069 6.99 29.68 9.75
9/23/2021 5:15:00 PM 15.9 60.62 0.068 6.99 29.07 9.76
9/23/2021 5:30:00 PM 15.84 60.512 0.068 6.98 27.68 9.77
9/23/2021 5:45:00 PM 15.77 60.386 0.068 6.99 26.86 9.79
9/23/2021 6:00:00 PM 15.71 60.278 0.068 6.98 25.67 9.81
9/23/2021 6:15:00 PM 15.64 60.152 0.068 6.98 25.6 9.82
9/23/2021 6:30:00 PM 15.58 60.044 0.067 6.98 24.25 9.83
9/23/2021 6:45:00 PM 15.52 59.936 0.067 6.97 23.73 9.84
9/23/2021 7:00:00 PM 15.45 59.81 0.067 6.97 22.88 9.85
9/23/2021 7:15:00 PM 15.39 59.702 0.067 6.97 22.57 9.87
9/23/2021 7:30:00 PM 15.33 59.594 0.067 6.97 21.63 9.88
9/23/2021 7:45:00 PM 15.27 59.486 0.067 6.97 21.29 9.89
9/23/2021 8:00:00 PM 15.2 59.36 0.066 6.97 20.55 9.9
9/23/2021 8:15:00 PM 15.14 59.252 0.066 6.97 20.33 9.92
9/23/2021 8:30:00 PM 15.08 59.144 0.066 6.96 19.88 9.93
9/23/2021 8:45:00 PM 15.02 59.036 0.066 6.96 19.48 9.95
9/23/2021 9:00:00 PM 14.96 58.928 0.066 6.96 19.47 9.96
9/23/2021 9:15:00 PM 14.91 58.838 0.066 6.96 18.67 9.98
9/23/2021 9:30:00 PM 14.85 58.73 0.066 6.96 18.15 9.99
9/23/2021 9:45:00 PM 14.79 58.622 0.066 6.96 17.63 10
9/23/2021 10:00:00 PM 14.74 58.532 0.065 6.96 17.33 10.01
9/23/2021 10:15:00 PM 14.69 58.442 0.065 6.96 22.08 10.03
9/23/2021 10:30:00 PM 14.63 58.334 0.065 6.96 16.17 10.04
9/23/2021 10:45:00 PM 14.59 58.262 0.065 6.96 15.82 10.06
9/23/2021 11:00:00 PM 14.54 58.172 0.065 6.96 15.51 10.07
9/23/2021 11:15:00 PM 14.49 58.082 0.065 6.96 15.5 10.09
9/23/2021 11:30:00 PM 14.44 57.992 0.065 6.96 15.17 10.1
9/23/2021 11:45:00 PM 14.39 57.902 0.065 6.96 14.83 10.11
9/24/2021 12:00:00 AM 14.34 57.812 0.065 6.96 14.59 10.13
9/24/2021 12:15:00 AM 14.29 57.722 0.065 6.96 14.45 10.13
9/24/2021 12:30:00 AM 14.24 57.632 0.064 6.96 14.04 10.15
9/24/2021 12:45:00 AM 14.19 57.542 0.064 6.95 14.15 10.16
9/24/2021 1:00:00 AM 14.15 57.47 0.064 6.95 13.97 10.17
9/24/2021 1:15:00 AM 14.1 57.38 0.064 6.95 13.29 10.19
9/24/2021 1:30:00 AM 14.05 57.29 0.064 6.95 13.34 10.2
9/24/2021 1:45:00 AM 14.01 57.218 0.064 6.95 13.17 10.21
9/24/2021 2:00:00 AM 13.97 57.146 0.064 6.94 12.89 10.22
9/24/2021 2:15:00 AM 14.06 57.308 0.064 6.94 12.58 10.18
9/24/2021 2:30:00 AM 14.02 57.236 0.064 6.95 12.64 10.19
9/24/2021 2:45:00 AM 13.98 57.164 0.063 6.94 12.31 10.2
9/24/2021 3:00:00 AM 13.95 57.11 0.063 6.95 12.2 10.21
9/24/2021 3:15:00 AM 13.91 57.038 0.063 6.95 11.85 10.22
9/24/2021 3:30:00 AM 13.87 56.966 0.063 6.94 11.98 10.24
9/24/2021 3:45:00 AM 13.83 56.894 0.063 6.94 11.72 10.25
9/24/2021 4:00:00 AM 13.79 56.822 0.063 6.95 11.64 10.26
9/24/2021 4:15:00 AM 13.74 56.732 0.063 6.95 11.59 10.27
9/24/2021 4:30:00 AM 13.69 56.642 0.063 6.95 11.43 10.28
9/24/2021 4:45:00 AM 13.64 56.552 0.063 6.95 11.22 10.29
9/24/2021 5:00:00 AM 13.59 56.462 0.063 6.95 11.14 10.31
9/24/2021 5:15:00 AM 13.54 56.372 0.063 6.95 10.95 10.32
9/24/2021 5:30:00 AM 13.5 56.3 0.063 6.95 10.8 10.33
9/24/2021 5:45:00 AM 13.45 56.21 0.063 6.95 10.7 10.34
9/24/2021 6:00:00 AM 13.4 56.12 0.063 6.96 10.45 10.36
9/24/2021 6:15:00 AM 13.34 56.012 0.063 6.95 10.3 10.37
9/24/2021 6:30:00 AM 13.29 55.922 0.062 6.95 10.49 10.39
9/24/2021 6:45:00 AM 13.24 55.832 0.062 6.96 10.29 10.4
9/24/2021 7:00:00 AM 13.2 55.76 0.062 6.96 10.15 10.41
9/24/2021 7:15:00 AM 13.16 55.688 0.062 6.96 10.02 10.43
9/24/2021 7:30:00 AM 13.12 55.616 0.062 6.96 9.9 10.44
9/24/2021 7:45:00 AM 13.09 55.562 0.062 6.96 9.71 10.46
9/24/2021 8:00:00 AM 13.07 55.526 0.062 6.97 9.32 10.49
9/24/2021 8:15:00 AM 13.06 55.508 0.062 6.97 9.44 10.52
9/24/2021 8:30:00 AM 13.05 55.49 0.062 6.98 9.39 10.55
9/24/2021 8:45:00 AM 13.04 55.472 0.062 6.98 8.86 10.57
9/24/2021 9:00:00 AM 13.04 55.472 0.062 6.98 8.64 10.6
9/24/2021 9:15:00 AM 13.05 55.49 0.062 7 8.67 10.64
9/24/2021 9:30:00 AM 13.06 55.508 0.062 7 8.56 10.66
9/24/2021 9:45:00 AM 13.08 55.544 0.062 7.01 8.36 10.69
9/24/2021 10:00:00 AM 13.09 55.562 0.062 7.01 8.31 10.7
9/24/2021 10:15:00 AM 13.1 55.58 0.062 7.01 8.03 10.71
9/24/2021 10:30:00 AM 13.12 55.616 0.061 7.02 7.88 10.7
9/24/2021 10:45:00 AM 13.14 55.652 0.061 7.02 7.96 10.71
9/24/2021 11:00:00 AM 13.17 55.706 0.061 7.02 7.85 10.72
9/24/2021 11:15:00 AM 13.21 55.778 0.061 7.02 7.75 10.72
9/24/2021 11:30:00 AM 13.25 55.85 0.061 7.03 7.65 10.72
9/24/2021 11:45:00 AM 13.31 55.958 0.061 7.03 7.65 10.74
9/24/2021 12:00:00 PM 13.36 56.048 0.061 7.04 7.17 10.74
9/24/2021 12:15:00 PM 13.42 56.156 0.061 7.05 7.25 10.74
9/24/2021 12:30:00 PM 13.48 56.264 0.061 7.05 7.08 10.73
9/24/2021 12:45:00 PM 13.58 56.444 0.061 7.06 6.93 10.74
9/24/2021 1:00:00 PM 13.66 56.588 0.061 7.06 6.89 10.73
9/24/2021 1:15:00 PM 13.74 56.732 0.061 7.07 7.07 10.74
9/24/2021 1:30:00 PM 13.81 56.858 0.061 7.08 6.81 10.73
9/24/2021 1:45:00 PM 13.93 57.074 0.061 7.08 6.94 10.73
9/24/2021 2:00:00 PM 14.04 57.272 0.061 7.09 6.97 10.73
9/24/2021 2:15:00 PM 14.14 57.452 0.06 7.1 6.81 10.71
9/24/2021 2:30:00 PM 14.27 57.686 0.06 7.1 6.88 10.69
9/24/2021 2:45:00 PM 14.37 57.866 0.06 7.1 6.64 10.68
9/24/2021 3:00:00 PM 14.47 58.046 0.06 7.11 6.49 10.66
9/24/2021 3:15:00 PM 14.56 58.208 0.06 7.12 6.56 10.65
9/24/2021 3:30:00 PM 14.62 58.316 0.06 7.12 6.52 10.62
9/24/2021 3:45:00 PM 14.64 58.352 0.06 7.13 6.59 10.61
9/24/2021 4:00:00 PM 14.69 58.442 0.06 7.13 6.69 10.62
9/24/2021 4:15:00 PM 14.73 58.514 0.06 7.13 6.53 10.6
9/24/2021 4:30:00 PM 14.73 58.514 0.06 7.13 6.54 10.59
9/24/2021 4:45:00 PM 14.74 58.532 0.06 7.13 6.59 10.57
9/24/2021 5:00:00 PM 14.77 58.586 0.06 7.13 6.51 10.56
9/24/2021 5:15:00 PM 14.77 58.586 0.06 7.13 7.1 10.54
9/24/2021 5:30:00 PM 14.77 58.586 0.06 7.12 6.45 10.52
9/24/2021 5:45:00 PM 14.76 58.568 0.06 7.11 6.49 10.48
9/24/2021 6:00:00 PM 14.76 58.568 0.06 7.11 6.26 10.46
9/24/2021 6:15:00 PM 14.75 58.55 0.06 7.1 6.41 10.42
9/24/2021 6:30:00 PM 14.73 58.514 0.06 7.1 6.38 10.39
9/24/2021 6:45:00 PM 14.69 58.442 0.06 7.09 6.39 10.35
9/24/2021 7:00:00 PM 14.65 58.37 0.06 7.08 6.38 10.32
9/24/2021 7:15:00 PM 14.6 58.28 0.06 7.07 6.59 10.3
9/24/2021 7:30:00 PM 14.55 58.19 0.06 7.06 6.71 10.27
9/24/2021 7:45:00 PM 14.51 58.118 0.06 7.05 6.73 10.25
9/24/2021 8:00:00 PM 14.46 58.028 0.06 7.04 6.77 10.24
9/24/2021 8:15:00 PM 14.42 57.956 0.06 7.03 7.03 10.23
9/24/2021 8:30:00 PM 14.38 57.884 0.06 7.03 6.99 10.23
9/24/2021 8:45:00 PM 14.34 57.812 0.06 7.03 6.95 10.22
9/24/2021 9:00:00 PM 14.3 57.74 0.06 7.02 7.23 10.23
9/24/2021 9:15:00 PM 14.26 57.668 0.06 7.01 6.85 10.23
9/24/2021 9:30:00 PM 14.22 57.596 0.06 7.01 7.03 10.23
9/24/2021 9:45:00 PM 14.17 57.506 0.06 7.01 6.94 10.23
9/24/2021 10:00:00 PM 14.13 57.434 0.06 7.01 7.03 10.24
9/24/2021 10:15:00 PM 14.08 57.344 0.06 7 6.88 10.25
9/24/2021 10:30:00 PM 14.03 57.254 0.06 7.01 6.71 10.26
9/24/2021 10:45:00 PM 13.98 57.164 0.06 7 6.84 10.27
9/24/2021 11:00:00 PM 13.93 57.074 0.06 7 6.68 10.28
9/24/2021 11:15:00 PM 13.89 57.002 0.06 7 6.79 10.29
9/24/2021 11:30:00 PM 13.86 56.948 0.06 6.99 6.52 10.3
9/24/2021 11:45:00 PM 13.83 56.894 0.06 6.99 6.62 10.31
9/25/2021 12:00:00 AM 13.8 56.84 0.06 6.99 6.56 10.31
9/25/2021 12:15:00 AM 13.77 56.786 0.06 6.99 6.72 10.32
9/25/2021 12:30:00 AM 13.74 56.732 0.06 7 6.42 10.33
9/25/2021 12:45:00 AM 13.71 56.678 0.06 6.99 6.52 10.34
9/25/2021 1:00:00 AM 13.68 56.624 0.06 7 6.64 10.35
9/25/2021 1:15:00 AM 13.65 56.57 0.06 6.99 6.55 10.36
9/25/2021 1:30:00 AM 13.61 56.498 0.06 6.99 6.32 10.37
9/25/2021 1:45:00 AM 13.58 56.444 0.06 7 6.4 10.37
9/25/2021 2:00:00 AM 13.55 56.39 0.06 7 6.43 10.38
9/25/2021 2:15:00 AM 13.51 56.318 0.06 7 6.4 10.4
9/25/2021 2:30:00 AM 13.47 56.246 0.06 7 6.39 10.4
9/25/2021 2:45:00 AM 13.44 56.192 0.06 7 6.35 10.42
9/25/2021 3:00:00 AM 13.4 56.12 0.06 7 6.26 10.42
9/25/2021 3:15:00 AM 13.37 56.066 0.061 7 6.32 10.43
9/25/2021 3:30:00 AM 13.33 55.994 0.06 7 6.17 10.43
9/25/2021 3:45:00 AM 13.3 55.94 0.06 7 6.2 10.44
9/25/2021 4:00:00 AM 13.26 55.868 0.061 7 6.21 10.46
9/25/2021 4:15:00 AM 13.22 55.796 0.06 6.99 6.02 10.46
9/25/2021 4:30:00 AM 13.19 55.742 0.06 6.99 5.95 10.47
9/25/2021 4:45:00 AM 13.16 55.688 0.06 6.99 6.14 10.48
9/25/2021 5:00:00 AM 13.12 55.616 0.06 6.99 5.95 10.49
9/25/2021 5:15:00 AM 13.09 55.562 0.06 6.99 5.98 10.5
9/25/2021 5:30:00 AM 13.06 55.508 0.06 6.98 6.21 10.5
9/25/2021 5:45:00 AM 13.02 55.436 0.06 6.99 5.97 10.52
9/25/2021 6:00:00 AM 12.99 55.382 0.06 6.99 5.84 10.52
9/25/2021 6:15:00 AM 12.96 55.328 0.06 6.99 5.87 10.53
9/25/2021 6:30:00 AM 12.93 55.274 0.06 6.99 5.91 10.54
9/25/2021 6:45:00 AM 12.89 55.202 0.06 6.99 5.85 10.55
9/25/2021 7:00:00 AM 12.86 55.148 0.06 6.99 5.89 10.55
9/25/2021 7:15:00 AM 12.83 55.094 0.06 6.99 5.73 10.57
9/25/2021 7:30:00 AM 12.8 55.04 0.06 6.99 5.72 10.59
9/25/2021 7:45:00 AM 12.77 54.986 0.06 7 5.72 10.61
9/25/2021 8:00:00 AM 12.73 54.914 0.06 7 5.77 10.64
9/25/2021 8:15:00 AM 12.71 54.878 0.06 7.01 5.49 10.68
9/25/2021 8:30:00 AM 12.69 54.842 0.06 7.02 5.5 10.73
9/25/2021 8:45:00 AM 12.67 54.806 0.06 7.02 5.28 10.77
9/25/2021 9:00:00 AM 12.65 54.77 0.06 7.03 5.65 10.82
9/25/2021 9:15:00 AM 12.65 54.77 0.06 7.04 5.37 10.85
9/25/2021 9:30:00 AM 12.65 54.77 0.06 7.05 5.18 10.9
9/25/2021 9:45:00 AM 12.66 54.788 0.06 7.06 5.15 10.95
9/25/2021 10:00:00 AM 12.69 54.842 0.06 7.07 4.94 10.99
9/25/2021 10:15:00 AM 12.7 54.86 0.06 7.08 4.89 11.01
9/25/2021 10:30:00 AM 12.72 54.896 0.06 7.09 4.88 11
9/25/2021 10:45:00 AM 12.75 54.95 0.06 7.09 4.83 11
9/25/2021 11:00:00 AM 12.78 55.004 0.06 7.09 4.68 10.99
9/25/2021 11:15:00 AM 12.82 55.076 0.06 7.1 4.63 10.98
9/25/2021 11:30:00 AM 12.87 55.166 0.06 7.1 4.61 10.98
9/25/2021 11:45:00 AM 12.95 55.31 0.06 7.11 4.67 10.99
9/25/2021 12:00:00 PM 13.03 55.454 0.059 7.11 4.56 11
9/25/2021 12:15:00 PM 13.12 55.616 0.059 7.12 4.69 10.99
9/25/2021 12:30:00 PM 13.21 55.778 0.059 7.13 4.63 10.99
9/25/2021 12:45:00 PM 13.29 55.922 0.059 7.14 4.56 11
9/25/2021 1:00:00 PM 13.4 56.12 0.059 7.15 4.61 11.01
9/25/2021 1:15:00 PM 13.51 56.318 0.059 7.16 4.71 11
9/25/2021 1:30:00 PM 13.57 56.426 0.059 7.17 4.57 10.99
9/25/2021 1:45:00 PM 13.69 56.642 0.059 7.18 4.44 10.99
9/25/2021 2:00:00 PM 13.81 56.858 0.059 7.19 4.49 10.98
9/25/2021 2:15:00 PM 13.91 57.038 0.059 7.2 4.63 10.97
9/25/2021 2:30:00 PM 13.99 57.182 0.059 7.21 4.45 10.95
9/25/2021 2:45:00 PM 14.09 57.362 0.059 7.22 4.39 10.94
9/25/2021 3:00:00 PM 14.2 57.56 0.059 7.23 4.5 10.91
9/25/2021 3:15:00 PM 14.34 57.812 0.059 7.23 4.45 10.9
9/25/2021 3:30:00 PM 14.41 57.938 0.059 7.24 4.51 10.88
9/25/2021 3:45:00 PM 14.48 58.064 0.059 7.25 4.38 10.85
9/25/2021 4:00:00 PM 14.53 58.154 0.059 7.25 4.47 10.82
9/25/2021 4:15:00 PM 14.58 58.244 0.059 7.25 4.38 10.79
9/25/2021 4:30:00 PM 14.62 58.316 0.059 7.26 4.42 10.77
9/25/2021 4:45:00 PM 14.68 58.424 0.059 7.26 4.35 10.76
9/25/2021 5:00:00 PM 14.72 58.496 0.059 7.26 4.43 10.74
9/25/2021 5:15:00 PM 14.72 58.496 0.059 7.26 4.35 10.71
9/25/2021 5:30:00 PM 14.71 58.478 0.059 7.24 4.42 10.65
9/25/2021 5:45:00 PM 14.7 58.46 0.059 7.23 4.44 10.6
9/25/2021 6:00:00 PM 14.68 58.424 0.059 7.22 4.54 10.56
9/25/2021 6:15:00 PM 14.65 58.37 0.059 7.21 4.39 10.51
9/25/2021 6:30:00 PM 14.61 58.298 0.059 7.19 4.38 10.45
9/25/2021 6:45:00 PM 14.58 58.244 0.059 7.17 4.59 10.4
9/25/2021 7:00:00 PM 14.55 58.19 0.06 7.15 4.46 10.35
9/25/2021 7:15:00 PM 14.53 58.154 0.06 7.13 4.56 10.31
9/25/2021 7:30:00 PM 14.5 58.1 0.06 7.12 4.63 10.28
9/25/2021 7:45:00 PM 14.48 58.064 0.06 7.12 4.62 10.26
9/25/2021 8:00:00 PM 14.45 58.01 0.06 7.1 4.76 10.24
9/25/2021 8:15:00 PM 14.43 57.974 0.06 7.09 4.88 10.23
9/25/2021 8:30:00 PM 14.4 57.92 0.06 7.08 4.88 10.22
9/25/2021 8:45:00 PM 14.38 57.884 0.06 7.08 4.78 10.21
9/25/2021 9:00:00 PM 14.36 57.848 0.06 7.07 4.98 10.2
9/25/2021 9:15:00 PM 14.33 57.794 0.06 7.07 5.05 10.2
9/25/2021 9:30:00 PM 14.31 57.758 0.06 7.06 4.83 10.2
9/25/2021 9:45:00 PM 14.29 57.722 0.06 7.06 4.85 10.2
9/25/2021 10:00:00 PM 14.27 57.686 0.06 7.06 4.82 10.2
9/25/2021 10:15:00 PM 14.26 57.668 0.06 7.05 4.96 10.2
9/25/2021 10:30:00 PM 14.22 57.596 0.06 7.05 4.88 10.21
9/25/2021 10:45:00 PM 14.19 57.542 0.06 7.05 4.69 10.21
9/25/2021 11:00:00 PM 14.16 57.488 0.06 7.05 4.82 10.22
9/25/2021 11:15:00 PM 14.14 57.452 0.06 7.05 4.84 10.23
9/25/2021 11:30:00 PM 14.11 57.398 0.06 7.05 4.89 10.23
9/25/2021 11:45:00 PM 14.07 57.326 0.06 7.04 4.66 10.24
9/26/2021 12:00:00 AM 14.03 57.254 0.06 7.04 4.76 10.25
9/26/2021 12:15:00 AM 13.98 57.164 0.06 7.04 4.86 10.26
9/26/2021 12:30:00 AM 13.93 57.074 0.06 7.04 4.84 10.26
9/26/2021 12:45:00 AM 13.88 56.984 0.06 7.04 4.74 10.27
9/26/2021 1:00:00 AM 13.83 56.894 0.061 7.04 4.91 10.28
9/26/2021 1:15:00 AM 13.77 56.786 0.061 7.04 4.91 10.29
9/26/2021 1:30:00 AM 13.72 56.696 0.061 7.04 4.91 10.31
9/26/2021 1:45:00 AM 13.66 56.588 0.061 7.04 4.8 10.32
9/26/2021 2:00:00 AM 13.61 56.498 0.061 7.04 4.71 10.33
9/26/2021 2:15:00 AM 13.56 56.408 0.061 7.04 4.83 10.35
9/26/2021 2:30:00 AM 13.51 56.318 0.061 7.04 4.83 10.36
9/26/2021 2:45:00 AM 13.46 56.228 0.061 7.04 4.81 10.37
9/26/2021 3:00:00 AM 13.41 56.138 0.061 7.04 4.79 10.37
9/26/2021 3:15:00 AM 13.36 56.048 0.061 7.04 4.79 10.38
9/26/2021 3:30:00 AM 13.31 55.958 0.061 7.04 4.68 10.39
9/26/2021 3:45:00 AM 13.27 55.886 0.061 7.05 4.78 10.41
9/26/2021 4:00:00 AM 13.23 55.814 0.061 7.05 4.6 10.42
9/26/2021 4:15:00 AM 13.18 55.724 0.061 7.05 4.65 10.43
9/26/2021 4:30:00 AM 13.15 55.67 0.061 7.05 4.48 10.45
9/26/2021 4:45:00 AM 13.11 55.598 0.061 7.05 4.52 10.46
9/26/2021 5:00:00 AM 13.08 55.544 0.061 7.04 4.72 10.47
9/26/2021 5:15:00 AM 13.05 55.49 0.061 7.05 4.54 10.47
9/26/2021 5:30:00 AM 13.01 55.418 0.061 7.05 4.52 10.48
9/26/2021 5:45:00 AM 12.97 55.346 0.061 7.04 4.48 10.49
9/26/2021 6:00:00 AM 12.93 55.274 0.061 7.05 4.43 10.5
9/26/2021 6:15:00 AM 12.89 55.202 0.061 7.04 4.6 10.52
9/26/2021 6:30:00 AM 12.84 55.112 0.061 7.04 4.4 10.53
9/26/2021 6:45:00 AM 12.8 55.04 0.061 7.05 4.61 10.54
9/26/2021 7:00:00 AM 12.77 54.986 0.061 7.04 4.46 10.55
9/26/2021 7:15:00 AM 12.74 54.932 0.061 7.05 4.46 10.56
9/26/2021 7:30:00 AM 12.7 54.86 0.061 7.05 4.6 10.59
9/26/2021 7:45:00 AM 12.68 54.824 0.061 7.06 4.53 10.61
9/26/2021 8:00:00 AM 12.66 54.788 0.061 7.06 4.37 10.65
9/26/2021 8:15:00 AM 12.65 54.77 0.061 7.07 4.34 10.69
9/26/2021 8:30:00 AM 12.63 54.734 0.061 7.08 4.44 10.74
9/26/2021 8:45:00 AM 12.62 54.716 0.061 7.09 4.2 10.79
9/26/2021 9:00:00 AM 12.63 54.734 0.061 7.1 4.12 10.86
9/26/2021 9:15:00 AM 12.62 54.716 0.061 7.11 4.14 10.89
9/26/2021 9:30:00 AM 12.6 54.68 0.061 7.11 4.19 10.89
9/26/2021 9:45:00 AM 12.6 54.68 0.061 7.12 3.92 10.91
9/26/2021 10:00:00 AM 12.6 54.68 0.061 7.13 3.91 10.93
9/26/2021 10:15:00 AM 12.61 54.698 0.061 7.13 3.93 10.93
9/26/2021 10:30:00 AM 12.62 54.716 0.061 7.14 3.9 10.94
9/26/2021 10:45:00 AM 12.65 54.77 0.061 7.15 3.79 10.96
9/26/2021 11:00:00 AM 12.7 54.86 0.061 7.15 3.79 10.97
9/26/2021 11:15:00 AM 12.75 54.95 0.061 7.16 3.83 10.98
9/26/2021 11:30:00 AM 12.81 55.058 0.061 7.16 3.8 10.99
9/26/2021 11:45:00 AM 12.88 55.184 0.061 7.18 3.77 11
9/26/2021 12:00:00 PM 12.96 55.328 0.06 7.19 3.68 11
9/26/2021 12:15:00 PM 13.04 55.472 0.06 7.19 3.71 11
9/26/2021 12:30:00 PM 13.14 55.652 0.06 7.2 3.74 11
9/26/2021 12:45:00 PM 13.23 55.814 0.06 7.21 3.67 11
9/26/2021 1:00:00 PM 13.33 55.994 0.06 7.21 3.72 10.99
9/26/2021 1:15:00 PM 13.44 56.192 0.06 7.22 3.73 10.97
9/26/2021 1:30:00 PM 13.55 56.39 0.06 7.22 3.71 10.95
9/26/2021 1:45:00 PM 13.67 56.606 0.06 7.23 3.69 10.94
9/26/2021 2:00:00 PM 13.79 56.822 0.06 7.24 3.64 10.93
9/26/2021 2:15:00 PM 13.93 57.074 0.06 7.25 3.66 10.93
9/26/2021 2:30:00 PM 14.05 57.29 0.06 7.26 3.7 10.92
9/26/2021 2:45:00 PM 14.17 57.506 0.06 7.26 3.74 10.9
9/26/2021 3:00:00 PM 14.27 57.686 0.06 7.28 3.68 10.86
9/26/2021 3:15:00 PM 14.39 57.902 0.06 7.28 3.67 10.83
9/26/2021 3:30:00 PM 14.51 58.118 0.06 7.29 3.66 10.82
9/26/2021 3:45:00 PM 14.55 58.19 0.06 7.29 3.76 10.77
9/26/2021 4:00:00 PM 14.66 58.388 0.06 7.3 3.56 10.78
9/26/2021 4:15:00 PM 14.77 58.586 0.06 7.3 3.52 10.76
9/26/2021 4:30:00 PM 14.84 58.712 0.06 7.31 3.57 10.74
9/26/2021 4:45:00 PM 14.86 58.748 0.06 7.32 3.57 10.72
9/26/2021 5:00:00 PM 14.89 58.802 0.06 7.31 3.59 10.67
9/26/2021 5:15:00 PM 14.93 58.874 0.06 7.3 3.7 10.63
9/26/2021 5:30:00 PM 14.95 58.91 0.06 7.3 3.69 10.6
9/26/2021 5:45:00 PM 14.97 58.946 0.06 7.29 3.75 10.58
9/26/2021 6:00:00 PM 14.94 58.892 0.06 7.28 3.77 10.53
9/26/2021 6:15:00 PM 14.9 58.82 0.06 7.26 3.94 10.48
9/26/2021 6:30:00 PM 14.86 58.748 0.061 7.25 3.69 10.44
9/26/2021 6:45:00 PM 14.81 58.658 0.061 7.23 3.66 10.38
9/26/2021 7:00:00 PM 14.75 58.55 0.061 7.21 3.68 10.34
9/26/2021 7:15:00 PM 14.69 58.442 0.061 7.19 3.74 10.3
9/26/2021 7:30:00 PM 14.62 58.316 0.061 7.18 3.84 10.27
9/26/2021 7:45:00 PM 14.56 58.208 0.061 7.16 3.84 10.25
9/26/2021 8:00:00 PM 14.51 58.118 0.061 7.15 3.98 10.23
9/26/2021 8:15:00 PM 14.45 58.01 0.061 7.14 3.98 10.22
9/26/2021 8:30:00 PM 14.4 57.92 0.061 7.13 4 10.21
9/26/2021 8:45:00 PM 14.36 57.848 0.061 7.13 4.01 10.21
9/26/2021 9:00:00 PM 14.32 57.776 0.061 7.12 3.87 10.2
9/26/2021 9:15:00 PM 14.29 57.722 0.062 7.12 4.07 10.2
9/26/2021 9:30:00 PM 14.26 57.668 0.062 7.11 3.98 10.2
9/26/2021 9:45:00 PM 14.22 57.596 0.062 7.11 4.02 10.21
9/26/2021 10:00:00 PM 14.19 57.542 0.062 7.1 4.15 10.21
9/26/2021 10:15:00 PM 14.15 57.47 0.062 7.1 3.86 10.21
9/26/2021 10:30:00 PM 14.1 57.38 0.062 7.1 4.15 10.22
9/26/2021 10:45:00 PM 14.05 57.29 0.062 7.1 4.01 10.23
9/26/2021 11:00:00 PM 14.01 57.218 0.062 7.09 4.37 10.23
9/26/2021 11:15:00 PM 13.96 57.128 0.062 7.09 4.17 10.24
9/26/2021 11:30:00 PM 13.92 57.056 0.062 7.09 3.98 10.25
9/26/2021 11:45:00 PM 13.87 56.966 0.062 7.08 3.98 10.26
9/27/2021 12:00:00 AM 13.82 56.876 0.062 7.08 3.92 10.27
9/27/2021 12:15:00 AM 13.77 56.786 0.062 7.08 4.08 10.28
9/27/2021 12:30:00 AM 13.72 56.696 0.062 7.08 3.97 10.29
9/27/2021 12:45:00 AM 13.67 56.606 0.062 7.07 3.89 10.3
9/27/2021 1:00:00 AM 13.62 56.516 0.062 7.06 3.96 10.32
9/27/2021 1:15:00 AM 13.57 56.426 0.062 7.06 4.07 10.33
9/27/2021 1:30:00 AM 13.52 56.336 0.062 7.06 4.01 10.34
9/27/2021 1:45:00 AM 13.47 56.246 0.062 7.06 4.1 10.35
9/27/2021 2:00:00 AM 13.42 56.156 0.062 7.06 3.9 10.36
9/27/2021 2:15:00 AM 13.37 56.066 0.062 7.06 3.91 10.38
9/27/2021 2:30:00 AM 13.32 55.976 0.062 7.06 3.86 10.4
9/27/2021 2:45:00 AM 13.28 55.904 0.062 7.06 3.91 10.41
9/27/2021 3:00:00 AM 13.24 55.832 0.062 7.05 3.8 10.41
9/27/2021 3:15:00 AM 13.2 55.76 0.062 7.06 3.84 10.42
9/27/2021 3:30:00 AM 13.17 55.706 0.062 7.05 3.87 10.44
9/27/2021 3:45:00 AM 13.14 55.652 0.063 7.05 3.74 10.44
9/27/2021 4:00:00 AM 13.12 55.616 0.063 7.05 3.78 10.45
9/27/2021 4:15:00 AM 13.09 55.562 0.063 7.04 3.84 10.46
9/27/2021 4:30:00 AM 13.07 55.526 0.063 7.05 3.75 10.47
9/27/2021 4:45:00 AM 13.05 55.49 0.063 7.05 3.95 10.48
9/27/2021 5:00:00 AM 13.03 55.454 0.063 7.04 3.81 10.49
9/27/2021 5:15:00 AM 13.01 55.418 0.063 7.05 3.68 10.49
9/27/2021 5:30:00 AM 12.99 55.382 0.063 7.04 3.8 10.5
9/27/2021 5:45:00 AM 12.97 55.346 0.063 7.04 3.68 10.51
9/27/2021 6:00:00 AM 12.95 55.31 0.063 7.04 3.76 10.51
9/27/2021 6:15:00 AM 12.92 55.256 0.063 7.04 3.73 10.51
9/27/2021 6:30:00 AM 12.9 55.22 0.063 7.04 3.73 10.52
9/27/2021 6:45:00 AM 12.88 55.184 0.063 7.04 3.71 10.53
9/27/2021 7:00:00 AM 12.85 55.13 0.063 7.04 3.81 10.54
9/27/2021 7:15:00 AM 12.82 55.076 0.063 7.04 3.64 10.55
9/27/2021 7:30:00 AM 12.79 55.022 0.063 7.05 3.53 10.57
9/27/2021 7:45:00 AM 12.77 54.986 0.063 7.06 3.6 10.6
9/27/2021 8:00:00 AM 12.75 54.95 0.063 7.06 3.56 10.63
9/27/2021 8:15:00 AM 12.73 54.914 0.063 7.07 3.52 10.68
9/27/2021 8:30:00 AM 12.73 54.914 0.063 7.09 3.56 10.73
9/27/2021 8:45:00 AM 12.72 54.896 0.063 7.1 3.49 10.76
9/27/2021 9:00:00 AM 12.73 54.914 0.063 7.11 3.42 10.79
9/27/2021 9:15:00 AM 12.74 54.932 0.063 7.12 3.47 10.82
9/27/2021 9:30:00 AM 12.76 54.968 0.063 7.13 3.46 10.85
9/27/2021 9:45:00 AM 12.79 55.022 0.063 7.14 3.35 10.88
9/27/2021 10:00:00 AM 12.83 55.094 0.062 7.15 3.33 10.9
9/27/2021 10:15:00 AM 12.87 55.166 0.062 7.16 3.34 10.93
9/27/2021 10:30:00 AM 12.92 55.256 0.062 7.18 3.25 10.96
9/27/2021 10:45:00 AM 12.98 55.364 0.062 7.19 3.19 10.98
9/27/2021 11:00:00 AM 13.06 55.508 0.062 7.2 3.21 11
9/27/2021 11:15:00 AM 13.14 55.652 0.062 7.21 3.17 11.01
9/27/2021 11:30:00 AM 13.22 55.796 0.062 7.23 3.14 11.02
9/27/2021 11:45:00 AM 13.32 55.976 0.062 7.24 3.26 11.03
9/27/2021 12:00:00 PM 13.42 56.156 0.062 7.26 3.24 11.03
9/27/2021 12:15:00 PM 13.54 56.372 0.062 7.26 3.21 11.04
9/27/2021 12:30:00 PM 13.66 56.588 0.062 7.28 3.13 11.04
9/27/2021 12:45:00 PM 13.77 56.786 0.062 7.29 3.23 11.04
9/27/2021 1:00:00 PM 13.9 57.02 0.062 7.3 3.19 11.03
9/27/2021 1:15:00 PM 14.03 57.254 0.062 7.31 3.35 11.01
9/27/2021 1:30:00 PM 14.17 57.506 0.062 7.33 3.14 11
9/27/2021 1:45:00 PM 14.32 57.776 0.061 7.34 3.22 10.98
9/27/2021 2:00:00 PM 14.47 58.046 0.061 7.35 3.24 10.96
9/27/2021 2:15:00 PM 14.61 58.298 0.061 7.36 3.12 10.93
9/27/2021 2:30:00 PM 14.77 58.586 0.061 7.37 3.25 10.9
9/27/2021 2:45:00 PM 14.93 58.874 0.061 7.38 3.26 10.87
9/27/2021 3:00:00 PM 15.06 59.108 0.061 7.39 3.15 10.84
9/27/2021 3:15:00 PM 15.2 59.36 0.061 7.4 3.22 10.8
9/27/2021 3:30:00 PM 15.34 59.612 0.061 7.4 3.08 10.77
9/27/2021 3:45:00 PM 15.47 59.846 0.061 7.4 3.18 10.72
9/27/2021 4:00:00 PM 15.59 60.062 0.061 7.4 3.25 10.69
9/27/2021 4:15:00 PM 15.7 60.26 0.061 7.41 3.31 10.65
9/27/2021 4:30:00 PM 15.8 60.44 0.061 7.41 3.24 10.61
9/27/2021 4:45:00 PM 15.89 60.602 0.061 7.41 3.33 10.58
9/27/2021 5:00:00 PM 15.95 60.71 0.061 7.41 3.28 10.54
9/27/2021 5:15:00 PM 16.01 60.818 0.061 7.4 3.3 10.5
9/27/2021 5:30:00 PM 16.06 60.908 0.061 7.39 3.4 10.45
9/27/2021 5:45:00 PM 16.1 60.98 0.061 7.38 3.35 10.4
9/27/2021 6:00:00 PM 16.11 60.998 0.061 7.36 3.34 10.34
9/27/2021 6:15:00 PM 16.1 60.98 0.061 7.34 3.42 10.27
9/27/2021 6:30:00 PM 16.07 60.926 0.062 7.31 3.35 10.2
9/27/2021 6:45:00 PM 16.04 60.872 0.062 7.29 3.26 10.13
9/27/2021 7:00:00 PM 15.99 60.782 0.062 7.26 3.29 10.06
9/27/2021 7:15:00 PM 15.94 60.692 0.062 7.23 3.31 10
9/27/2021 7:30:00 PM 15.88 60.584 0.062 7.21 3.39 9.96
9/27/2021 7:45:00 PM 15.82 60.476 0.062 7.19 3.4 9.93
9/27/2021 8:00:00 PM 15.76 60.368 0.063 7.17 3.58 9.9
9/27/2021 8:15:00 PM 15.71 60.278 0.063 7.16 3.59 9.89
9/27/2021 8:30:00 PM 15.65 60.17 0.063 7.15 3.5 9.88
9/27/2021 8:45:00 PM 15.6 60.08 0.063 7.14 3.45 9.87
9/27/2021 9:00:00 PM 15.54 59.972 0.063 7.13 3.61 9.87
9/27/2021 9:15:00 PM 15.49 59.882 0.063 7.13 3.66 9.87
9/27/2021 9:30:00 PM 15.44 59.792 0.063 7.12 3.65 9.87
9/27/2021 9:45:00 PM 15.4 59.72 0.063 7.12 3.62 9.88
9/27/2021 10:00:00 PM 15.35 59.63 0.063 7.11 3.62 9.88
9/27/2021 10:15:00 PM 15.31 59.558 0.063 7.1 3.57 9.89
9/27/2021 10:30:00 PM 15.27 59.486 0.063 7.1 3.57 9.89
9/27/2021 10:45:00 PM 15.23 59.414 0.064 7.1 3.48 9.9
9/27/2021 11:00:00 PM 15.19 59.342 0.064 7.1 3.52 9.9
9/27/2021 11:15:00 PM 15.15 59.27 0.064 7.1 3.58 9.91
9/27/2021 11:30:00 PM 15.12 59.216 0.064 7.1 3.52 9.92
9/27/2021 11:45:00 PM 15.08 59.144 0.064 7.1 3.6 9.92
9/28/2021 12:00:00 AM 15.04 59.072 0.064 7.09 3.54 9.93
9/28/2021 12:15:00 AM 15.01 59.018 0.064 7.09 3.61 9.94
9/28/2021 12:30:00 AM 14.97 58.946 0.064 7.09 3.59 9.94
9/28/2021 12:45:00 AM 14.94 58.892 0.064 7.08 3.56 9.95
9/28/2021 1:00:00 AM 14.91 58.838 0.064 7.09 3.68 9.96
9/28/2021 1:15:00 AM 14.89 58.802 0.064 7.08 3.5 9.96
9/28/2021 1:30:00 AM 14.87 58.766 0.064 7.08 3.45 9.97
9/28/2021 1:45:00 AM 14.85 58.73 0.064 7.08 3.52 9.98
9/28/2021 2:00:00 AM 14.84 58.712 0.064 7.08 3.46 9.98
9/28/2021 2:15:00 AM 14.82 58.676 0.064 7.08 3.46 9.99
9/28/2021 2:30:00 AM 14.81 58.658 0.064 7.08 3.55 9.99
9/28/2021 2:45:00 AM 14.79 58.622 0.064 7.08 3.49 9.99
9/28/2021 3:00:00 AM 14.78 58.604 0.064 7.08 3.46 10
9/28/2021 3:15:00 AM 14.76 58.568 0.064 7.08 3.49 10
9/28/2021 3:30:00 AM 14.74 58.532 0.064 7.08 3.4 10
9/28/2021 3:45:00 AM 14.72 58.496 0.064 7.08 3.44 10.01
9/28/2021 4:00:00 AM 14.7 58.46 0.064 7.08 3.73 10.01
9/28/2021 4:15:00 AM 14.68 58.424 0.065 7.07 3.43 10.01
9/28/2021 4:30:00 AM 14.67 58.406 0.065 7.07 3.55 10.02
9/28/2021 4:45:00 AM 14.65 58.37 0.065 7.07 3.41 10.02
9/28/2021 5:00:00 AM 14.64 58.352 0.065 7.06 3.44 10.02
9/28/2021 5:15:00 AM 14.63 58.334 0.065 7.07 3.47 10.03
9/28/2021 5:30:00 AM 14.61 58.298 0.065 7.07 3.46 10.03
9/28/2021 5:45:00 AM 14.59 58.262 0.065 7.06 3.48 10.04
9/28/2021 6:00:00 AM 14.57 58.226 0.065 7.06 3.45 10.04
9/28/2021 6:15:00 AM 14.56 58.208 0.065 7.06 3.43 10.04
9/28/2021 6:30:00 AM 14.54 58.172 0.065 7.06 3.38 10.04
9/28/2021 6:45:00 AM 14.53 58.154 0.065 7.06 3.57 10.05
9/28/2021 7:00:00 AM 14.53 58.154 0.065 7.06 3.45 10.05
9/28/2021 7:15:00 AM 14.52 58.136 0.065 7.06 3.49 10.06
9/28/2021 7:30:00 AM 14.52 58.136 0.065 7.06 3.41 10.07
9/28/2021 7:45:00 AM 14.51 58.118 0.065 7.06 3.24 10.08
9/28/2021 8:00:00 AM 14.51 58.118 0.065 7.06 3.36 10.09
9/28/2021 8:15:00 AM 14.51 58.118 0.065 7.06 3.31 10.1
9/28/2021 8:30:00 AM 14.52 58.136 0.065 7.06 3.19 10.11
9/28/2021 8:45:00 AM 14.52 58.136 0.065 7.06 3.17 10.12
9/28/2021 9:00:00 AM 14.52 58.136 0.065 7.07 3.05 10.14
9/28/2021 9:15:00 AM 14.53 58.154 0.065 7.07 3.09 10.15
9/28/2021 9:30:00 AM 14.54 58.172 0.065 7.07 3.1 10.18
9/28/2021 9:45:00 AM 14.55 58.19 0.065 7.08 3 10.2
9/28/2021 10:00:00 AM 14.56 58.208 0.065 7.08 3.11 10.21
9/28/2021 10:15:00 AM 14.57 58.226 0.065 7.09 3.05 10.24
9/28/2021 10:30:00 AM 14.58 58.244 0.065 7.1 3.01 10.26
9/28/2021 10:45:00 AM 14.6 58.28 0.065 7.1 3.1 10.3
9/28/2021 11:00:00 AM 14.7 58.46 0.065 7.12 2.94 10.46
9/28/2021 11:15:00 AM 14.74 58.532 0.065 7.15 2.99 10.52
9/28/2021 11:30:00 AM 14.76 58.568 0.065 7.17 3.04 10.54
9/28/2021 11:45:00 AM 14.87 58.766 0.065 7.2 3.06 10.62
9/28/2021 12:00:00 PM 14.94 58.892 0.065 7.24 2.99 10.68
9/28/2021 12:15:00 PM 15 59 0.065 7.26 2.91 10.7
9/28/2021 12:30:00 PM 15.08 59.144 0.064 7.28 2.92 10.72
9/28/2021 12:45:00 PM 15.17 59.306 0.064 7.31 3 10.74
9/28/2021 1:00:00 PM 15.26 59.468 0.064 7.33 3 10.78
9/28/2021 1:15:00 PM 15.34 59.612 0.064 7.35 2.99 10.78
9/28/2021 1:30:00 PM 15.39 59.702 0.064 7.36 2.92 10.77
9/28/2021 1:45:00 PM 15.5 59.9 0.064 7.38 2.87 10.77
9/28/2021 2:00:00 PM 15.55 59.99 0.064 7.4 2.98 10.78
9/28/2021 2:15:00 PM 15.64 60.152 0.064 7.42 2.95 10.78
9/28/2021 2:30:00 PM 15.72 60.296 0.064 7.43 2.91 10.78
9/28/2021 2:45:00 PM 15.79 60.422 0.064 7.45 2.95 10.74
9/28/2021 3:00:00 PM 15.91 60.638 0.064 7.45 3 10.7
9/28/2021 3:15:00 PM 16 60.8 0.064 7.44 3.05 10.65
9/28/2021 3:30:00 PM 16.08 60.944 0.064 7.45 2.96 10.62
9/28/2021 3:45:00 PM 16.17 61.106 0.064 7.45 2.98 10.6
9/28/2021 4:00:00 PM 16.25 61.25 0.064 7.45 2.93 10.57
9/28/2021 4:15:00 PM 16.3 61.34 0.064 7.45 2.93 10.52
9/28/2021 4:30:00 PM 16.33 61.394 0.064 7.43 2.98 10.48
9/28/2021 4:45:00 PM 16.35 61.43 0.064 7.43 2.98 10.44
9/28/2021 5:00:00 PM 16.36 61.448 0.064 7.41 2.95 10.39
9/28/2021 5:15:00 PM 16.36 61.448 0.064 7.4 2.99 10.34
9/28/2021 5:30:00 PM 16.35 61.43 0.064 7.38 2.98 10.28
9/28/2021 5:45:00 PM 16.32 61.376 0.064 7.36 3.09 10.23
9/28/2021 6:00:00 PM 16.27 61.286 0.064 7.34 3.01 10.18
9/28/2021 6:15:00 PM 16.21 61.178 0.064 7.32 3.07 10.14
9/28/2021 6:30:00 PM 16.12 61.016 0.065 7.3 3.08 10.09
9/28/2021 6:45:00 PM 16.02 60.836 0.065 7.28 2.97 10.05
9/28/2021 7:00:00 PM 15.92 60.656 0.065 7.26 3.04 10.01
9/28/2021 7:15:00 PM 15.83 60.494 0.065 7.24 3.08 9.98
9/28/2021 7:30:00 PM 15.73 60.314 0.065 7.22 3.15 9.95
9/28/2021 7:45:00 PM 15.64 60.152 0.065 7.21 3.35 9.93
9/28/2021 8:00:00 PM 15.56 60.008 0.065 7.2 3.41 9.92
9/28/2021 8:15:00 PM 15.49 59.882 0.065 7.18 3.27 9.91
9/28/2021 8:30:00 PM 15.42 59.756 0.065 7.18 3.28 9.92
9/28/2021 8:45:00 PM 15.34 59.612 0.066 7.17 3.23 9.92
9/28/2021 9:00:00 PM 15.26 59.468 0.066 7.16 3.45 9.93
9/28/2021 9:15:00 PM 15.18 59.324 0.066 7.16 3.37 9.93
9/28/2021 9:30:00 PM 15.11 59.198 0.066 7.15 3.32 9.95
9/28/2021 9:45:00 PM 15.03 59.054 0.066 7.15 3.28 9.96
9/28/2021 10:00:00 PM 14.95 58.91 0.066 7.14 3.32 9.98
9/28/2021 10:15:00 PM 14.88 58.784 0.066 7.14 3.41 9.99
9/28/2021 10:30:00 PM 14.8 58.64 0.066 7.14 3.36 10
9/28/2021 10:45:00 PM 14.75 58.55 0.066 7.13 3.35 10.02
9/28/2021 11:00:00 PM 14.68 58.424 0.067 7.13 3.25 10.03
9/28/2021 11:15:00 PM 14.63 58.334 0.067 7.13 3.36 10.05
9/28/2021 11:30:00 PM 14.56 58.208 0.067 7.13 3.36 10.06
9/28/2021 11:45:00 PM 14.5 58.1 0.067 7.13 3.28 10.08
9/29/2021 12:00:00 AM 14.45 58.01 0.067 7.13 3.28 10.1
9/29/2021 12:15:00 AM 14.39 57.902 0.067 7.13 3.24 10.11
9/29/2021 12:30:00 AM 14.34 57.812 0.067 7.13 3.25 10.12
9/29/2021 12:45:00 AM 14.29 57.722 0.067 7.12 3.37 10.13
9/29/2021 1:00:00 AM 14.24 57.632 0.067 7.12 3.28 10.15
9/29/2021 1:15:00 AM 14.18 57.524 0.067 7.12 3.28 10.16
9/29/2021 1:30:00 AM 14.13 57.434 0.067 7.12 3.26 10.17
9/29/2021 1:45:00 AM 14.08 57.344 0.068 7.12 3.29 10.19
9/29/2021 2:00:00 AM 14.02 57.236 0.068 7.12 3.38 10.2
9/29/2021 2:15:00 AM 13.97 57.146 0.068 7.11 3.26 10.21
9/29/2021 2:30:00 AM 13.93 57.074 0.068 7.12 3.47 10.22
9/29/2021 2:45:00 AM 13.88 56.984 0.068 7.11 3.38 10.23
9/29/2021 3:00:00 AM 13.82 56.876 0.068 7.11 3.24 10.25
9/29/2021 3:15:00 AM 13.77 56.786 0.068 7.11 3.24 10.26
9/29/2021 3:30:00 AM 13.72 56.696 0.068 7.11 3.41 10.27
9/29/2021 3:45:00 AM 13.68 56.624 0.068 7.11 3.24 10.29
9/29/2021 4:00:00 AM 13.64 56.552 0.068 7.11 3.33 10.3
9/29/2021 4:15:00 AM 13.59 56.462 0.068 7.11 3.19 10.31
9/29/2021 4:30:00 AM 13.54 56.372 0.068 7.11 3.2 10.32
9/29/2021 4:45:00 AM 13.48 56.264 0.068 7.11 3.21 10.34
9/29/2021 5:00:00 AM 13.43 56.174 0.068 7.11 3.13 10.34
9/29/2021 5:15:00 AM 13.38 56.084 0.068 7.11 3.32 10.36
9/29/2021 5:30:00 AM 13.34 56.012 0.068 7.11 3.24 10.38
9/29/2021 5:45:00 AM 13.3 55.94 0.068 7.11 3.31 10.38
9/29/2021 6:00:00 AM 13.26 55.868 0.068 7.11 3.18 10.39
9/29/2021 6:15:00 AM 13.23 55.814 0.068 7.11 3.15 10.41
9/29/2021 6:30:00 AM 13.18 55.724 0.068 7.11 3.19 10.42
9/29/2021 6:45:00 AM 13.14 55.652 0.068 7.11 3.23 10.43
9/29/2021 7:00:00 AM 13.11 55.598 0.068 7.11 3.16 10.44
9/29/2021 7:15:00 AM 13.08 55.544 0.068 7.11 3.16 10.46
9/29/2021 7:30:00 AM 13.05 55.49 0.068 7.11 3.06 10.49
9/29/2021 7:45:00 AM 13.02 55.436 0.068 7.12 2.99 10.52
9/29/2021 8:00:00 AM 12.99 55.382 0.068 7.13 2.91 10.58
9/29/2021 8:15:00 AM 12.95 55.31 0.068 7.14 2.99 10.63
9/29/2021 8:30:00 AM 12.92 55.256 0.068 7.15 2.93 10.67
9/29/2021 8:45:00 AM 12.9 55.22 0.068 7.16 2.95 10.73
9/29/2021 9:00:00 AM 12.88 55.184 0.068 7.17 2.9 10.77
9/29/2021 9:15:00 AM 12.88 55.184 0.068 7.18 2.87 10.82
9/29/2021 9:30:00 AM 12.88 55.184 0.068 7.19 2.92 10.87
9/29/2021 9:45:00 AM 12.88 55.184 0.068 7.2 2.89 10.9
9/29/2021 10:00:00 AM 12.89 55.202 0.068 7.21 2.88 10.94
9/29/2021 10:15:00 AM 12.92 55.256 0.068 7.22 2.87 10.97
9/29/2021 10:30:00 AM 12.96 55.328 0.068 7.24 2.91 11
9/29/2021 10:45:00 AM 13.01 55.418 0.068 7.25 2.85 11.02
9/29/2021 11:00:00 AM 13.06 55.508 0.068 7.26 2.85 11.04
9/29/2021 11:15:00 AM 13.11 55.598 0.067 7.27 2.86 11.06
9/29/2021 11:30:00 AM 13.16 55.688 0.067 7.28 2.92 11.06
9/29/2021 11:45:00 AM 13.23 55.814 0.067 7.3 2.85 11.08
9/29/2021 12:00:00 PM 13.34 56.012 0.067 7.31 2.82 11.1
9/29/2021 12:15:00 PM 13.43 56.174 0.067 7.32 2.8 11.1
9/29/2021 12:30:00 PM 13.52 56.336 0.067 7.33 2.71 11.1
9/29/2021 12:45:00 PM 13.61 56.498 0.067 7.34 2.78 11.08
9/29/2021 1:00:00 PM 13.71 56.678 0.067 7.36 2.72 11.08
9/29/2021 1:15:00 PM 13.78 56.804 0.067 7.36 2.72 11.08
9/29/2021 1:30:00 PM 13.93 57.074 0.067 7.38 2.77 11.09
9/29/2021 1:45:00 PM 14.02 57.236 0.067 7.39 2.75 11.08
9/29/2021 2:00:00 PM 14.08 57.344 0.067 7.4 2.74 11.06
9/29/2021 2:15:00 PM 14.25 57.65 0.067 7.41 2.7 11.05
9/29/2021 2:30:00 PM 14.4 57.92 0.067 7.42 2.79 11.01
9/29/2021 2:45:00 PM 14.53 58.154 0.067 7.43 2.89 10.99
9/29/2021 3:00:00 PM 14.55 58.19 0.067 7.42 2.85 10.94
9/29/2021 3:15:00 PM 14.67 58.406 0.067 7.43 2.76 10.91
9/29/2021 3:30:00 PM 14.83 58.694 0.067 7.44 2.82 10.92
9/29/2021 3:45:00 PM 14.95 58.91 0.067 7.45 2.81 10.89
9/29/2021 4:00:00 PM 15.02 59.036 0.067 7.45 2.84 10.85
9/29/2021 4:15:00 PM 15.11 59.198 0.067 7.45 2.72 10.81
9/29/2021 4:30:00 PM 15.22 59.396 0.067 7.46 2.72 10.78
9/29/2021 4:45:00 PM 15.29 59.522 0.066 7.45 2.91 10.73
9/29/2021 5:00:00 PM 15.36 59.648 0.067 7.45 2.69 10.7
9/29/2021 5:15:00 PM 15.4 59.72 0.066 7.44 2.95 10.64
9/29/2021 5:30:00 PM 15.41 59.738 0.067 7.42 2.83 10.58
9/29/2021 5:45:00 PM 15.41 59.738 0.067 7.4 2.92 10.52
9/29/2021 6:00:00 PM 15.39 59.702 0.067 7.38 2.82 10.45
9/29/2021 6:15:00 PM 15.36 59.648 0.067 7.36 2.82 10.39
9/29/2021 6:30:00 PM 15.32 59.576 0.067 7.34 2.86 10.33
9/29/2021 6:45:00 PM 15.27 59.486 0.067 7.31 2.81 10.27
9/29/2021 7:00:00 PM 15.2 59.36 0.067 7.29 2.85 10.22
9/29/2021 7:15:00 PM 15.13 59.234 0.067 7.27 2.83 10.18
9/29/2021 7:30:00 PM 15.06 59.108 0.067 7.25 2.91 10.15
9/29/2021 7:45:00 PM 14.98 58.964 0.068 7.23 2.9 10.12
9/29/2021 8:00:00 PM 14.9 58.82 0.068 7.22 2.96 10.11
9/29/2021 8:15:00 PM 14.82 58.676 0.068 7.21 3.07 10.1
9/29/2021 8:30:00 PM 14.75 58.55 0.068 7.2 3.05 10.1
9/29/2021 8:45:00 PM 14.67 58.406 0.068 7.19 3.13 10.11
9/29/2021 9:00:00 PM 14.59 58.262 0.068 7.19 3.14 10.11
9/29/2021 9:15:00 PM 14.51 58.118 0.068 7.18 3.17 10.12
9/29/2021 9:30:00 PM 14.43 57.974 0.068 7.17 3.2 10.13
9/29/2021 9:45:00 PM 14.34 57.812 0.068 7.17 3.17 10.15
9/29/2021 10:00:00 PM 14.25 57.65 0.068 7.17 3.13 10.17
9/29/2021 10:15:00 PM 14.17 57.506 0.069 7.17 3.1 10.19
9/29/2021 10:30:00 PM 14.08 57.344 0.069 7.17 3.1 10.21
9/29/2021 10:45:00 PM 14 57.2 0.069 7.16 3.03 10.22
9/29/2021 11:00:00 PM 13.92 57.056 0.069 7.16 3.12 10.24
9/29/2021 11:15:00 PM 13.85 56.93 0.069 7.15 3.08 10.26
9/29/2021 11:30:00 PM 13.77 56.786 0.069 7.15 3.07 10.28
9/29/2021 11:45:00 PM 13.69 56.642 0.069 7.15 3.13 10.3
9/30/2021 12:00:00 AM 13.61 56.498 0.069 7.15 3.08 10.32
9/30/2021 12:15:00 AM 13.54 56.372 0.069 7.14 3.06 10.33
9/30/2021 12:30:00 AM 13.46 56.228 0.069 7.14 3.01 10.36
9/30/2021 12:45:00 AM 13.39 56.102 0.069 7.15 3.02 10.37
9/30/2021 1:00:00 AM 13.33 55.994 0.069 7.14 3.07 10.4
9/30/2021 1:15:00 AM 13.27 55.886 0.069 7.14 3.05 10.41
9/30/2021 1:30:00 AM 13.19 55.742 0.069 7.14 3.12 10.43
9/30/2021 1:45:00 AM 13.13 55.634 0.069 7.14 3.13 10.44
9/30/2021 2:00:00 AM 13.06 55.508 0.069 7.14 3.03 10.46
9/30/2021 2:15:00 AM 13 55.4 0.069 7.14 3.12 10.47
9/30/2021 2:30:00 AM 12.93 55.274 0.069 7.14 3.06 10.49
9/30/2021 2:45:00 AM 12.87 55.166 0.069 7.13 3.05 10.51
9/30/2021 3:00:00 AM 12.82 55.076 0.069 7.14 3.02 10.52
9/30/2021 3:15:00 AM 12.78 55.004 0.069 7.13 3.04 10.54
9/30/2021 3:30:00 AM 12.73 54.914 0.069 7.13 2.97 10.55
9/30/2021 3:45:00 AM 12.68 54.824 0.069 7.13 2.96 10.57
9/30/2021 4:00:00 AM 12.64 54.752 0.069 7.13 2.97 10.58
9/30/2021 4:15:00 AM 12.6 54.68 0.069 7.13 2.96 10.59
9/30/2021 4:30:00 AM 12.56 54.608 0.069 7.14 3.01 10.6
9/30/2021 4:45:00 AM 12.52 54.536 0.069 7.13 2.99 10.62
9/30/2021 5:00:00 AM 12.48 54.464 0.069 7.13 2.92 10.63
9/30/2021 5:15:00 AM 12.44 54.392 0.07 7.13 3.01 10.64
9/30/2021 5:30:00 AM 12.4 54.32 0.07 7.13 2.9 10.65
9/30/2021 5:45:00 AM 12.36 54.248 0.07 7.14 2.95 10.67
9/30/2021 6:00:00 AM 12.31 54.158 0.07 7.13 2.96 10.68
9/30/2021 6:15:00 AM 12.26 54.068 0.07 7.13 3 10.69
9/30/2021 6:30:00 AM 12.22 53.996 0.07 7.13 2.97 10.7
9/30/2021 6:45:00 AM 12.17 53.906 0.07 7.13 2.97 10.72
9/30/2021 7:00:00 AM 12.12 53.816 0.07 7.14 2.93 10.73
9/30/2021 7:15:00 AM 12.07 53.726 0.07 7.13 2.99 10.75
9/30/2021 7:30:00 AM 12.03 53.654 0.07 7.14 2.88 10.78
9/30/2021 7:45:00 AM 11.99 53.582 0.07 7.14 2.86 10.82
9/30/2021 8:00:00 AM 11.96 53.528 0.07 7.15 2.83 10.86
9/30/2021 8:15:00 AM 11.93 53.474 0.07 7.16 2.81 10.96
9/30/2021 8:30:00 AM 11.92 53.456 0.07 7.18 2.78 11.08
9/30/2021 8:45:00 AM 11.91 53.438 0.07 7.2 2.78 11.16
9/30/2021 9:00:00 AM 11.9 53.42 0.07 7.21 2.72 11.24
9/30/2021 9:15:00 AM 11.9 53.42 0.069 7.24 2.73 11.31
9/30/2021 9:30:00 AM 11.9 53.42 0.069 7.26 2.66 11.36
9/30/2021 9:45:00 AM 11.9 53.42 0.069 7.27 2.71 11.43
9/30/2021 10:00:00 AM 11.94 53.492 0.069 7